<?xml version="1.0" encoding="UTF-8" standalone="no" ?>
<gpx xmlns="http://www.topografix.com/GPX/1/1" xmlns:xsi="http://www.w3.org/2001/XMLSchema-instance" xsi:schemaLocation="http://www.topografix.com/GPX/1/1 http://www.topografix.com/GPX/1/1/gpx.xsd" version="1.1" creator="VisuGPX - https://www.visugpx.com">
  <metadata>
    <name>RSPG Faye col du Colombier</name>
    <desc><![CDATA[départ sur la route du col de Faye KM 3 prendre le sentier qui monte vers le col du Colmbier et retour par lemême chemin. Animateurs RSPG Bernard et Henri.
Participants 42 ]]></desc>
  </metadata>
  <trk>
    <name><![CDATA[Faye Col du Colombier: 25 AVR 2013 09:15]]></name>
    <trkseg>
      <trkpt lat="44.37494" lon="5.87063">
        <ele>780.25</ele>
        <time>2013-04-25T07:15:44Z</time>
      </trkpt>
      <trkpt lat="44.37493" lon="5.87062">
        <ele>780.73</ele>
        <time>2013-04-25T07:16:04Z</time>
      </trkpt>
      <trkpt lat="44.37492" lon="5.87063">
        <ele>780.73</ele>
        <time>2013-04-25T07:16:34Z</time>
      </trkpt>
      <trkpt lat="44.37491" lon="5.8706">
        <ele>780.73</ele>
        <time>2013-04-25T07:17:04Z</time>
      </trkpt>
      <trkpt lat="44.37491" lon="5.87061">
        <ele>780.73</ele>
        <time>2013-04-25T07:17:31Z</time>
      </trkpt>
      <trkpt lat="44.37486" lon="5.87055">
        <ele>780.73</ele>
        <time>2013-04-25T07:17:51Z</time>
      </trkpt>
      <trkpt lat="44.37485" lon="5.8705">
        <ele>781.21</ele>
        <time>2013-04-25T07:17:56Z</time>
      </trkpt>
      <trkpt lat="44.37487" lon="5.87032">
        <ele>783.13</ele>
        <time>2013-04-25T07:18:12Z</time>
      </trkpt>
      <trkpt lat="44.37489" lon="5.87022">
        <ele>784.09</ele>
        <time>2013-04-25T07:18:24Z</time>
      </trkpt>
      <trkpt lat="44.37489" lon="5.87007">
        <ele>785.53</ele>
        <time>2013-04-25T07:18:39Z</time>
      </trkpt>
      <trkpt lat="44.37491" lon="5.86991">
        <ele>787.46</ele>
        <time>2013-04-25T07:18:55Z</time>
      </trkpt>
      <trkpt lat="44.37493" lon="5.86977">
        <ele>788.9</ele>
        <time>2013-04-25T07:19:10Z</time>
      </trkpt>
      <trkpt lat="44.37493" lon="5.86966">
        <ele>789.86</ele>
        <time>2013-04-25T07:19:22Z</time>
      </trkpt>
      <trkpt lat="44.37495" lon="5.86952">
        <ele>791.78</ele>
        <time>2013-04-25T07:19:37Z</time>
      </trkpt>
      <trkpt lat="44.37499" lon="5.86939">
        <ele>793.22</ele>
        <time>2013-04-25T07:19:52Z</time>
      </trkpt>
      <trkpt lat="44.37499" lon="5.86922">
        <ele>794.67</ele>
        <time>2013-04-25T07:20:08Z</time>
      </trkpt>
      <trkpt lat="44.37497" lon="5.86906">
        <ele>796.11</ele>
        <time>2013-04-25T07:20:23Z</time>
      </trkpt>
      <trkpt lat="44.37495" lon="5.86894">
        <ele>798.03</ele>
        <time>2013-04-25T07:20:39Z</time>
      </trkpt>
      <trkpt lat="44.37493" lon="5.86879">
        <ele>799.47</ele>
        <time>2013-04-25T07:20:54Z</time>
      </trkpt>
      <trkpt lat="44.37493" lon="5.86864">
        <ele>801.4</ele>
        <time>2013-04-25T07:21:10Z</time>
      </trkpt>
      <trkpt lat="44.37495" lon="5.86852">
        <ele>803.32</ele>
        <time>2013-04-25T07:21:24Z</time>
      </trkpt>
      <trkpt lat="44.37498" lon="5.8684">
        <ele>804.76</ele>
        <time>2013-04-25T07:21:37Z</time>
      </trkpt>
      <trkpt lat="44.37499" lon="5.8683">
        <ele>805.72</ele>
        <time>2013-04-25T07:21:47Z</time>
      </trkpt>
      <trkpt lat="44.375" lon="5.86816">
        <ele>807.64</ele>
        <time>2013-04-25T07:22:03Z</time>
      </trkpt>
      <trkpt lat="44.37501" lon="5.86801">
        <ele>809.57</ele>
        <time>2013-04-25T07:22:19Z</time>
      </trkpt>
      <trkpt lat="44.37502" lon="5.86787">
        <ele>811.01</ele>
        <time>2013-04-25T07:22:34Z</time>
      </trkpt>
      <trkpt lat="44.37502" lon="5.86775">
        <ele>812.45</ele>
        <time>2013-04-25T07:22:46Z</time>
      </trkpt>
      <trkpt lat="44.37502" lon="5.86761">
        <ele>814.37</ele>
        <time>2013-04-25T07:23:01Z</time>
      </trkpt>
      <trkpt lat="44.375" lon="5.86747">
        <ele>815.34</ele>
        <time>2013-04-25T07:23:15Z</time>
      </trkpt>
      <trkpt lat="44.37499" lon="5.86732">
        <ele>817.26</ele>
        <time>2013-04-25T07:23:28Z</time>
      </trkpt>
      <trkpt lat="44.37499" lon="5.86731">
        <ele>817.26</ele>
        <time>2013-04-25T07:23:30Z</time>
      </trkpt>
      <trkpt lat="44.37499" lon="5.86718">
        <ele>820.14</ele>
        <time>2013-04-25T07:23:44Z</time>
      </trkpt>
      <trkpt lat="44.375" lon="5.86718">
        <ele>818.7</ele>
        <time>2013-04-25T07:23:45Z</time>
      </trkpt>
      <trkpt lat="44.375" lon="5.86709">
        <ele>819.18</ele>
        <time>2013-04-25T07:23:57Z</time>
      </trkpt>
      <trkpt lat="44.37501" lon="5.86697">
        <ele>822.06</ele>
        <time>2013-04-25T07:24:10Z</time>
      </trkpt>
      <trkpt lat="44.37497" lon="5.8668">
        <ele>823.51</ele>
        <time>2013-04-25T07:24:27Z</time>
      </trkpt>
      <trkpt lat="44.37492" lon="5.86664">
        <ele>824.95</ele>
        <time>2013-04-25T07:24:42Z</time>
      </trkpt>
      <trkpt lat="44.37491" lon="5.86655">
        <ele>825.43</ele>
        <time>2013-04-25T07:24:51Z</time>
      </trkpt>
      <trkpt lat="44.37493" lon="5.86638">
        <ele>826.39</ele>
        <time>2013-04-25T07:25:07Z</time>
      </trkpt>
      <trkpt lat="44.37496" lon="5.86634">
        <ele>826.39</ele>
        <time>2013-04-25T07:25:11Z</time>
      </trkpt>
      <trkpt lat="44.37497" lon="5.86632">
        <ele>826.39</ele>
        <time>2013-04-25T07:25:13Z</time>
      </trkpt>
      <trkpt lat="44.37504" lon="5.86617">
        <ele>827.35</ele>
        <time>2013-04-25T07:25:28Z</time>
      </trkpt>
      <trkpt lat="44.3751" lon="5.86607">
        <ele>827.83</ele>
        <time>2013-04-25T07:25:39Z</time>
      </trkpt>
      <trkpt lat="44.37505" lon="5.86593">
        <ele>828.79</ele>
        <time>2013-04-25T07:25:53Z</time>
      </trkpt>
      <trkpt lat="44.37495" lon="5.86592">
        <ele>830.24</ele>
        <time>2013-04-25T07:26:06Z</time>
      </trkpt>
      <trkpt lat="44.37494" lon="5.86592">
        <ele>830.24</ele>
        <time>2013-04-25T07:26:07Z</time>
      </trkpt>
      <trkpt lat="44.37486" lon="5.86588">
        <ele>829.27</ele>
        <time>2013-04-25T07:26:18Z</time>
      </trkpt>
      <trkpt lat="44.37485" lon="5.86588">
        <ele>832.64</ele>
        <time>2013-04-25T07:26:19Z</time>
      </trkpt>
      <trkpt lat="44.37485" lon="5.86587">
        <ele>829.76</ele>
        <time>2013-04-25T07:26:20Z</time>
      </trkpt>
      <trkpt lat="44.37475" lon="5.86573">
        <ele>831.2</ele>
        <time>2013-04-25T07:26:34Z</time>
      </trkpt>
      <trkpt lat="44.3747" lon="5.86562">
        <ele>832.16</ele>
        <time>2013-04-25T07:26:46Z</time>
      </trkpt>
      <trkpt lat="44.37465" lon="5.86546">
        <ele>834.08</ele>
        <time>2013-04-25T07:27:02Z</time>
      </trkpt>
      <trkpt lat="44.37462" lon="5.86534">
        <ele>835.04</ele>
        <time>2013-04-25T07:27:15Z</time>
      </trkpt>
      <trkpt lat="44.37457" lon="5.86518">
        <ele>836.48</ele>
        <time>2013-04-25T07:27:31Z</time>
      </trkpt>
      <trkpt lat="44.37454" lon="5.86509">
        <ele>837.45</ele>
        <time>2013-04-25T07:27:39Z</time>
      </trkpt>
      <trkpt lat="44.37445" lon="5.86493">
        <ele>837.45</ele>
        <time>2013-04-25T07:27:57Z</time>
      </trkpt>
      <trkpt lat="44.37443" lon="5.86475">
        <ele>838.89</ele>
        <time>2013-04-25T07:28:12Z</time>
      </trkpt>
      <trkpt lat="44.37442" lon="5.86468">
        <ele>839.85</ele>
        <time>2013-04-25T07:28:19Z</time>
      </trkpt>
      <trkpt lat="44.37442" lon="5.86454">
        <ele>841.29</ele>
        <time>2013-04-25T07:28:33Z</time>
      </trkpt>
      <trkpt lat="44.37445" lon="5.86444">
        <ele>842.25</ele>
        <time>2013-04-25T07:28:45Z</time>
      </trkpt>
      <trkpt lat="44.37444" lon="5.86443">
        <ele>842.73</ele>
        <time>2013-04-25T07:29:09Z</time>
      </trkpt>
      <trkpt lat="44.37446" lon="5.86446">
        <ele>842.73</ele>
        <time>2013-04-25T07:29:33Z</time>
      </trkpt>
      <trkpt lat="44.37445" lon="5.86446">
        <ele>843.21</ele>
        <time>2013-04-25T07:30:01Z</time>
      </trkpt>
      <trkpt lat="44.37445" lon="5.86444">
        <ele>843.21</ele>
        <time>2013-04-25T07:30:27Z</time>
      </trkpt>
      <trkpt lat="44.37446" lon="5.86446">
        <ele>843.21</ele>
        <time>2013-04-25T07:30:55Z</time>
      </trkpt>
      <trkpt lat="44.37447" lon="5.86446">
        <ele>843.21</ele>
        <time>2013-04-25T07:31:12Z</time>
      </trkpt>
      <trkpt lat="44.37446" lon="5.86445">
        <ele>843.21</ele>
        <time>2013-04-25T07:31:38Z</time>
      </trkpt>
      <trkpt lat="44.37447" lon="5.86444">
        <ele>843.21</ele>
        <time>2013-04-25T07:31:54Z</time>
      </trkpt>
      <trkpt lat="44.37449" lon="5.86434">
        <ele>844.66</ele>
        <time>2013-04-25T07:32:10Z</time>
      </trkpt>
      <trkpt lat="44.37453" lon="5.86423">
        <ele>846.1</ele>
        <time>2013-04-25T07:32:25Z</time>
      </trkpt>
      <trkpt lat="44.37456" lon="5.86415">
        <ele>847.54</ele>
        <time>2013-04-25T07:32:40Z</time>
      </trkpt>
      <trkpt lat="44.37458" lon="5.86403">
        <ele>847.54</ele>
        <time>2013-04-25T07:32:55Z</time>
      </trkpt>
      <trkpt lat="44.37459" lon="5.86402">
        <ele>850.9</ele>
        <time>2013-04-25T07:32:57Z</time>
      </trkpt>
      <trkpt lat="44.37459" lon="5.86401">
        <ele>848.98</ele>
        <time>2013-04-25T07:32:58Z</time>
      </trkpt>
      <trkpt lat="44.37463" lon="5.86391">
        <ele>850.9</ele>
        <time>2013-04-25T07:33:15Z</time>
      </trkpt>
      <trkpt lat="44.37465" lon="5.86381">
        <ele>852.83</ele>
        <time>2013-04-25T07:33:30Z</time>
      </trkpt>
      <trkpt lat="44.37465" lon="5.86371">
        <ele>853.79</ele>
        <time>2013-04-25T07:33:42Z</time>
      </trkpt>
      <trkpt lat="44.37463" lon="5.86358">
        <ele>854.75</ele>
        <time>2013-04-25T07:33:55Z</time>
      </trkpt>
      <trkpt lat="44.37463" lon="5.86346">
        <ele>856.19</ele>
        <time>2013-04-25T07:34:10Z</time>
      </trkpt>
      <trkpt lat="44.37463" lon="5.86335">
        <ele>857.15</ele>
        <time>2013-04-25T07:34:22Z</time>
      </trkpt>
      <trkpt lat="44.37463" lon="5.86328">
        <ele>858.11</ele>
        <time>2013-04-25T07:34:34Z</time>
      </trkpt>
      <trkpt lat="44.37462" lon="5.86315">
        <ele>859.08</ele>
        <time>2013-04-25T07:34:49Z</time>
      </trkpt>
      <trkpt lat="44.37464" lon="5.86303">
        <ele>860.52</ele>
        <time>2013-04-25T07:35:04Z</time>
      </trkpt>
      <trkpt lat="44.37465" lon="5.86291">
        <ele>861.96</ele>
        <time>2013-04-25T07:35:20Z</time>
      </trkpt>
      <trkpt lat="44.37468" lon="5.86277">
        <ele>862.92</ele>
        <time>2013-04-25T07:35:35Z</time>
      </trkpt>
      <trkpt lat="44.37467" lon="5.86265">
        <ele>864.36</ele>
        <time>2013-04-25T07:35:49Z</time>
      </trkpt>
      <trkpt lat="44.37466" lon="5.86256">
        <ele>865.32</ele>
        <time>2013-04-25T07:36:00Z</time>
      </trkpt>
      <trkpt lat="44.37468" lon="5.86245">
        <ele>866.77</ele>
        <time>2013-04-25T07:36:14Z</time>
      </trkpt>
      <trkpt lat="44.37472" lon="5.86231">
        <ele>868.21</ele>
        <time>2013-04-25T07:36:30Z</time>
      </trkpt>
      <trkpt lat="44.37473" lon="5.86215">
        <ele>870.13</ele>
        <time>2013-04-25T07:36:45Z</time>
      </trkpt>
      <trkpt lat="44.37471" lon="5.86203">
        <ele>870.61</ele>
        <time>2013-04-25T07:36:58Z</time>
      </trkpt>
      <trkpt lat="44.37471" lon="5.86188">
        <ele>871.57</ele>
        <time>2013-04-25T07:37:12Z</time>
      </trkpt>
      <trkpt lat="44.37473" lon="5.86175">
        <ele>873.01</ele>
        <time>2013-04-25T07:37:27Z</time>
      </trkpt>
      <trkpt lat="44.37477" lon="5.86163">
        <ele>874.94</ele>
        <time>2013-04-25T07:37:41Z</time>
      </trkpt>
      <trkpt lat="44.37481" lon="5.86152">
        <ele>876.86</ele>
        <time>2013-04-25T07:37:56Z</time>
      </trkpt>
      <trkpt lat="44.37479" lon="5.86149">
        <ele>877.34</ele>
        <time>2013-04-25T07:38:11Z</time>
      </trkpt>
      <trkpt lat="44.37481" lon="5.8615">
        <ele>877.34</ele>
        <time>2013-04-25T07:38:34Z</time>
      </trkpt>
      <trkpt lat="44.3748" lon="5.86151">
        <ele>877.34</ele>
        <time>2013-04-25T07:39:02Z</time>
      </trkpt>
      <trkpt lat="44.37481" lon="5.86144">
        <ele>877.82</ele>
        <time>2013-04-25T07:39:24Z</time>
      </trkpt>
      <trkpt lat="44.37482" lon="5.86126">
        <ele>879.26</ele>
        <time>2013-04-25T07:39:40Z</time>
      </trkpt>
      <trkpt lat="44.37478" lon="5.86109">
        <ele>875.9</ele>
        <time>2013-04-25T07:39:54Z</time>
      </trkpt>
      <trkpt lat="44.37472" lon="5.86087">
        <ele>871.57</ele>
        <time>2013-04-25T07:40:11Z</time>
      </trkpt>
      <trkpt lat="44.37472" lon="5.86085">
        <ele>871.57</ele>
        <time>2013-04-25T07:40:12Z</time>
      </trkpt>
      <trkpt lat="44.37467" lon="5.86065">
        <ele>868.69</ele>
        <time>2013-04-25T07:40:27Z</time>
      </trkpt>
      <trkpt lat="44.37466" lon="5.86058">
        <ele>868.21</ele>
        <time>2013-04-25T07:40:32Z</time>
      </trkpt>
      <trkpt lat="44.37467" lon="5.86056">
        <ele>867.73</ele>
        <time>2013-04-25T07:40:34Z</time>
      </trkpt>
      <trkpt lat="44.37461" lon="5.86034">
        <ele>866.77</ele>
        <time>2013-04-25T07:40:51Z</time>
      </trkpt>
      <trkpt lat="44.37452" lon="5.86022">
        <ele>864.84</ele>
        <time>2013-04-25T07:41:04Z</time>
      </trkpt>
      <trkpt lat="44.37443" lon="5.86002">
        <ele>862.92</ele>
        <time>2013-04-25T07:41:20Z</time>
      </trkpt>
      <trkpt lat="44.37433" lon="5.85996">
        <ele>861</ele>
        <time>2013-04-25T07:41:32Z</time>
      </trkpt>
      <trkpt lat="44.37426" lon="5.85982">
        <ele>859.08</ele>
        <time>2013-04-25T07:41:44Z</time>
      </trkpt>
      <trkpt lat="44.37421" lon="5.85961">
        <ele>859.08</ele>
        <time>2013-04-25T07:41:59Z</time>
      </trkpt>
      <trkpt lat="44.37416" lon="5.85942">
        <ele>859.08</ele>
        <time>2013-04-25T07:42:14Z</time>
      </trkpt>
      <trkpt lat="44.37414" lon="5.85923">
        <ele>860.52</ele>
        <time>2013-04-25T07:42:30Z</time>
      </trkpt>
      <trkpt lat="44.37411" lon="5.85903">
        <ele>861</ele>
        <time>2013-04-25T07:42:45Z</time>
      </trkpt>
      <trkpt lat="44.3741" lon="5.85899">
        <ele>861.48</ele>
        <time>2013-04-25T07:42:48Z</time>
      </trkpt>
      <trkpt lat="44.3741" lon="5.85896">
        <ele>861.48</ele>
        <time>2013-04-25T07:42:50Z</time>
      </trkpt>
      <trkpt lat="44.3741" lon="5.85894">
        <ele>861.48</ele>
        <time>2013-04-25T07:42:52Z</time>
      </trkpt>
      <trkpt lat="44.37406" lon="5.85867">
        <ele>861.96</ele>
        <time>2013-04-25T07:43:11Z</time>
      </trkpt>
      <trkpt lat="44.37404" lon="5.85854">
        <ele>861</ele>
        <time>2013-04-25T07:43:20Z</time>
      </trkpt>
      <trkpt lat="44.374" lon="5.85827">
        <ele>860.04</ele>
        <time>2013-04-25T07:43:39Z</time>
      </trkpt>
      <trkpt lat="44.37397" lon="5.85806">
        <ele>859.08</ele>
        <time>2013-04-25T07:43:56Z</time>
      </trkpt>
      <trkpt lat="44.37393" lon="5.85788">
        <ele>858.59</ele>
        <time>2013-04-25T07:44:11Z</time>
      </trkpt>
      <trkpt lat="44.3739" lon="5.85774">
        <ele>860.04</ele>
        <time>2013-04-25T07:44:24Z</time>
      </trkpt>
      <trkpt lat="44.37383" lon="5.85756">
        <ele>861</ele>
        <time>2013-04-25T07:44:41Z</time>
      </trkpt>
      <trkpt lat="44.3738" lon="5.85753">
        <ele>861</ele>
        <time>2013-04-25T07:44:46Z</time>
      </trkpt>
      <trkpt lat="44.37373" lon="5.85737">
        <ele>862.44</ele>
        <time>2013-04-25T07:45:01Z</time>
      </trkpt>
      <trkpt lat="44.37369" lon="5.85722">
        <ele>862.92</ele>
        <time>2013-04-25T07:45:19Z</time>
      </trkpt>
      <trkpt lat="44.3737" lon="5.85712">
        <ele>862.44</ele>
        <time>2013-04-25T07:45:33Z</time>
      </trkpt>
      <trkpt lat="44.3737" lon="5.85706">
        <ele>862.44</ele>
        <time>2013-04-25T07:45:39Z</time>
      </trkpt>
      <trkpt lat="44.37367" lon="5.85684">
        <ele>860.04</ele>
        <time>2013-04-25T07:45:57Z</time>
      </trkpt>
      <trkpt lat="44.37375" lon="5.85671">
        <ele>861.96</ele>
        <time>2013-04-25T07:46:13Z</time>
      </trkpt>
      <trkpt lat="44.37375" lon="5.85667">
        <ele>862.44</ele>
        <time>2013-04-25T07:46:17Z</time>
      </trkpt>
      <trkpt lat="44.37374" lon="5.85659">
        <ele>863.4</ele>
        <time>2013-04-25T07:46:24Z</time>
      </trkpt>
      <trkpt lat="44.37377" lon="5.85649">
        <ele>862.44</ele>
        <time>2013-04-25T07:46:38Z</time>
      </trkpt>
      <trkpt lat="44.37379" lon="5.85645">
        <ele>862.92</ele>
        <time>2013-04-25T07:46:53Z</time>
      </trkpt>
      <trkpt lat="44.37382" lon="5.85645">
        <ele>864.36</ele>
        <time>2013-04-25T07:47:13Z</time>
      </trkpt>
      <trkpt lat="44.37382" lon="5.85642">
        <ele>863.4</ele>
        <time>2013-04-25T07:47:25Z</time>
      </trkpt>
      <trkpt lat="44.3738" lon="5.85641">
        <ele>863.4</ele>
        <time>2013-04-25T07:47:42Z</time>
      </trkpt>
      <trkpt lat="44.37382" lon="5.85639">
        <ele>865.32</ele>
        <time>2013-04-25T07:47:58Z</time>
      </trkpt>
      <trkpt lat="44.37382" lon="5.85636">
        <ele>865.8</ele>
        <time>2013-04-25T07:48:16Z</time>
      </trkpt>
      <trkpt lat="44.37383" lon="5.85636">
        <ele>865.8</ele>
        <time>2013-04-25T07:48:36Z</time>
      </trkpt>
      <trkpt lat="44.37384" lon="5.85637">
        <ele>866.29</ele>
        <time>2013-04-25T07:49:00Z</time>
      </trkpt>
      <trkpt lat="44.37384" lon="5.85639">
        <ele>865.8</ele>
        <time>2013-04-25T07:49:24Z</time>
      </trkpt>
      <trkpt lat="44.37383" lon="5.85637">
        <ele>865.8</ele>
        <time>2013-04-25T07:49:38Z</time>
      </trkpt>
      <trkpt lat="44.37381" lon="5.85637">
        <ele>865.8</ele>
        <time>2013-04-25T07:50:05Z</time>
      </trkpt>
      <trkpt lat="44.37383" lon="5.8563">
        <ele>866.29</ele>
        <time>2013-04-25T07:50:35Z</time>
      </trkpt>
      <trkpt lat="44.37388" lon="5.85621">
        <ele>867.73</ele>
        <time>2013-04-25T07:50:48Z</time>
      </trkpt>
      <trkpt lat="44.37391" lon="5.85618">
        <ele>868.69</ele>
        <time>2013-04-25T07:51:06Z</time>
      </trkpt>
      <trkpt lat="44.37394" lon="5.85614">
        <ele>869.17</ele>
        <time>2013-04-25T07:51:29Z</time>
      </trkpt>
      <trkpt lat="44.37393" lon="5.85612">
        <ele>869.65</ele>
        <time>2013-04-25T07:51:46Z</time>
      </trkpt>
      <trkpt lat="44.37393" lon="5.85606">
        <ele>869.65</ele>
        <time>2013-04-25T07:51:57Z</time>
      </trkpt>
      <trkpt lat="44.37393" lon="5.856">
        <ele>870.13</ele>
        <time>2013-04-25T07:52:08Z</time>
      </trkpt>
      <trkpt lat="44.37391" lon="5.85594">
        <ele>870.61</ele>
        <time>2013-04-25T07:52:21Z</time>
      </trkpt>
      <trkpt lat="44.37387" lon="5.85591">
        <ele>871.09</ele>
        <time>2013-04-25T07:52:40Z</time>
      </trkpt>
      <trkpt lat="44.37385" lon="5.85588">
        <ele>871.09</ele>
        <time>2013-04-25T07:52:53Z</time>
      </trkpt>
      <trkpt lat="44.37383" lon="5.85586">
        <ele>871.57</ele>
        <time>2013-04-25T07:53:09Z</time>
      </trkpt>
      <trkpt lat="44.37384" lon="5.85585">
        <ele>873.01</ele>
        <time>2013-04-25T07:53:23Z</time>
      </trkpt>
      <trkpt lat="44.37388" lon="5.85583">
        <ele>873.98</ele>
        <time>2013-04-25T07:53:38Z</time>
      </trkpt>
      <trkpt lat="44.3739" lon="5.8558">
        <ele>875.42</ele>
        <time>2013-04-25T07:53:50Z</time>
      </trkpt>
      <trkpt lat="44.37397" lon="5.85581">
        <ele>877.82</ele>
        <time>2013-04-25T07:54:05Z</time>
      </trkpt>
      <trkpt lat="44.37399" lon="5.85577">
        <ele>878.3</ele>
        <time>2013-04-25T07:54:17Z</time>
      </trkpt>
      <trkpt lat="44.37404" lon="5.85573">
        <ele>880.22</ele>
        <time>2013-04-25T07:54:30Z</time>
      </trkpt>
      <trkpt lat="44.37404" lon="5.85566">
        <ele>881.67</ele>
        <time>2013-04-25T07:54:41Z</time>
      </trkpt>
      <trkpt lat="44.37399" lon="5.85555">
        <ele>884.07</ele>
        <time>2013-04-25T07:54:58Z</time>
      </trkpt>
      <trkpt lat="44.37397" lon="5.85546">
        <ele>885.51</ele>
        <time>2013-04-25T07:55:11Z</time>
      </trkpt>
      <trkpt lat="44.37395" lon="5.85534">
        <ele>886.95</ele>
        <time>2013-04-25T07:55:27Z</time>
      </trkpt>
      <trkpt lat="44.37389" lon="5.85523">
        <ele>888.4</ele>
        <time>2013-04-25T07:55:41Z</time>
      </trkpt>
      <trkpt lat="44.37387" lon="5.85514">
        <ele>889.84</ele>
        <time>2013-04-25T07:55:55Z</time>
      </trkpt>
      <trkpt lat="44.37384" lon="5.85506">
        <ele>891.76</ele>
        <time>2013-04-25T07:56:11Z</time>
      </trkpt>
      <trkpt lat="44.37376" lon="5.85502">
        <ele>893.2</ele>
        <time>2013-04-25T07:56:25Z</time>
      </trkpt>
      <trkpt lat="44.37366" lon="5.85497">
        <ele>894.16</ele>
        <time>2013-04-25T07:56:40Z</time>
      </trkpt>
      <trkpt lat="44.37362" lon="5.85489">
        <ele>895.61</ele>
        <time>2013-04-25T07:56:55Z</time>
      </trkpt>
      <trkpt lat="44.37362" lon="5.85482">
        <ele>897.05</ele>
        <time>2013-04-25T07:57:09Z</time>
      </trkpt>
      <trkpt lat="44.37365" lon="5.85477">
        <ele>898.97</ele>
        <time>2013-04-25T07:57:21Z</time>
      </trkpt>
      <trkpt lat="44.3737" lon="5.85477">
        <ele>900.41</ele>
        <time>2013-04-25T07:57:35Z</time>
      </trkpt>
      <trkpt lat="44.37377" lon="5.85477">
        <ele>902.33</ele>
        <time>2013-04-25T07:57:50Z</time>
      </trkpt>
      <trkpt lat="44.37385" lon="5.85474">
        <ele>903.78</ele>
        <time>2013-04-25T07:58:03Z</time>
      </trkpt>
      <trkpt lat="44.3739" lon="5.85464">
        <ele>904.26</ele>
        <time>2013-04-25T07:58:18Z</time>
      </trkpt>
      <trkpt lat="44.37393" lon="5.8546">
        <ele>904.26</ele>
        <time>2013-04-25T07:58:30Z</time>
      </trkpt>
      <trkpt lat="44.37391" lon="5.85457">
        <ele>903.3</ele>
        <time>2013-04-25T07:58:42Z</time>
      </trkpt>
      <trkpt lat="44.37386" lon="5.85446">
        <ele>904.74</ele>
        <time>2013-04-25T07:58:59Z</time>
      </trkpt>
      <trkpt lat="44.37383" lon="5.8543">
        <ele>907.62</ele>
        <time>2013-04-25T07:59:15Z</time>
      </trkpt>
      <trkpt lat="44.37382" lon="5.85413">
        <ele>908.1</ele>
        <time>2013-04-25T07:59:30Z</time>
      </trkpt>
      <trkpt lat="44.37378" lon="5.85395">
        <ele>909.06</ele>
        <time>2013-04-25T07:59:46Z</time>
      </trkpt>
      <trkpt lat="44.37376" lon="5.85378">
        <ele>910.03</ele>
        <time>2013-04-25T08:00:04Z</time>
      </trkpt>
      <trkpt lat="44.37378" lon="5.85374">
        <ele>910.99</ele>
        <time>2013-04-25T08:00:18Z</time>
      </trkpt>
      <trkpt lat="44.37374" lon="5.85364">
        <ele>910.99</ele>
        <time>2013-04-25T08:00:32Z</time>
      </trkpt>
      <trkpt lat="44.37371" lon="5.85359">
        <ele>910.03</ele>
        <time>2013-04-25T08:00:46Z</time>
      </trkpt>
      <trkpt lat="44.37371" lon="5.8536">
        <ele>910.51</ele>
        <time>2013-04-25T08:01:11Z</time>
      </trkpt>
      <trkpt lat="44.37371" lon="5.85358">
        <ele>910.03</ele>
        <time>2013-04-25T08:01:37Z</time>
      </trkpt>
      <trkpt lat="44.3737" lon="5.85354">
        <ele>910.03</ele>
        <time>2013-04-25T08:01:58Z</time>
      </trkpt>
      <trkpt lat="44.3737" lon="5.85334">
        <ele>910.99</ele>
        <time>2013-04-25T08:02:15Z</time>
      </trkpt>
      <trkpt lat="44.3737" lon="5.85322">
        <ele>912.91</ele>
        <time>2013-04-25T08:02:29Z</time>
      </trkpt>
      <trkpt lat="44.37365" lon="5.85308">
        <ele>914.83</ele>
        <time>2013-04-25T08:02:43Z</time>
      </trkpt>
      <trkpt lat="44.37361" lon="5.85296">
        <ele>915.79</ele>
        <time>2013-04-25T08:02:57Z</time>
      </trkpt>
      <trkpt lat="44.37363" lon="5.85287">
        <ele>917.72</ele>
        <time>2013-04-25T08:03:10Z</time>
      </trkpt>
      <trkpt lat="44.37366" lon="5.8528">
        <ele>918.68</ele>
        <time>2013-04-25T08:03:24Z</time>
      </trkpt>
      <trkpt lat="44.37368" lon="5.85274">
        <ele>920.12</ele>
        <time>2013-04-25T08:03:40Z</time>
      </trkpt>
      <trkpt lat="44.37371" lon="5.85267">
        <ele>921.56</ele>
        <time>2013-04-25T08:03:55Z</time>
      </trkpt>
      <trkpt lat="44.37373" lon="5.85257">
        <ele>923.48</ele>
        <time>2013-04-25T08:04:08Z</time>
      </trkpt>
      <trkpt lat="44.37376" lon="5.85249">
        <ele>924.93</ele>
        <time>2013-04-25T08:04:21Z</time>
      </trkpt>
      <trkpt lat="44.37377" lon="5.85243">
        <ele>925.89</ele>
        <time>2013-04-25T08:04:33Z</time>
      </trkpt>
      <trkpt lat="44.37378" lon="5.85239">
        <ele>926.85</ele>
        <time>2013-04-25T08:04:47Z</time>
      </trkpt>
      <trkpt lat="44.37382" lon="5.85232">
        <ele>928.77</ele>
        <time>2013-04-25T08:05:01Z</time>
      </trkpt>
      <trkpt lat="44.37385" lon="5.85225">
        <ele>930.69</ele>
        <time>2013-04-25T08:05:15Z</time>
      </trkpt>
      <trkpt lat="44.37388" lon="5.85218">
        <ele>932.14</ele>
        <time>2013-04-25T08:05:29Z</time>
      </trkpt>
      <trkpt lat="44.37391" lon="5.85211">
        <ele>934.06</ele>
        <time>2013-04-25T08:05:44Z</time>
      </trkpt>
      <trkpt lat="44.37396" lon="5.85198">
        <ele>935.98</ele>
        <time>2013-04-25T08:06:04Z</time>
      </trkpt>
      <trkpt lat="44.374" lon="5.85192">
        <ele>936.94</ele>
        <time>2013-04-25T08:06:17Z</time>
      </trkpt>
      <trkpt lat="44.37408" lon="5.85178">
        <ele>937.42</ele>
        <time>2013-04-25T08:06:34Z</time>
      </trkpt>
      <trkpt lat="44.37421" lon="5.8517">
        <ele>937.42</ele>
        <time>2013-04-25T08:06:53Z</time>
      </trkpt>
      <trkpt lat="44.37426" lon="5.85168">
        <ele>937.42</ele>
        <time>2013-04-25T08:07:09Z</time>
      </trkpt>
      <trkpt lat="44.37425" lon="5.85166">
        <ele>937.42</ele>
        <time>2013-04-25T08:07:33Z</time>
      </trkpt>
      <trkpt lat="44.37424" lon="5.85164">
        <ele>936.46</ele>
        <time>2013-04-25T08:07:50Z</time>
      </trkpt>
      <trkpt lat="44.37427" lon="5.85165">
        <ele>936.94</ele>
        <time>2013-04-25T08:08:35Z</time>
      </trkpt>
      <trkpt lat="44.37426" lon="5.85165">
        <ele>938.38</ele>
        <time>2013-04-25T08:09:21Z</time>
      </trkpt>
      <trkpt lat="44.37426" lon="5.85167">
        <ele>937.42</ele>
        <time>2013-04-25T08:09:56Z</time>
      </trkpt>
      <trkpt lat="44.37423" lon="5.85166">
        <ele>937.42</ele>
        <time>2013-04-25T08:10:32Z</time>
      </trkpt>
      <trkpt lat="44.37427" lon="5.85168">
        <ele>937.42</ele>
        <time>2013-04-25T08:11:11Z</time>
      </trkpt>
      <trkpt lat="44.37427" lon="5.85168">
        <ele>937.42</ele>
        <time>2013-04-25T08:11:44Z</time>
      </trkpt>
      <trkpt lat="44.37425" lon="5.85166">
        <ele>937.42</ele>
        <time>2013-04-25T08:12:06Z</time>
      </trkpt>
      <trkpt lat="44.37427" lon="5.85166">
        <ele>937.9</ele>
        <time>2013-04-25T08:12:29Z</time>
      </trkpt>
      <trkpt lat="44.37427" lon="5.85167">
        <ele>937.42</ele>
        <time>2013-04-25T08:12:59Z</time>
      </trkpt>
      <trkpt lat="44.37426" lon="5.85168">
        <ele>938.86</ele>
        <time>2013-04-25T08:13:31Z</time>
      </trkpt>
      <trkpt lat="44.37426" lon="5.85166">
        <ele>938.38</ele>
        <time>2013-04-25T08:13:53Z</time>
      </trkpt>
      <trkpt lat="44.37428" lon="5.85166">
        <ele>938.86</ele>
        <time>2013-04-25T08:14:08Z</time>
      </trkpt>
      <trkpt lat="44.37431" lon="5.85167">
        <ele>938.38</ele>
        <time>2013-04-25T08:14:33Z</time>
      </trkpt>
      <trkpt lat="44.37429" lon="5.85166">
        <ele>938.38</ele>
        <time>2013-04-25T08:14:56Z</time>
      </trkpt>
      <trkpt lat="44.37428" lon="5.85165">
        <ele>939.35</ele>
        <time>2013-04-25T08:15:24Z</time>
      </trkpt>
      <trkpt lat="44.37429" lon="5.85164">
        <ele>938.38</ele>
        <time>2013-04-25T08:15:46Z</time>
      </trkpt>
      <trkpt lat="44.37431" lon="5.85162">
        <ele>938.38</ele>
        <time>2013-04-25T08:16:05Z</time>
      </trkpt>
      <trkpt lat="44.37439" lon="5.85157">
        <ele>940.31</ele>
        <time>2013-04-25T08:16:20Z</time>
      </trkpt>
      <trkpt lat="44.37445" lon="5.85147">
        <ele>942.23</ele>
        <time>2013-04-25T08:16:35Z</time>
      </trkpt>
      <trkpt lat="44.37452" lon="5.85139">
        <ele>944.15</ele>
        <time>2013-04-25T08:16:50Z</time>
      </trkpt>
      <trkpt lat="44.37458" lon="5.85134">
        <ele>946.07</ele>
        <time>2013-04-25T08:17:06Z</time>
      </trkpt>
      <trkpt lat="44.37463" lon="5.85131">
        <ele>947.52</ele>
        <time>2013-04-25T08:17:19Z</time>
      </trkpt>
      <trkpt lat="44.37468" lon="5.8513">
        <ele>948.48</ele>
        <time>2013-04-25T08:17:31Z</time>
      </trkpt>
      <trkpt lat="44.37476" lon="5.85129">
        <ele>950.4</ele>
        <time>2013-04-25T08:17:45Z</time>
      </trkpt>
      <trkpt lat="44.37484" lon="5.85124">
        <ele>951.36</ele>
        <time>2013-04-25T08:17:58Z</time>
      </trkpt>
      <trkpt lat="44.37493" lon="5.8512">
        <ele>952.32</ele>
        <time>2013-04-25T08:18:12Z</time>
      </trkpt>
      <trkpt lat="44.37502" lon="5.85119">
        <ele>953.28</ele>
        <time>2013-04-25T08:18:27Z</time>
      </trkpt>
      <trkpt lat="44.37504" lon="5.85119">
        <ele>953.77</ele>
        <time>2013-04-25T08:18:29Z</time>
      </trkpt>
      <trkpt lat="44.37518" lon="5.85118">
        <ele>952.8</ele>
        <time>2013-04-25T08:18:45Z</time>
      </trkpt>
      <trkpt lat="44.37533" lon="5.85119">
        <ele>952.32</ele>
        <time>2013-04-25T08:19:02Z</time>
      </trkpt>
      <trkpt lat="44.37543" lon="5.8512">
        <ele>952.8</ele>
        <time>2013-04-25T08:19:17Z</time>
      </trkpt>
      <trkpt lat="44.37557" lon="5.85111">
        <ele>953.77</ele>
        <time>2013-04-25T08:19:33Z</time>
      </trkpt>
      <trkpt lat="44.37565" lon="5.85108">
        <ele>955.21</ele>
        <time>2013-04-25T08:19:47Z</time>
      </trkpt>
      <trkpt lat="44.37575" lon="5.85108">
        <ele>955.69</ele>
        <time>2013-04-25T08:20:01Z</time>
      </trkpt>
      <trkpt lat="44.37583" lon="5.85104">
        <ele>955.69</ele>
        <time>2013-04-25T08:20:14Z</time>
      </trkpt>
      <trkpt lat="44.37592" lon="5.85098">
        <ele>955.69</ele>
        <time>2013-04-25T08:20:27Z</time>
      </trkpt>
      <trkpt lat="44.376" lon="5.85092">
        <ele>957.13</ele>
        <time>2013-04-25T08:20:43Z</time>
      </trkpt>
      <trkpt lat="44.37605" lon="5.85088">
        <ele>957.61</ele>
        <time>2013-04-25T08:20:56Z</time>
      </trkpt>
      <trkpt lat="44.37611" lon="5.85084">
        <ele>958.57</ele>
        <time>2013-04-25T08:21:08Z</time>
      </trkpt>
      <trkpt lat="44.37614" lon="5.85079">
        <ele>959.53</ele>
        <time>2013-04-25T08:21:23Z</time>
      </trkpt>
      <trkpt lat="44.3762" lon="5.8507">
        <ele>960.49</ele>
        <time>2013-04-25T08:21:36Z</time>
      </trkpt>
      <trkpt lat="44.37622" lon="5.85065">
        <ele>961.46</ele>
        <time>2013-04-25T08:21:55Z</time>
      </trkpt>
      <trkpt lat="44.37627" lon="5.85062">
        <ele>962.42</ele>
        <time>2013-04-25T08:22:08Z</time>
      </trkpt>
      <trkpt lat="44.3763" lon="5.85054">
        <ele>963.86</ele>
        <time>2013-04-25T08:22:21Z</time>
      </trkpt>
      <trkpt lat="44.37633" lon="5.85039">
        <ele>965.78</ele>
        <time>2013-04-25T08:22:40Z</time>
      </trkpt>
      <trkpt lat="44.37636" lon="5.85026">
        <ele>966.74</ele>
        <time>2013-04-25T08:22:55Z</time>
      </trkpt>
      <trkpt lat="44.3764" lon="5.85015">
        <ele>967.7</ele>
        <time>2013-04-25T08:23:10Z</time>
      </trkpt>
      <trkpt lat="44.37646" lon="5.85006">
        <ele>969.15</ele>
        <time>2013-04-25T08:23:23Z</time>
      </trkpt>
      <trkpt lat="44.3765" lon="5.84997">
        <ele>970.11</ele>
        <time>2013-04-25T08:23:37Z</time>
      </trkpt>
      <trkpt lat="44.37653" lon="5.84996">
        <ele>970.59</ele>
        <time>2013-04-25T08:23:54Z</time>
      </trkpt>
      <trkpt lat="44.37658" lon="5.84994">
        <ele>972.03</ele>
        <time>2013-04-25T08:24:07Z</time>
      </trkpt>
      <trkpt lat="44.37659" lon="5.84985">
        <ele>972.03</ele>
        <time>2013-04-25T08:24:20Z</time>
      </trkpt>
      <trkpt lat="44.37658" lon="5.84981">
        <ele>971.55</ele>
        <time>2013-04-25T08:24:34Z</time>
      </trkpt>
      <trkpt lat="44.37656" lon="5.84982">
        <ele>972.51</ele>
        <time>2013-04-25T08:24:49Z</time>
      </trkpt>
      <trkpt lat="44.37652" lon="5.8497">
        <ele>972.99</ele>
        <time>2013-04-25T08:25:01Z</time>
      </trkpt>
      <trkpt lat="44.37651" lon="5.84969">
        <ele>972.51</ele>
        <time>2013-04-25T08:25:02Z</time>
      </trkpt>
      <trkpt lat="44.37646" lon="5.84961">
        <ele>973.95</ele>
        <time>2013-04-25T08:25:13Z</time>
      </trkpt>
      <trkpt lat="44.37643" lon="5.84949">
        <ele>975.39</ele>
        <time>2013-04-25T08:25:27Z</time>
      </trkpt>
      <trkpt lat="44.37646" lon="5.8494">
        <ele>977.32</ele>
        <time>2013-04-25T08:25:43Z</time>
      </trkpt>
      <trkpt lat="44.37649" lon="5.84932">
        <ele>978.76</ele>
        <time>2013-04-25T08:26:03Z</time>
      </trkpt>
      <trkpt lat="44.37651" lon="5.84929">
        <ele>979.24</ele>
        <time>2013-04-25T08:26:21Z</time>
      </trkpt>
      <trkpt lat="44.37655" lon="5.84925">
        <ele>981.64</ele>
        <time>2013-04-25T08:26:34Z</time>
      </trkpt>
      <trkpt lat="44.37658" lon="5.84916">
        <ele>982.6</ele>
        <time>2013-04-25T08:26:47Z</time>
      </trkpt>
      <trkpt lat="44.37662" lon="5.84902">
        <ele>984.53</ele>
        <time>2013-04-25T08:27:02Z</time>
      </trkpt>
      <trkpt lat="44.37664" lon="5.84895">
        <ele>985.97</ele>
        <time>2013-04-25T08:27:14Z</time>
      </trkpt>
      <trkpt lat="44.37668" lon="5.84891">
        <ele>987.41</ele>
        <time>2013-04-25T08:27:28Z</time>
      </trkpt>
      <trkpt lat="44.37672" lon="5.84883">
        <ele>989.33</ele>
        <time>2013-04-25T08:27:44Z</time>
      </trkpt>
      <trkpt lat="44.37678" lon="5.84876">
        <ele>990.78</ele>
        <time>2013-04-25T08:27:59Z</time>
      </trkpt>
      <trkpt lat="44.37681" lon="5.84873">
        <ele>992.22</ele>
        <time>2013-04-25T08:28:14Z</time>
      </trkpt>
      <trkpt lat="44.37684" lon="5.84871">
        <ele>993.18</ele>
        <time>2013-04-25T08:28:31Z</time>
      </trkpt>
      <trkpt lat="44.37684" lon="5.84868">
        <ele>993.66</ele>
        <time>2013-04-25T08:28:52Z</time>
      </trkpt>
      <trkpt lat="44.37682" lon="5.84869">
        <ele>993.18</ele>
        <time>2013-04-25T08:29:17Z</time>
      </trkpt>
      <trkpt lat="44.37689" lon="5.84866">
        <ele>996.54</ele>
        <time>2013-04-25T08:29:32Z</time>
      </trkpt>
      <trkpt lat="44.37696" lon="5.84857">
        <ele>997.99</ele>
        <time>2013-04-25T08:29:46Z</time>
      </trkpt>
      <trkpt lat="44.37698" lon="5.84855">
        <ele>998.47</ele>
        <time>2013-04-25T08:30:01Z</time>
      </trkpt>
      <trkpt lat="44.37698" lon="5.84854">
        <ele>998.47</ele>
        <time>2013-04-25T08:30:19Z</time>
      </trkpt>
      <trkpt lat="44.37698" lon="5.84853">
        <ele>998.95</ele>
        <time>2013-04-25T08:30:41Z</time>
      </trkpt>
      <trkpt lat="44.377" lon="5.84854">
        <ele>998.95</ele>
        <time>2013-04-25T08:31:08Z</time>
      </trkpt>
      <trkpt lat="44.37698" lon="5.84855">
        <ele>998.95</ele>
        <time>2013-04-25T08:31:35Z</time>
      </trkpt>
      <trkpt lat="44.377" lon="5.84855">
        <ele>998.95</ele>
        <time>2013-04-25T08:32:01Z</time>
      </trkpt>
      <trkpt lat="44.37701" lon="5.84853">
        <ele>998.95</ele>
        <time>2013-04-25T08:32:29Z</time>
      </trkpt>
      <trkpt lat="44.37698" lon="5.84852">
        <ele>998.95</ele>
        <time>2013-04-25T08:32:50Z</time>
      </trkpt>
      <trkpt lat="44.37699" lon="5.84855">
        <ele>999.43</ele>
        <time>2013-04-25T08:33:07Z</time>
      </trkpt>
      <trkpt lat="44.37702" lon="5.84851">
        <ele>999.91</ele>
        <time>2013-04-25T08:33:30Z</time>
      </trkpt>
      <trkpt lat="44.37709" lon="5.84844">
        <ele>1002.31</ele>
        <time>2013-04-25T08:33:44Z</time>
      </trkpt>
      <trkpt lat="44.37717" lon="5.84833">
        <ele>1004.23</ele>
        <time>2013-04-25T08:33:58Z</time>
      </trkpt>
      <trkpt lat="44.37725" lon="5.84826">
        <ele>1005.68</ele>
        <time>2013-04-25T08:34:12Z</time>
      </trkpt>
      <trkpt lat="44.37727" lon="5.84824">
        <ele>1006.64</ele>
        <time>2013-04-25T08:34:24Z</time>
      </trkpt>
      <trkpt lat="44.37728" lon="5.84824">
        <ele>1006.64</ele>
        <time>2013-04-25T08:34:45Z</time>
      </trkpt>
      <trkpt lat="44.37732" lon="5.84825">
        <ele>1007.6</ele>
        <time>2013-04-25T08:34:59Z</time>
      </trkpt>
      <trkpt lat="44.37736" lon="5.84825">
        <ele>1009.04</ele>
        <time>2013-04-25T08:35:13Z</time>
      </trkpt>
      <trkpt lat="44.37738" lon="5.84824">
        <ele>1010</ele>
        <time>2013-04-25T08:35:27Z</time>
      </trkpt>
      <trkpt lat="44.37743" lon="5.84824">
        <ele>1011.44</ele>
        <time>2013-04-25T08:35:45Z</time>
      </trkpt>
      <trkpt lat="44.37749" lon="5.84821">
        <ele>1014.33</ele>
        <time>2013-04-25T08:36:01Z</time>
      </trkpt>
      <trkpt lat="44.37752" lon="5.8482">
        <ele>1014.81</ele>
        <time>2013-04-25T08:36:16Z</time>
      </trkpt>
      <trkpt lat="44.37757" lon="5.84822">
        <ele>1017.21</ele>
        <time>2013-04-25T08:36:32Z</time>
      </trkpt>
      <trkpt lat="44.37752" lon="5.84822">
        <ele>1018.65</ele>
        <time>2013-04-25T08:36:47Z</time>
      </trkpt>
      <trkpt lat="44.37746" lon="5.84828">
        <ele>1018.17</ele>
        <time>2013-04-25T08:37:02Z</time>
      </trkpt>
      <trkpt lat="44.37747" lon="5.8483">
        <ele>1018.17</ele>
        <time>2013-04-25T08:37:17Z</time>
      </trkpt>
      <trkpt lat="44.37745" lon="5.84834">
        <ele>1019.13</ele>
        <time>2013-04-25T08:37:31Z</time>
      </trkpt>
      <trkpt lat="44.37744" lon="5.84837">
        <ele>1019.62</ele>
        <time>2013-04-25T08:37:44Z</time>
      </trkpt>
      <trkpt lat="44.37742" lon="5.84837">
        <ele>1019.13</ele>
        <time>2013-04-25T08:38:05Z</time>
      </trkpt>
      <trkpt lat="44.37744" lon="5.84839">
        <ele>1021.06</ele>
        <time>2013-04-25T08:38:19Z</time>
      </trkpt>
      <trkpt lat="44.37751" lon="5.84839">
        <ele>1022.98</ele>
        <time>2013-04-25T08:38:32Z</time>
      </trkpt>
      <trkpt lat="44.37754" lon="5.84839">
        <ele>1024.42</ele>
        <time>2013-04-25T08:38:47Z</time>
      </trkpt>
      <trkpt lat="44.37754" lon="5.84838">
        <ele>1024.42</ele>
        <time>2013-04-25T08:39:12Z</time>
      </trkpt>
      <trkpt lat="44.37756" lon="5.84838">
        <ele>1026.34</ele>
        <time>2013-04-25T08:39:30Z</time>
      </trkpt>
      <trkpt lat="44.37752" lon="5.84847">
        <ele>1028.75</ele>
        <time>2013-04-25T08:39:44Z</time>
      </trkpt>
      <trkpt lat="44.37755" lon="5.8485">
        <ele>1030.19</ele>
        <time>2013-04-25T08:39:56Z</time>
      </trkpt>
      <trkpt lat="44.37762" lon="5.84845">
        <ele>1032.11</ele>
        <time>2013-04-25T08:40:10Z</time>
      </trkpt>
      <trkpt lat="44.3777" lon="5.84841">
        <ele>1034.04</ele>
        <time>2013-04-25T08:40:27Z</time>
      </trkpt>
      <trkpt lat="44.37776" lon="5.84837">
        <ele>1033.55</ele>
        <time>2013-04-25T08:40:42Z</time>
      </trkpt>
      <trkpt lat="44.37777" lon="5.84836">
        <ele>1033.55</ele>
        <time>2013-04-25T08:41:16Z</time>
      </trkpt>
      <trkpt lat="44.3778" lon="5.84835">
        <ele>1034.52</ele>
        <time>2013-04-25T08:41:36Z</time>
      </trkpt>
      <trkpt lat="44.37782" lon="5.84832">
        <ele>1035.48</ele>
        <time>2013-04-25T08:41:39Z</time>
      </trkpt>
      <trkpt lat="44.37789" lon="5.84822">
        <ele>1032.59</ele>
        <time>2013-04-25T08:41:48Z</time>
      </trkpt>
      <trkpt lat="44.37794" lon="5.84813">
        <ele>1030.67</ele>
        <time>2013-04-25T08:41:56Z</time>
      </trkpt>
      <trkpt lat="44.37802" lon="5.848">
        <ele>1027.79</ele>
        <time>2013-04-25T08:42:09Z</time>
      </trkpt>
      <trkpt lat="44.37807" lon="5.84796">
        <ele>1026.83</ele>
        <time>2013-04-25T08:42:25Z</time>
      </trkpt>
      <trkpt lat="44.3781" lon="5.84794">
        <ele>1026.83</ele>
        <time>2013-04-25T08:42:45Z</time>
      </trkpt>
      <trkpt lat="44.3782" lon="5.84793">
        <ele>1026.34</ele>
        <time>2013-04-25T08:42:58Z</time>
      </trkpt>
      <trkpt lat="44.37822" lon="5.84789">
        <ele>1026.34</ele>
        <time>2013-04-25T08:43:20Z</time>
      </trkpt>
      <trkpt lat="44.37823" lon="5.84781">
        <ele>1027.79</ele>
        <time>2013-04-25T08:43:40Z</time>
      </trkpt>
      <trkpt lat="44.3782" lon="5.84783">
        <ele>1026.83</ele>
        <time>2013-04-25T08:44:09Z</time>
      </trkpt>
      <trkpt lat="44.37822" lon="5.84783">
        <ele>1026.83</ele>
        <time>2013-04-25T08:44:35Z</time>
      </trkpt>
      <trkpt lat="44.3782" lon="5.84785">
        <ele>1026.83</ele>
        <time>2013-04-25T08:44:58Z</time>
      </trkpt>
      <trkpt lat="44.37825" lon="5.84782">
        <ele>1026.83</ele>
        <time>2013-04-25T08:45:33Z</time>
      </trkpt>
      <trkpt lat="44.37823" lon="5.84783">
        <ele>1026.83</ele>
        <time>2013-04-25T08:45:50Z</time>
      </trkpt>
      <trkpt lat="44.37825" lon="5.84782">
        <ele>1026.83</ele>
        <time>2013-04-25T08:46:06Z</time>
      </trkpt>
      <trkpt lat="44.37822" lon="5.84781">
        <ele>1026.83</ele>
        <time>2013-04-25T08:46:27Z</time>
      </trkpt>
      <trkpt lat="44.37822" lon="5.8478">
        <ele>1027.31</ele>
        <time>2013-04-25T08:46:53Z</time>
      </trkpt>
      <trkpt lat="44.37821" lon="5.84777">
        <ele>1027.31</ele>
        <time>2013-04-25T08:47:06Z</time>
      </trkpt>
      <trkpt lat="44.37822" lon="5.84764">
        <ele>1027.79</ele>
        <time>2013-04-25T08:47:23Z</time>
      </trkpt>
      <trkpt lat="44.37822" lon="5.84756">
        <ele>1026.83</ele>
        <time>2013-04-25T08:47:38Z</time>
      </trkpt>
      <trkpt lat="44.37823" lon="5.8475">
        <ele>1025.86</ele>
        <time>2013-04-25T08:47:51Z</time>
      </trkpt>
      <trkpt lat="44.37827" lon="5.84748">
        <ele>1025.86</ele>
        <time>2013-04-25T08:48:09Z</time>
      </trkpt>
      <trkpt lat="44.37828" lon="5.84747">
        <ele>1026.83</ele>
        <time>2013-04-25T08:48:20Z</time>
      </trkpt>
      <trkpt lat="44.37831" lon="5.84746">
        <ele>1027.79</ele>
        <time>2013-04-25T08:48:23Z</time>
      </trkpt>
      <trkpt lat="44.37841" lon="5.84741">
        <ele>1030.67</ele>
        <time>2013-04-25T08:48:34Z</time>
      </trkpt>
      <trkpt lat="44.3785" lon="5.84734">
        <ele>1032.59</ele>
        <time>2013-04-25T08:48:47Z</time>
      </trkpt>
      <trkpt lat="44.37852" lon="5.84726">
        <ele>1033.55</ele>
        <time>2013-04-25T08:49:01Z</time>
      </trkpt>
      <trkpt lat="44.37852" lon="5.84725">
        <ele>1033.55</ele>
        <time>2013-04-25T08:49:16Z</time>
      </trkpt>
      <trkpt lat="44.37853" lon="5.8472">
        <ele>1033.07</ele>
        <time>2013-04-25T08:49:29Z</time>
      </trkpt>
      <trkpt lat="44.3785" lon="5.84713">
        <ele>1033.07</ele>
        <time>2013-04-25T08:49:40Z</time>
      </trkpt>
      <trkpt lat="44.37849" lon="5.84711">
        <ele>1033.55</ele>
        <time>2013-04-25T08:49:52Z</time>
      </trkpt>
      <trkpt lat="44.37845" lon="5.84708">
        <ele>1033.55</ele>
        <time>2013-04-25T08:50:11Z</time>
      </trkpt>
      <trkpt lat="44.37845" lon="5.84708">
        <ele>1034.04</ele>
        <time>2013-04-25T08:50:12Z</time>
      </trkpt>
      <trkpt lat="44.37838" lon="5.84709">
        <ele>1036.92</ele>
        <time>2013-04-25T08:50:26Z</time>
      </trkpt>
      <trkpt lat="44.37829" lon="5.84707">
        <ele>1038.84</ele>
        <time>2013-04-25T08:50:40Z</time>
      </trkpt>
      <trkpt lat="44.37824" lon="5.84703">
        <ele>1039.32</ele>
        <time>2013-04-25T08:50:56Z</time>
      </trkpt>
      <trkpt lat="44.37811" lon="5.84692">
        <ele>1040.28</ele>
        <time>2013-04-25T08:51:11Z</time>
      </trkpt>
      <trkpt lat="44.37806" lon="5.84683">
        <ele>1041.25</ele>
        <time>2013-04-25T08:51:26Z</time>
      </trkpt>
      <trkpt lat="44.37797" lon="5.84678">
        <ele>1043.17</ele>
        <time>2013-04-25T08:51:42Z</time>
      </trkpt>
      <trkpt lat="44.37789" lon="5.84674">
        <ele>1044.61</ele>
        <time>2013-04-25T08:51:57Z</time>
      </trkpt>
      <trkpt lat="44.37788" lon="5.84672">
        <ele>1045.09</ele>
        <time>2013-04-25T08:52:05Z</time>
      </trkpt>
      <trkpt lat="44.37776" lon="5.8467">
        <ele>1047.97</ele>
        <time>2013-04-25T08:52:21Z</time>
      </trkpt>
      <trkpt lat="44.37774" lon="5.84665">
        <ele>1048.94</ele>
        <time>2013-04-25T08:52:34Z</time>
      </trkpt>
      <trkpt lat="44.37774" lon="5.84664">
        <ele>1048.94</ele>
        <time>2013-04-25T08:52:52Z</time>
      </trkpt>
      <trkpt lat="44.37772" lon="5.84658">
        <ele>1050.38</ele>
        <time>2013-04-25T08:53:05Z</time>
      </trkpt>
      <trkpt lat="44.37766" lon="5.84654">
        <ele>1051.34</ele>
        <time>2013-04-25T08:53:19Z</time>
      </trkpt>
      <trkpt lat="44.37764" lon="5.84649">
        <ele>1051.82</ele>
        <time>2013-04-25T08:53:34Z</time>
      </trkpt>
      <trkpt lat="44.37768" lon="5.84653">
        <ele>1053.26</ele>
        <time>2013-04-25T08:53:40Z</time>
      </trkpt>
      <trkpt lat="44.37774" lon="5.84656">
        <ele>1054.22</ele>
        <time>2013-04-25T08:53:54Z</time>
      </trkpt>
      <trkpt lat="44.37772" lon="5.84658">
        <ele>1054.22</ele>
        <time>2013-04-25T08:54:07Z</time>
      </trkpt>
      <trkpt lat="44.37772" lon="5.84659">
        <ele>1054.22</ele>
        <time>2013-04-25T08:54:28Z</time>
      </trkpt>
      <trkpt lat="44.37773" lon="5.84656">
        <ele>1054.22</ele>
        <time>2013-04-25T08:54:48Z</time>
      </trkpt>
      <trkpt lat="44.37776" lon="5.84658">
        <ele>1054.7</ele>
        <time>2013-04-25T08:55:03Z</time>
      </trkpt>
      <trkpt lat="44.3778" lon="5.84665">
        <ele>1056.15</ele>
        <time>2013-04-25T08:55:15Z</time>
      </trkpt>
      <trkpt lat="44.37782" lon="5.84665">
        <ele>1056.63</ele>
        <time>2013-04-25T08:55:32Z</time>
      </trkpt>
      <trkpt lat="44.37781" lon="5.84654">
        <ele>1057.59</ele>
        <time>2013-04-25T08:55:51Z</time>
      </trkpt>
      <trkpt lat="44.37784" lon="5.84651">
        <ele>1060.47</ele>
        <time>2013-04-25T08:56:05Z</time>
      </trkpt>
      <trkpt lat="44.37786" lon="5.84651">
        <ele>1060.47</ele>
        <time>2013-04-25T08:56:07Z</time>
      </trkpt>
      <trkpt lat="44.37796" lon="5.84651">
        <ele>1062.39</ele>
        <time>2013-04-25T08:56:22Z</time>
      </trkpt>
      <trkpt lat="44.37803" lon="5.84654">
        <ele>1063.36</ele>
        <time>2013-04-25T08:56:40Z</time>
      </trkpt>
      <trkpt lat="44.37809" lon="5.84659">
        <ele>1065.76</ele>
        <time>2013-04-25T08:56:53Z</time>
      </trkpt>
      <trkpt lat="44.37814" lon="5.84664">
        <ele>1067.68</ele>
        <time>2013-04-25T08:57:10Z</time>
      </trkpt>
      <trkpt lat="44.37816" lon="5.84665">
        <ele>1068.64</ele>
        <time>2013-04-25T08:57:25Z</time>
      </trkpt>
      <trkpt lat="44.37818" lon="5.8467">
        <ele>1070.08</ele>
        <time>2013-04-25T08:57:38Z</time>
      </trkpt>
      <trkpt lat="44.37821" lon="5.84675">
        <ele>1072.01</ele>
        <time>2013-04-25T08:57:49Z</time>
      </trkpt>
      <trkpt lat="44.37822" lon="5.84677">
        <ele>1072.49</ele>
        <time>2013-04-25T08:58:01Z</time>
      </trkpt>
      <trkpt lat="44.37828" lon="5.84676">
        <ele>1074.41</ele>
        <time>2013-04-25T08:58:13Z</time>
      </trkpt>
      <trkpt lat="44.3783" lon="5.84683">
        <ele>1075.37</ele>
        <time>2013-04-25T08:58:24Z</time>
      </trkpt>
      <trkpt lat="44.37836" lon="5.84682">
        <ele>1075.85</ele>
        <time>2013-04-25T08:58:38Z</time>
      </trkpt>
      <trkpt lat="44.37837" lon="5.84682">
        <ele>1076.81</ele>
        <time>2013-04-25T08:58:52Z</time>
      </trkpt>
      <trkpt lat="44.37836" lon="5.84684">
        <ele>1076.81</ele>
        <time>2013-04-25T08:59:13Z</time>
      </trkpt>
      <trkpt lat="44.37836" lon="5.84685">
        <ele>1076.81</ele>
        <time>2013-04-25T08:59:33Z</time>
      </trkpt>
      <trkpt lat="44.37835" lon="5.84682">
        <ele>1076.81</ele>
        <time>2013-04-25T08:59:54Z</time>
      </trkpt>
      <trkpt lat="44.37836" lon="5.84685">
        <ele>1076.81</ele>
        <time>2013-04-25T09:00:14Z</time>
      </trkpt>
      <trkpt lat="44.3784" lon="5.84685">
        <ele>1077.29</ele>
        <time>2013-04-25T09:00:23Z</time>
      </trkpt>
      <trkpt lat="44.37855" lon="5.84686">
        <ele>1077.29</ele>
        <time>2013-04-25T09:00:40Z</time>
      </trkpt>
      <trkpt lat="44.37859" lon="5.84688">
        <ele>1077.78</ele>
        <time>2013-04-25T09:00:54Z</time>
      </trkpt>
      <trkpt lat="44.3786" lon="5.84691">
        <ele>1077.78</ele>
        <time>2013-04-25T09:01:19Z</time>
      </trkpt>
      <trkpt lat="44.3786" lon="5.84691">
        <ele>1077.78</ele>
        <time>2013-04-25T09:01:40Z</time>
      </trkpt>
      <trkpt lat="44.3786" lon="5.84693">
        <ele>1077.78</ele>
        <time>2013-04-25T09:01:55Z</time>
      </trkpt>
      <trkpt lat="44.37859" lon="5.84696">
        <ele>1078.26</ele>
        <time>2013-04-25T09:02:13Z</time>
      </trkpt>
      <trkpt lat="44.37863" lon="5.84695">
        <ele>1078.26</ele>
        <time>2013-04-25T09:02:27Z</time>
      </trkpt>
      <trkpt lat="44.37863" lon="5.84694">
        <ele>1078.26</ele>
        <time>2013-04-25T09:02:42Z</time>
      </trkpt>
      <trkpt lat="44.37866" lon="5.84694">
        <ele>1078.26</ele>
        <time>2013-04-25T09:03:05Z</time>
      </trkpt>
      <trkpt lat="44.37867" lon="5.84694">
        <ele>1078.26</ele>
        <time>2013-04-25T09:03:06Z</time>
      </trkpt>
      <trkpt lat="44.3788" lon="5.84692">
        <ele>1077.78</ele>
        <time>2013-04-25T09:03:19Z</time>
      </trkpt>
      <trkpt lat="44.37892" lon="5.84682">
        <ele>1079.22</ele>
        <time>2013-04-25T09:03:34Z</time>
      </trkpt>
      <trkpt lat="44.37902" lon="5.84674">
        <ele>1079.7</ele>
        <time>2013-04-25T09:03:47Z</time>
      </trkpt>
      <trkpt lat="44.3791" lon="5.8466">
        <ele>1080.18</ele>
        <time>2013-04-25T09:04:03Z</time>
      </trkpt>
      <trkpt lat="44.37914" lon="5.84648">
        <ele>1082.1</ele>
        <time>2013-04-25T09:04:13Z</time>
      </trkpt>
      <trkpt lat="44.37922" lon="5.84623">
        <ele>1082.58</ele>
        <time>2013-04-25T09:04:30Z</time>
      </trkpt>
      <trkpt lat="44.37924" lon="5.84599">
        <ele>1083.54</ele>
        <time>2013-04-25T09:04:44Z</time>
      </trkpt>
      <trkpt lat="44.3793" lon="5.84584">
        <ele>1085.47</ele>
        <time>2013-04-25T09:05:00Z</time>
      </trkpt>
      <trkpt lat="44.37937" lon="5.84573">
        <ele>1085.95</ele>
        <time>2013-04-25T09:05:13Z</time>
      </trkpt>
      <trkpt lat="44.37938" lon="5.84572">
        <ele>1085.95</ele>
        <time>2013-04-25T09:05:14Z</time>
      </trkpt>
      <trkpt lat="44.37949" lon="5.84575">
        <ele>1088.35</ele>
        <time>2013-04-25T09:05:27Z</time>
      </trkpt>
      <trkpt lat="44.37949" lon="5.84576">
        <ele>1088.35</ele>
        <time>2013-04-25T09:05:41Z</time>
      </trkpt>
      <trkpt lat="44.37952" lon="5.84573">
        <ele>1088.83</ele>
        <time>2013-04-25T09:05:47Z</time>
      </trkpt>
      <trkpt lat="44.37958" lon="5.84557">
        <ele>1090.75</ele>
        <time>2013-04-25T09:06:01Z</time>
      </trkpt>
      <trkpt lat="44.37955" lon="5.84547">
        <ele>1091.23</ele>
        <time>2013-04-25T09:06:17Z</time>
      </trkpt>
      <trkpt lat="44.37953" lon="5.84541">
        <ele>1091.71</ele>
        <time>2013-04-25T09:06:34Z</time>
      </trkpt>
      <trkpt lat="44.37953" lon="5.84539">
        <ele>1091.71</ele>
        <time>2013-04-25T09:07:06Z</time>
      </trkpt>
      <trkpt lat="44.3795" lon="5.84539">
        <ele>1091.71</ele>
        <time>2013-04-25T09:07:31Z</time>
      </trkpt>
      <trkpt lat="44.37955" lon="5.8454">
        <ele>1092.2</ele>
        <time>2013-04-25T09:07:51Z</time>
      </trkpt>
      <trkpt lat="44.37955" lon="5.8454">
        <ele>1092.68</ele>
        <time>2013-04-25T09:08:15Z</time>
      </trkpt>
      <trkpt lat="44.37955" lon="5.84542">
        <ele>1091.71</ele>
        <time>2013-04-25T09:08:30Z</time>
      </trkpt>
      <trkpt lat="44.37953" lon="5.84538">
        <ele>1092.2</ele>
        <time>2013-04-25T09:08:58Z</time>
      </trkpt>
      <trkpt lat="44.37951" lon="5.84542">
        <ele>1091.71</ele>
        <time>2013-04-25T09:09:23Z</time>
      </trkpt>
      <trkpt lat="44.37951" lon="5.84539">
        <ele>1092.2</ele>
        <time>2013-04-25T09:09:54Z</time>
      </trkpt>
      <trkpt lat="44.37953" lon="5.84541">
        <ele>1092.2</ele>
        <time>2013-04-25T09:10:18Z</time>
      </trkpt>
      <trkpt lat="44.37954" lon="5.84542">
        <ele>1092.2</ele>
        <time>2013-04-25T09:10:49Z</time>
      </trkpt>
      <trkpt lat="44.37954" lon="5.8454">
        <ele>1092.2</ele>
        <time>2013-04-25T09:11:15Z</time>
      </trkpt>
      <trkpt lat="44.37951" lon="5.84523">
        <ele>1093.64</ele>
        <time>2013-04-25T09:11:29Z</time>
      </trkpt>
      <trkpt lat="44.37948" lon="5.84513">
        <ele>1095.08</ele>
        <time>2013-04-25T09:11:43Z</time>
      </trkpt>
      <trkpt lat="44.37947" lon="5.8451">
        <ele>1095.08</ele>
        <time>2013-04-25T09:12:03Z</time>
      </trkpt>
      <trkpt lat="44.37948" lon="5.84505">
        <ele>1095.08</ele>
        <time>2013-04-25T09:12:23Z</time>
      </trkpt>
      <trkpt lat="44.37945" lon="5.84492">
        <ele>1096.52</ele>
        <time>2013-04-25T09:12:40Z</time>
      </trkpt>
      <trkpt lat="44.37943" lon="5.84482">
        <ele>1097.48</ele>
        <time>2013-04-25T09:12:54Z</time>
      </trkpt>
      <trkpt lat="44.37942" lon="5.84471">
        <ele>1098.44</ele>
        <time>2013-04-25T09:13:09Z</time>
      </trkpt>
      <trkpt lat="44.37942" lon="5.84462">
        <ele>1099.89</ele>
        <time>2013-04-25T09:13:25Z</time>
      </trkpt>
      <trkpt lat="44.3794" lon="5.84451">
        <ele>1100.85</ele>
        <time>2013-04-25T09:13:40Z</time>
      </trkpt>
      <trkpt lat="44.37941" lon="5.84443">
        <ele>1101.81</ele>
        <time>2013-04-25T09:13:54Z</time>
      </trkpt>
      <trkpt lat="44.37945" lon="5.84439">
        <ele>1102.29</ele>
        <time>2013-04-25T09:14:05Z</time>
      </trkpt>
      <trkpt lat="44.37951" lon="5.8444">
        <ele>1106.13</ele>
        <time>2013-04-25T09:14:15Z</time>
      </trkpt>
      <trkpt lat="44.37951" lon="5.8444">
        <ele>1106.13</ele>
        <time>2013-04-25T09:14:16Z</time>
      </trkpt>
      <trkpt lat="44.37953" lon="5.84439">
        <ele>1104.21</ele>
        <time>2013-04-25T09:14:18Z</time>
      </trkpt>
      <trkpt lat="44.37961" lon="5.84441">
        <ele>1105.65</ele>
        <time>2013-04-25T09:14:34Z</time>
      </trkpt>
      <trkpt lat="44.37968" lon="5.8444">
        <ele>1106.61</ele>
        <time>2013-04-25T09:14:49Z</time>
      </trkpt>
      <trkpt lat="44.37976" lon="5.84442">
        <ele>1107.58</ele>
        <time>2013-04-25T09:15:04Z</time>
      </trkpt>
      <trkpt lat="44.37984" lon="5.84441">
        <ele>1109.02</ele>
        <time>2013-04-25T09:15:21Z</time>
      </trkpt>
      <trkpt lat="44.37994" lon="5.84439">
        <ele>1109.98</ele>
        <time>2013-04-25T09:15:35Z</time>
      </trkpt>
      <trkpt lat="44.38003" lon="5.84436">
        <ele>1110.94</ele>
        <time>2013-04-25T09:15:50Z</time>
      </trkpt>
      <trkpt lat="44.38013" lon="5.8443">
        <ele>1112.38</ele>
        <time>2013-04-25T09:16:04Z</time>
      </trkpt>
      <trkpt lat="44.38023" lon="5.84426">
        <ele>1113.82</ele>
        <time>2013-04-25T09:16:21Z</time>
      </trkpt>
      <trkpt lat="44.3803" lon="5.8442">
        <ele>1114.79</ele>
        <time>2013-04-25T09:16:34Z</time>
      </trkpt>
      <trkpt lat="44.38039" lon="5.84412">
        <ele>1115.75</ele>
        <time>2013-04-25T09:16:49Z</time>
      </trkpt>
      <trkpt lat="44.38049" lon="5.84405">
        <ele>1117.67</ele>
        <time>2013-04-25T09:17:04Z</time>
      </trkpt>
      <trkpt lat="44.38056" lon="5.84398">
        <ele>1118.63</ele>
        <time>2013-04-25T09:17:19Z</time>
      </trkpt>
      <trkpt lat="44.38066" lon="5.8439">
        <ele>1120.07</ele>
        <time>2013-04-25T09:17:34Z</time>
      </trkpt>
      <trkpt lat="44.38069" lon="5.84379">
        <ele>1121.03</ele>
        <time>2013-04-25T09:17:48Z</time>
      </trkpt>
      <trkpt lat="44.38068" lon="5.84367">
        <ele>1122</ele>
        <time>2013-04-25T09:18:03Z</time>
      </trkpt>
      <trkpt lat="44.38062" lon="5.84359">
        <ele>1123.44</ele>
        <time>2013-04-25T09:18:17Z</time>
      </trkpt>
      <trkpt lat="44.38061" lon="5.84352">
        <ele>1124.4</ele>
        <time>2013-04-25T09:18:34Z</time>
      </trkpt>
      <trkpt lat="44.38068" lon="5.84345">
        <ele>1125.36</ele>
        <time>2013-04-25T09:18:48Z</time>
      </trkpt>
      <trkpt lat="44.38072" lon="5.84343">
        <ele>1125.84</ele>
        <time>2013-04-25T09:19:01Z</time>
      </trkpt>
      <trkpt lat="44.38082" lon="5.8434">
        <ele>1127.76</ele>
        <time>2013-04-25T09:19:14Z</time>
      </trkpt>
      <trkpt lat="44.38091" lon="5.84337">
        <ele>1128.73</ele>
        <time>2013-04-25T09:19:28Z</time>
      </trkpt>
      <trkpt lat="44.381" lon="5.84332">
        <ele>1130.17</ele>
        <time>2013-04-25T09:19:43Z</time>
      </trkpt>
      <trkpt lat="44.38108" lon="5.84331">
        <ele>1131.61</ele>
        <time>2013-04-25T09:19:58Z</time>
      </trkpt>
      <trkpt lat="44.38118" lon="5.84324">
        <ele>1132.57</ele>
        <time>2013-04-25T09:20:12Z</time>
      </trkpt>
      <trkpt lat="44.38127" lon="5.8432">
        <ele>1133.53</ele>
        <time>2013-04-25T09:20:25Z</time>
      </trkpt>
      <trkpt lat="44.38134" lon="5.84317">
        <ele>1134.97</ele>
        <time>2013-04-25T09:20:40Z</time>
      </trkpt>
      <trkpt lat="44.38141" lon="5.84314">
        <ele>1135.94</ele>
        <time>2013-04-25T09:20:53Z</time>
      </trkpt>
      <trkpt lat="44.38148" lon="5.84309">
        <ele>1137.38</ele>
        <time>2013-04-25T09:21:07Z</time>
      </trkpt>
      <trkpt lat="44.38158" lon="5.84305">
        <ele>1137.38</ele>
        <time>2013-04-25T09:21:21Z</time>
      </trkpt>
      <trkpt lat="44.38169" lon="5.84303">
        <ele>1137.86</ele>
        <time>2013-04-25T09:21:35Z</time>
      </trkpt>
      <trkpt lat="44.38181" lon="5.84305">
        <ele>1137.86</ele>
        <time>2013-04-25T09:21:52Z</time>
      </trkpt>
      <trkpt lat="44.38184" lon="5.84309">
        <ele>1138.82</ele>
        <time>2013-04-25T09:22:05Z</time>
      </trkpt>
      <trkpt lat="44.38184" lon="5.84311">
        <ele>1139.3</ele>
        <time>2013-04-25T09:22:21Z</time>
      </trkpt>
      <trkpt lat="44.38184" lon="5.8431">
        <ele>1139.3</ele>
        <time>2013-04-25T09:22:41Z</time>
      </trkpt>
      <trkpt lat="44.38186" lon="5.84312">
        <ele>1138.82</ele>
        <time>2013-04-25T09:23:13Z</time>
      </trkpt>
      <trkpt lat="44.38185" lon="5.84309">
        <ele>1139.3</ele>
        <time>2013-04-25T09:23:43Z</time>
      </trkpt>
      <trkpt lat="44.38188" lon="5.84313">
        <ele>1138.34</ele>
        <time>2013-04-25T09:24:00Z</time>
      </trkpt>
      <trkpt lat="44.38194" lon="5.8432">
        <ele>1139.78</ele>
        <time>2013-04-25T09:24:15Z</time>
      </trkpt>
      <trkpt lat="44.38194" lon="5.8432">
        <ele>1141.22</ele>
        <time>2013-04-25T09:24:18Z</time>
      </trkpt>
      <trkpt lat="44.38197" lon="5.84319">
        <ele>1142.66</ele>
        <time>2013-04-25T09:24:22Z</time>
      </trkpt>
      <trkpt lat="44.38205" lon="5.84316">
        <ele>1143.14</ele>
        <time>2013-04-25T09:24:34Z</time>
      </trkpt>
      <trkpt lat="44.3821" lon="5.84314">
        <ele>1143.14</ele>
        <time>2013-04-25T09:24:40Z</time>
      </trkpt>
      <trkpt lat="44.38217" lon="5.8431">
        <ele>1144.59</ele>
        <time>2013-04-25T09:24:51Z</time>
      </trkpt>
      <trkpt lat="44.38223" lon="5.84307">
        <ele>1145.55</ele>
        <time>2013-04-25T09:25:03Z</time>
      </trkpt>
      <trkpt lat="44.38231" lon="5.84311">
        <ele>1147.47</ele>
        <time>2013-04-25T09:25:19Z</time>
      </trkpt>
      <trkpt lat="44.3824" lon="5.8431">
        <ele>1148.91</ele>
        <time>2013-04-25T09:25:33Z</time>
      </trkpt>
      <trkpt lat="44.3825" lon="5.8431">
        <ele>1149.87</ele>
        <time>2013-04-25T09:25:47Z</time>
      </trkpt>
      <trkpt lat="44.38259" lon="5.84308">
        <ele>1150.84</ele>
        <time>2013-04-25T09:26:00Z</time>
      </trkpt>
      <trkpt lat="44.3827" lon="5.84306">
        <ele>1152.28</ele>
        <time>2013-04-25T09:26:15Z</time>
      </trkpt>
      <trkpt lat="44.38281" lon="5.84304">
        <ele>1153.24</ele>
        <time>2013-04-25T09:26:31Z</time>
      </trkpt>
      <trkpt lat="44.38289" lon="5.84302">
        <ele>1154.2</ele>
        <time>2013-04-25T09:26:42Z</time>
      </trkpt>
      <trkpt lat="44.38297" lon="5.84301">
        <ele>1155.16</ele>
        <time>2013-04-25T09:26:55Z</time>
      </trkpt>
      <trkpt lat="44.38306" lon="5.84296">
        <ele>1155.64</ele>
        <time>2013-04-25T09:27:09Z</time>
      </trkpt>
      <trkpt lat="44.38308" lon="5.84295">
        <ele>1156.6</ele>
        <time>2013-04-25T09:27:28Z</time>
      </trkpt>
      <trkpt lat="44.38309" lon="5.84296">
        <ele>1156.6</ele>
        <time>2013-04-25T09:27:46Z</time>
      </trkpt>
      <trkpt lat="44.38309" lon="5.84298">
        <ele>1157.08</ele>
        <time>2013-04-25T09:28:06Z</time>
      </trkpt>
      <trkpt lat="44.38311" lon="5.84297">
        <ele>1157.08</ele>
        <time>2013-04-25T09:28:28Z</time>
      </trkpt>
      <trkpt lat="44.38315" lon="5.84294">
        <ele>1156.6</ele>
        <time>2013-04-25T09:28:48Z</time>
      </trkpt>
      <trkpt lat="44.38316" lon="5.84295">
        <ele>1157.08</ele>
        <time>2013-04-25T09:29:04Z</time>
      </trkpt>
      <trkpt lat="44.38312" lon="5.84291">
        <ele>1158.05</ele>
        <time>2013-04-25T09:29:23Z</time>
      </trkpt>
      <trkpt lat="44.38312" lon="5.84289">
        <ele>1158.05</ele>
        <time>2013-04-25T09:29:42Z</time>
      </trkpt>
      <trkpt lat="44.38313" lon="5.84292">
        <ele>1158.05</ele>
        <time>2013-04-25T09:30:04Z</time>
      </trkpt>
      <trkpt lat="44.38305" lon="5.84284">
        <ele>1159.01</ele>
        <time>2013-04-25T09:30:28Z</time>
      </trkpt>
      <trkpt lat="44.38298" lon="5.84275">
        <ele>1157.56</ele>
        <time>2013-04-25T09:30:42Z</time>
      </trkpt>
      <trkpt lat="44.38286" lon="5.84262">
        <ele>1157.56</ele>
        <time>2013-04-25T09:30:58Z</time>
      </trkpt>
      <trkpt lat="44.38281" lon="5.84256">
        <ele>1157.56</ele>
        <time>2013-04-25T09:31:05Z</time>
      </trkpt>
      <trkpt lat="44.38265" lon="5.84243">
        <ele>1157.08</ele>
        <time>2013-04-25T09:31:23Z</time>
      </trkpt>
      <trkpt lat="44.3825" lon="5.84231">
        <ele>1156.6</ele>
        <time>2013-04-25T09:31:41Z</time>
      </trkpt>
      <trkpt lat="44.3824" lon="5.84219">
        <ele>1155.16</ele>
        <time>2013-04-25T09:31:58Z</time>
      </trkpt>
      <trkpt lat="44.38238" lon="5.84213">
        <ele>1154.68</ele>
        <time>2013-04-25T09:32:03Z</time>
      </trkpt>
      <trkpt lat="44.38232" lon="5.84203">
        <ele>1153.72</ele>
        <time>2013-04-25T09:32:16Z</time>
      </trkpt>
      <trkpt lat="44.38226" lon="5.84197">
        <ele>1153.24</ele>
        <time>2013-04-25T09:32:24Z</time>
      </trkpt>
      <trkpt lat="44.38215" lon="5.84193">
        <ele>1152.76</ele>
        <time>2013-04-25T09:32:37Z</time>
      </trkpt>
      <trkpt lat="44.38196" lon="5.84198">
        <ele>1152.76</ele>
        <time>2013-04-25T09:32:57Z</time>
      </trkpt>
      <trkpt lat="44.3818" lon="5.84197">
        <ele>1152.76</ele>
        <time>2013-04-25T09:33:13Z</time>
      </trkpt>
      <trkpt lat="44.3816" lon="5.84192">
        <ele>1152.76</ele>
        <time>2013-04-25T09:33:34Z</time>
      </trkpt>
      <trkpt lat="44.38145" lon="5.8419">
        <ele>1152.76</ele>
        <time>2013-04-25T09:33:50Z</time>
      </trkpt>
      <trkpt lat="44.38127" lon="5.84182">
        <ele>1153.24</ele>
        <time>2013-04-25T09:34:08Z</time>
      </trkpt>
      <trkpt lat="44.38109" lon="5.84173">
        <ele>1152.76</ele>
        <time>2013-04-25T09:34:27Z</time>
      </trkpt>
      <trkpt lat="44.38094" lon="5.84168">
        <ele>1152.76</ele>
        <time>2013-04-25T09:34:44Z</time>
      </trkpt>
      <trkpt lat="44.38077" lon="5.84164">
        <ele>1152.76</ele>
        <time>2013-04-25T09:35:00Z</time>
      </trkpt>
      <trkpt lat="44.38062" lon="5.84157">
        <ele>1152.76</ele>
        <time>2013-04-25T09:35:15Z</time>
      </trkpt>
      <trkpt lat="44.38047" lon="5.8415">
        <ele>1153.24</ele>
        <time>2013-04-25T09:35:32Z</time>
      </trkpt>
      <trkpt lat="44.38041" lon="5.84148">
        <ele>1153.72</ele>
        <time>2013-04-25T09:35:38Z</time>
      </trkpt>
      <trkpt lat="44.38028" lon="5.84141">
        <ele>1153.72</ele>
        <time>2013-04-25T09:35:52Z</time>
      </trkpt>
      <trkpt lat="44.38015" lon="5.84126">
        <ele>1154.68</ele>
        <time>2013-04-25T09:36:10Z</time>
      </trkpt>
      <trkpt lat="44.38005" lon="5.8411">
        <ele>1155.16</ele>
        <time>2013-04-25T09:36:26Z</time>
      </trkpt>
      <trkpt lat="44.37992" lon="5.84097">
        <ele>1155.16</ele>
        <time>2013-04-25T09:36:43Z</time>
      </trkpt>
      <trkpt lat="44.37976" lon="5.84098">
        <ele>1156.12</ele>
        <time>2013-04-25T09:36:59Z</time>
      </trkpt>
      <trkpt lat="44.37975" lon="5.84098">
        <ele>1156.12</ele>
        <time>2013-04-25T09:37:00Z</time>
      </trkpt>
      <trkpt lat="44.3797" lon="5.84101">
        <ele>1156.12</ele>
        <time>2013-04-25T09:37:05Z</time>
      </trkpt>
      <trkpt lat="44.37969" lon="5.84101">
        <ele>1156.12</ele>
        <time>2013-04-25T09:37:07Z</time>
      </trkpt>
      <trkpt lat="44.37968" lon="5.84101">
        <ele>1157.08</ele>
        <time>2013-04-25T09:37:09Z</time>
      </trkpt>
      <trkpt lat="44.37957" lon="5.84114">
        <ele>1157.56</ele>
        <time>2013-04-25T09:37:24Z</time>
      </trkpt>
      <trkpt lat="44.37945" lon="5.84125">
        <ele>1158.05</ele>
        <time>2013-04-25T09:37:38Z</time>
      </trkpt>
      <trkpt lat="44.37931" lon="5.84132">
        <ele>1159.01</ele>
        <time>2013-04-25T09:37:54Z</time>
      </trkpt>
      <trkpt lat="44.37915" lon="5.84139">
        <ele>1159.49</ele>
        <time>2013-04-25T09:38:12Z</time>
      </trkpt>
      <trkpt lat="44.37898" lon="5.84145">
        <ele>1159.97</ele>
        <time>2013-04-25T09:38:30Z</time>
      </trkpt>
      <trkpt lat="44.37883" lon="5.84151">
        <ele>1160.45</ele>
        <time>2013-04-25T09:38:47Z</time>
      </trkpt>
      <trkpt lat="44.37867" lon="5.84153">
        <ele>1160.93</ele>
        <time>2013-04-25T09:39:04Z</time>
      </trkpt>
      <trkpt lat="44.37857" lon="5.84156">
        <ele>1160.93</ele>
        <time>2013-04-25T09:39:18Z</time>
      </trkpt>
      <trkpt lat="44.37839" lon="5.8416">
        <ele>1161.89</ele>
        <time>2013-04-25T09:39:35Z</time>
      </trkpt>
      <trkpt lat="44.37824" lon="5.84161">
        <ele>1162.85</ele>
        <time>2013-04-25T09:39:52Z</time>
      </trkpt>
      <trkpt lat="44.37818" lon="5.84161">
        <ele>1163.33</ele>
        <time>2013-04-25T09:39:57Z</time>
      </trkpt>
      <trkpt lat="44.37808" lon="5.8416">
        <ele>1163.81</ele>
        <time>2013-04-25T09:40:13Z</time>
      </trkpt>
      <trkpt lat="44.37804" lon="5.84161">
        <ele>1163.81</ele>
        <time>2013-04-25T09:40:18Z</time>
      </trkpt>
      <trkpt lat="44.37802" lon="5.84161">
        <ele>1163.81</ele>
        <time>2013-04-25T09:40:20Z</time>
      </trkpt>
      <trkpt lat="44.378" lon="5.84161">
        <ele>1164.29</ele>
        <time>2013-04-25T09:40:22Z</time>
      </trkpt>
      <trkpt lat="44.37792" lon="5.84166">
        <ele>1164.77</ele>
        <time>2013-04-25T09:40:32Z</time>
      </trkpt>
      <trkpt lat="44.37778" lon="5.84174">
        <ele>1165.74</ele>
        <time>2013-04-25T09:40:47Z</time>
      </trkpt>
      <trkpt lat="44.37765" lon="5.84184">
        <ele>1166.7</ele>
        <time>2013-04-25T09:41:03Z</time>
      </trkpt>
      <trkpt lat="44.3775" lon="5.84189">
        <ele>1167.18</ele>
        <time>2013-04-25T09:41:18Z</time>
      </trkpt>
      <trkpt lat="44.37736" lon="5.84195">
        <ele>1168.14</ele>
        <time>2013-04-25T09:41:33Z</time>
      </trkpt>
      <trkpt lat="44.37727" lon="5.84199">
        <ele>1168.62</ele>
        <time>2013-04-25T09:41:49Z</time>
      </trkpt>
      <trkpt lat="44.37718" lon="5.84203">
        <ele>1168.62</ele>
        <time>2013-04-25T09:42:09Z</time>
      </trkpt>
      <trkpt lat="44.37702" lon="5.84209">
        <ele>1169.58</ele>
        <time>2013-04-25T09:42:26Z</time>
      </trkpt>
      <trkpt lat="44.37687" lon="5.84217">
        <ele>1169.58</ele>
        <time>2013-04-25T09:42:46Z</time>
      </trkpt>
      <trkpt lat="44.37673" lon="5.84225">
        <ele>1170.06</ele>
        <time>2013-04-25T09:43:04Z</time>
      </trkpt>
      <trkpt lat="44.3766" lon="5.84233">
        <ele>1170.54</ele>
        <time>2013-04-25T09:43:21Z</time>
      </trkpt>
      <trkpt lat="44.3765" lon="5.84241">
        <ele>1171.02</ele>
        <time>2013-04-25T09:43:35Z</time>
      </trkpt>
      <trkpt lat="44.37635" lon="5.84252">
        <ele>1171.5</ele>
        <time>2013-04-25T09:43:52Z</time>
      </trkpt>
      <trkpt lat="44.3762" lon="5.84256">
        <ele>1171.98</ele>
        <time>2013-04-25T09:44:08Z</time>
      </trkpt>
      <trkpt lat="44.37614" lon="5.84253">
        <ele>1172.47</ele>
        <time>2013-04-25T09:44:14Z</time>
      </trkpt>
      <trkpt lat="44.37611" lon="5.8425">
        <ele>1172.47</ele>
        <time>2013-04-25T09:44:18Z</time>
      </trkpt>
      <trkpt lat="44.37608" lon="5.84239">
        <ele>1173.43</ele>
        <time>2013-04-25T09:44:28Z</time>
      </trkpt>
      <trkpt lat="44.37608" lon="5.8422">
        <ele>1174.39</ele>
        <time>2013-04-25T09:44:44Z</time>
      </trkpt>
      <trkpt lat="44.37608" lon="5.84201">
        <ele>1175.35</ele>
        <time>2013-04-25T09:44:59Z</time>
      </trkpt>
      <trkpt lat="44.37609" lon="5.84198">
        <ele>1175.35</ele>
        <time>2013-04-25T09:45:01Z</time>
      </trkpt>
      <trkpt lat="44.37609" lon="5.84193">
        <ele>1175.83</ele>
        <time>2013-04-25T09:45:05Z</time>
      </trkpt>
      <trkpt lat="44.37609" lon="5.84175">
        <ele>1176.31</ele>
        <time>2013-04-25T09:45:18Z</time>
      </trkpt>
      <trkpt lat="44.37609" lon="5.84162">
        <ele>1176.79</ele>
        <time>2013-04-25T09:45:27Z</time>
      </trkpt>
      <trkpt lat="44.37609" lon="5.84159">
        <ele>1176.79</ele>
        <time>2013-04-25T09:45:29Z</time>
      </trkpt>
      <trkpt lat="44.37617" lon="5.84138">
        <ele>1178.23</ele>
        <time>2013-04-25T09:45:47Z</time>
      </trkpt>
      <trkpt lat="44.37627" lon="5.84114">
        <ele>1179.19</ele>
        <time>2013-04-25T09:46:06Z</time>
      </trkpt>
      <trkpt lat="44.37629" lon="5.84105">
        <ele>1179.67</ele>
        <time>2013-04-25T09:46:13Z</time>
      </trkpt>
      <trkpt lat="44.37629" lon="5.84102">
        <ele>1179.67</ele>
        <time>2013-04-25T09:46:15Z</time>
      </trkpt>
      <trkpt lat="44.37633" lon="5.8408">
        <ele>1179.67</ele>
        <time>2013-04-25T09:46:32Z</time>
      </trkpt>
      <trkpt lat="44.37634" lon="5.84062">
        <ele>1180.64</ele>
        <time>2013-04-25T09:46:49Z</time>
      </trkpt>
      <trkpt lat="44.37634" lon="5.84053">
        <ele>1181.12</ele>
        <time>2013-04-25T09:47:04Z</time>
      </trkpt>
      <trkpt lat="44.37633" lon="5.84034">
        <ele>1181.6</ele>
        <time>2013-04-25T09:47:20Z</time>
      </trkpt>
      <trkpt lat="44.37621" lon="5.84016">
        <ele>1182.08</ele>
        <time>2013-04-25T09:47:38Z</time>
      </trkpt>
      <trkpt lat="44.37613" lon="5.83996">
        <ele>1181.6</ele>
        <time>2013-04-25T09:47:55Z</time>
      </trkpt>
      <trkpt lat="44.37613" lon="5.83991">
        <ele>1182.08</ele>
        <time>2013-04-25T09:47:59Z</time>
      </trkpt>
      <trkpt lat="44.37618" lon="5.83965">
        <ele>1182.56</ele>
        <time>2013-04-25T09:48:19Z</time>
      </trkpt>
      <trkpt lat="44.37623" lon="5.83942">
        <ele>1183.52</ele>
        <time>2013-04-25T09:48:35Z</time>
      </trkpt>
      <trkpt lat="44.37624" lon="5.83931">
        <ele>1184</ele>
        <time>2013-04-25T09:48:49Z</time>
      </trkpt>
      <trkpt lat="44.37626" lon="5.83913">
        <ele>1184.48</ele>
        <time>2013-04-25T09:49:04Z</time>
      </trkpt>
      <trkpt lat="44.37624" lon="5.83901">
        <ele>1184.96</ele>
        <time>2013-04-25T09:49:13Z</time>
      </trkpt>
      <trkpt lat="44.3762" lon="5.83879">
        <ele>1185.92</ele>
        <time>2013-04-25T09:49:30Z</time>
      </trkpt>
      <trkpt lat="44.37621" lon="5.83874">
        <ele>1185.92</ele>
        <time>2013-04-25T09:49:35Z</time>
      </trkpt>
      <trkpt lat="44.37622" lon="5.83863">
        <ele>1185.92</ele>
        <time>2013-04-25T09:49:43Z</time>
      </trkpt>
      <trkpt lat="44.37614" lon="5.83838">
        <ele>1186.88</ele>
        <time>2013-04-25T09:50:02Z</time>
      </trkpt>
      <trkpt lat="44.3761" lon="5.8383">
        <ele>1187.37</ele>
        <time>2013-04-25T09:50:09Z</time>
      </trkpt>
      <trkpt lat="44.37598" lon="5.83808">
        <ele>1188.33</ele>
        <time>2013-04-25T09:50:28Z</time>
      </trkpt>
      <trkpt lat="44.37591" lon="5.83785">
        <ele>1189.29</ele>
        <time>2013-04-25T09:50:48Z</time>
      </trkpt>
      <trkpt lat="44.37588" lon="5.83777">
        <ele>1189.77</ele>
        <time>2013-04-25T09:51:04Z</time>
      </trkpt>
      <trkpt lat="44.37587" lon="5.83777">
        <ele>1189.77</ele>
        <time>2013-04-25T09:51:36Z</time>
      </trkpt>
      <trkpt lat="44.37583" lon="5.8377">
        <ele>1189.77</ele>
        <time>2013-04-25T09:52:04Z</time>
      </trkpt>
      <trkpt lat="44.37576" lon="5.83751">
        <ele>1190.73</ele>
        <time>2013-04-25T09:52:20Z</time>
      </trkpt>
      <trkpt lat="44.37569" lon="5.83733">
        <ele>1191.69</ele>
        <time>2013-04-25T09:52:35Z</time>
      </trkpt>
      <trkpt lat="44.37559" lon="5.83715">
        <ele>1192.65</ele>
        <time>2013-04-25T09:52:51Z</time>
      </trkpt>
      <trkpt lat="44.37556" lon="5.83697">
        <ele>1192.65</ele>
        <time>2013-04-25T09:53:06Z</time>
      </trkpt>
      <trkpt lat="44.37553" lon="5.83689">
        <ele>1193.13</ele>
        <time>2013-04-25T09:53:11Z</time>
      </trkpt>
      <trkpt lat="44.37549" lon="5.83672">
        <ele>1193.61</ele>
        <time>2013-04-25T09:53:25Z</time>
      </trkpt>
      <trkpt lat="44.37548" lon="5.83656">
        <ele>1194.09</ele>
        <time>2013-04-25T09:53:39Z</time>
      </trkpt>
      <trkpt lat="44.37548" lon="5.83654">
        <ele>1194.09</ele>
        <time>2013-04-25T09:53:41Z</time>
      </trkpt>
      <trkpt lat="44.37548" lon="5.8365">
        <ele>1194.09</ele>
        <time>2013-04-25T09:53:44Z</time>
      </trkpt>
      <trkpt lat="44.37545" lon="5.83628">
        <ele>1194.58</ele>
        <time>2013-04-25T09:53:57Z</time>
      </trkpt>
      <trkpt lat="44.37541" lon="5.83607">
        <ele>1195.06</ele>
        <time>2013-04-25T09:54:12Z</time>
      </trkpt>
      <trkpt lat="44.37541" lon="5.83602">
        <ele>1195.06</ele>
        <time>2013-04-25T09:54:16Z</time>
      </trkpt>
      <trkpt lat="44.37539" lon="5.83595">
        <ele>1196.02</ele>
        <time>2013-04-25T09:54:22Z</time>
      </trkpt>
      <trkpt lat="44.37538" lon="5.83576">
        <ele>1196.5</ele>
        <time>2013-04-25T09:54:39Z</time>
      </trkpt>
      <trkpt lat="44.37538" lon="5.83558">
        <ele>1196.5</ele>
        <time>2013-04-25T09:54:54Z</time>
      </trkpt>
      <trkpt lat="44.37537" lon="5.83547">
        <ele>1196.5</ele>
        <time>2013-04-25T09:55:08Z</time>
      </trkpt>
      <trkpt lat="44.37538" lon="5.83547">
        <ele>1196.5</ele>
        <time>2013-04-25T09:55:24Z</time>
      </trkpt>
      <trkpt lat="44.37538" lon="5.83544">
        <ele>1196.5</ele>
        <time>2013-04-25T09:55:48Z</time>
      </trkpt>
      <trkpt lat="44.37533" lon="5.8353">
        <ele>1196.02</ele>
        <time>2013-04-25T09:56:03Z</time>
      </trkpt>
      <trkpt lat="44.37528" lon="5.83525">
        <ele>1195.54</ele>
        <time>2013-04-25T09:56:16Z</time>
      </trkpt>
      <trkpt lat="44.37523" lon="5.83518">
        <ele>1195.54</ele>
        <time>2013-04-25T09:56:35Z</time>
      </trkpt>
      <trkpt lat="44.37518" lon="5.83519">
        <ele>1196.02</ele>
        <time>2013-04-25T09:56:47Z</time>
      </trkpt>
      <trkpt lat="44.37516" lon="5.83519">
        <ele>1195.54</ele>
        <time>2013-04-25T09:56:57Z</time>
      </trkpt>
      <trkpt lat="44.37509" lon="5.83518">
        <ele>1196.02</ele>
        <time>2013-04-25T09:57:10Z</time>
      </trkpt>
      <trkpt lat="44.37503" lon="5.83523">
        <ele>1196.98</ele>
        <time>2013-04-25T09:57:28Z</time>
      </trkpt>
      <trkpt lat="44.37499" lon="5.83528">
        <ele>1197.46</ele>
        <time>2013-04-25T09:57:45Z</time>
      </trkpt>
      <trkpt lat="44.37494" lon="5.83532">
        <ele>1199.86</ele>
        <time>2013-04-25T09:58:05Z</time>
      </trkpt>
      <trkpt lat="44.37492" lon="5.83534">
        <ele>1200.82</ele>
        <time>2013-04-25T09:58:25Z</time>
      </trkpt>
      <trkpt lat="44.37488" lon="5.83536">
        <ele>1203.71</ele>
        <time>2013-04-25T09:58:44Z</time>
      </trkpt>
      <trkpt lat="44.37475" lon="5.83537">
        <ele>1204.67</ele>
        <time>2013-04-25T09:59:04Z</time>
      </trkpt>
      <trkpt lat="44.37465" lon="5.83527">
        <ele>1205.15</ele>
        <time>2013-04-25T09:59:21Z</time>
      </trkpt>
      <trkpt lat="44.37462" lon="5.83523">
        <ele>1205.15</ele>
        <time>2013-04-25T09:59:35Z</time>
      </trkpt>
      <trkpt lat="44.37461" lon="5.83523">
        <ele>1205.15</ele>
        <time>2013-04-25T09:59:49Z</time>
      </trkpt>
      <trkpt lat="44.37457" lon="5.83517">
        <ele>1204.19</ele>
        <time>2013-04-25T10:00:11Z</time>
      </trkpt>
      <trkpt lat="44.37455" lon="5.83503">
        <ele>1203.71</ele>
        <time>2013-04-25T10:00:26Z</time>
      </trkpt>
      <trkpt lat="44.37453" lon="5.83493">
        <ele>1202.27</ele>
        <time>2013-04-25T10:00:43Z</time>
      </trkpt>
      <trkpt lat="44.37451" lon="5.83484">
        <ele>1201.79</ele>
        <time>2013-04-25T10:00:57Z</time>
      </trkpt>
      <trkpt lat="44.37449" lon="5.83479">
        <ele>1201.79</ele>
        <time>2013-04-25T10:01:06Z</time>
      </trkpt>
      <trkpt lat="44.37444" lon="5.83466">
        <ele>1200.82</ele>
        <time>2013-04-25T10:01:21Z</time>
      </trkpt>
      <trkpt lat="44.37442" lon="5.83461">
        <ele>1200.82</ele>
        <time>2013-04-25T10:01:36Z</time>
      </trkpt>
      <trkpt lat="44.3744" lon="5.83461">
        <ele>1201.3</ele>
        <time>2013-04-25T10:01:55Z</time>
      </trkpt>
      <trkpt lat="44.37438" lon="5.83462">
        <ele>1200.34</ele>
        <time>2013-04-25T10:02:10Z</time>
      </trkpt>
      <trkpt lat="44.37435" lon="5.83462">
        <ele>1200.34</ele>
        <time>2013-04-25T10:02:36Z</time>
      </trkpt>
      <trkpt lat="44.37435" lon="5.83464">
        <ele>1200.34</ele>
        <time>2013-04-25T10:03:18Z</time>
      </trkpt>
      <trkpt lat="44.37434" lon="5.83465">
        <ele>1200.82</ele>
        <time>2013-04-25T10:03:56Z</time>
      </trkpt>
      <trkpt lat="44.37437" lon="5.83463">
        <ele>1200.34</ele>
        <time>2013-04-25T10:04:34Z</time>
      </trkpt>
      <trkpt lat="44.37437" lon="5.83462">
        <ele>1200.82</ele>
        <time>2013-04-25T10:04:57Z</time>
      </trkpt>
      <trkpt lat="44.37434" lon="5.83465">
        <ele>1200.82</ele>
        <time>2013-04-25T10:05:29Z</time>
      </trkpt>
      <trkpt lat="44.37434" lon="5.83465">
        <ele>1200.82</ele>
        <time>2013-04-25T10:06:19Z</time>
      </trkpt>
      <trkpt lat="44.37438" lon="5.83465">
        <ele>1200.82</ele>
        <time>2013-04-25T10:07:04Z</time>
      </trkpt>
      <trkpt lat="44.37436" lon="5.83464">
        <ele>1200.82</ele>
        <time>2013-04-25T10:07:40Z</time>
      </trkpt>
      <trkpt lat="44.37436" lon="5.83465">
        <ele>1200.82</ele>
        <time>2013-04-25T10:08:20Z</time>
      </trkpt>
      <trkpt lat="44.37436" lon="5.83465">
        <ele>1200.82</ele>
        <time>2013-04-25T10:09:06Z</time>
      </trkpt>
      <trkpt lat="44.37435" lon="5.83462">
        <ele>1200.82</ele>
        <time>2013-04-25T10:09:47Z</time>
      </trkpt>
      <trkpt lat="44.37436" lon="5.83466">
        <ele>1201.3</ele>
        <time>2013-04-25T10:10:31Z</time>
      </trkpt>
      <trkpt lat="44.37437" lon="5.83466">
        <ele>1201.3</ele>
        <time>2013-04-25T10:11:16Z</time>
      </trkpt>
      <trkpt lat="44.37436" lon="5.83463">
        <ele>1201.3</ele>
        <time>2013-04-25T10:11:51Z</time>
      </trkpt>
      <trkpt lat="44.37435" lon="5.83464">
        <ele>1201.3</ele>
        <time>2013-04-25T10:12:29Z</time>
      </trkpt>
      <trkpt lat="44.37435" lon="5.83465">
        <ele>1201.3</ele>
        <time>2013-04-25T10:13:14Z</time>
      </trkpt>
      <trkpt lat="44.37436" lon="5.83466">
        <ele>1201.3</ele>
        <time>2013-04-25T10:13:49Z</time>
      </trkpt>
      <trkpt lat="44.37434" lon="5.83463">
        <ele>1201.79</ele>
        <time>2013-04-25T10:14:25Z</time>
      </trkpt>
      <trkpt lat="44.37434" lon="5.83462">
        <ele>1201.79</ele>
        <time>2013-04-25T10:15:03Z</time>
      </trkpt>
      <trkpt lat="44.37433" lon="5.83467">
        <ele>1201.79</ele>
        <time>2013-04-25T10:15:39Z</time>
      </trkpt>
      <trkpt lat="44.37436" lon="5.83461">
        <ele>1201.79</ele>
        <time>2013-04-25T10:16:16Z</time>
      </trkpt>
      <trkpt lat="44.37438" lon="5.83462">
        <ele>1201.79</ele>
        <time>2013-04-25T10:16:58Z</time>
      </trkpt>
      <trkpt lat="44.37436" lon="5.83461">
        <ele>1201.79</ele>
        <time>2013-04-25T10:17:36Z</time>
      </trkpt>
      <trkpt lat="44.37437" lon="5.83463">
        <ele>1201.79</ele>
        <time>2013-04-25T10:18:09Z</time>
      </trkpt>
      <trkpt lat="44.37436" lon="5.83463">
        <ele>1201.79</ele>
        <time>2013-04-25T10:18:46Z</time>
      </trkpt>
      <trkpt lat="44.37434" lon="5.83465">
        <ele>1201.79</ele>
        <time>2013-04-25T10:19:17Z</time>
      </trkpt>
      <trkpt lat="44.37434" lon="5.83464">
        <ele>1201.79</ele>
        <time>2013-04-25T10:20:01Z</time>
      </trkpt>
      <trkpt lat="44.37431" lon="5.83463">
        <ele>1202.27</ele>
        <time>2013-04-25T10:20:46Z</time>
      </trkpt>
      <trkpt lat="44.37432" lon="5.83464">
        <ele>1201.79</ele>
        <time>2013-04-25T10:21:30Z</time>
      </trkpt>
      <trkpt lat="44.37436" lon="5.83462">
        <ele>1201.79</ele>
        <time>2013-04-25T10:22:07Z</time>
      </trkpt>
      <trkpt lat="44.37436" lon="5.83464">
        <ele>1201.79</ele>
        <time>2013-04-25T10:22:53Z</time>
      </trkpt>
      <trkpt lat="44.37437" lon="5.83464">
        <ele>1201.79</ele>
        <time>2013-04-25T10:23:33Z</time>
      </trkpt>
      <trkpt lat="44.37438" lon="5.83459">
        <ele>1201.79</ele>
        <time>2013-04-25T10:24:11Z</time>
      </trkpt>
      <trkpt lat="44.37437" lon="5.83462">
        <ele>1201.79</ele>
        <time>2013-04-25T10:24:47Z</time>
      </trkpt>
      <trkpt lat="44.37436" lon="5.83461">
        <ele>1202.27</ele>
        <time>2013-04-25T10:25:32Z</time>
      </trkpt>
      <trkpt lat="44.37436" lon="5.83461">
        <ele>1201.79</ele>
        <time>2013-04-25T10:26:07Z</time>
      </trkpt>
      <trkpt lat="44.37437" lon="5.83464">
        <ele>1201.79</ele>
        <time>2013-04-25T10:26:43Z</time>
      </trkpt>
      <trkpt lat="44.37437" lon="5.83463">
        <ele>1202.27</ele>
        <time>2013-04-25T10:27:21Z</time>
      </trkpt>
      <trkpt lat="44.3744" lon="5.83467">
        <ele>1202.27</ele>
        <time>2013-04-25T10:28:05Z</time>
      </trkpt>
      <trkpt lat="44.37438" lon="5.83465">
        <ele>1202.75</ele>
        <time>2013-04-25T10:28:52Z</time>
      </trkpt>
      <trkpt lat="44.37436" lon="5.83466">
        <ele>1202.75</ele>
        <time>2013-04-25T10:29:33Z</time>
      </trkpt>
      <trkpt lat="44.37437" lon="5.8346">
        <ele>1202.75</ele>
        <time>2013-04-25T10:30:00Z</time>
      </trkpt>
      <trkpt lat="44.37437" lon="5.83458">
        <ele>1202.75</ele>
        <time>2013-04-25T10:30:35Z</time>
      </trkpt>
      <trkpt lat="44.37438" lon="5.83459">
        <ele>1203.23</ele>
        <time>2013-04-25T10:31:16Z</time>
      </trkpt>
      <trkpt lat="44.37438" lon="5.83456">
        <ele>1203.23</ele>
        <time>2013-04-25T10:31:52Z</time>
      </trkpt>
      <trkpt lat="44.3744" lon="5.83458">
        <ele>1203.71</ele>
        <time>2013-04-25T10:32:29Z</time>
      </trkpt>
      <trkpt lat="44.37438" lon="5.83458">
        <ele>1203.71</ele>
        <time>2013-04-25T10:33:01Z</time>
      </trkpt>
      <trkpt lat="44.37438" lon="5.8346">
        <ele>1203.71</ele>
        <time>2013-04-25T10:33:31Z</time>
      </trkpt>
      <trkpt lat="44.37438" lon="5.83459">
        <ele>1203.71</ele>
        <time>2013-04-25T10:34:06Z</time>
      </trkpt>
      <trkpt lat="44.37437" lon="5.8346">
        <ele>1204.19</ele>
        <time>2013-04-25T10:34:45Z</time>
      </trkpt>
      <trkpt lat="44.37437" lon="5.8346">
        <ele>1204.19</ele>
        <time>2013-04-25T10:35:16Z</time>
      </trkpt>
      <trkpt lat="44.37436" lon="5.8346">
        <ele>1204.19</ele>
        <time>2013-04-25T10:35:54Z</time>
      </trkpt>
      <trkpt lat="44.37438" lon="5.8346">
        <ele>1204.19</ele>
        <time>2013-04-25T10:36:27Z</time>
      </trkpt>
      <trkpt lat="44.37437" lon="5.8346">
        <ele>1204.19</ele>
        <time>2013-04-25T10:37:09Z</time>
      </trkpt>
      <trkpt lat="44.37439" lon="5.8346">
        <ele>1204.67</ele>
        <time>2013-04-25T10:37:47Z</time>
      </trkpt>
      <trkpt lat="44.37437" lon="5.83459">
        <ele>1204.67</ele>
        <time>2013-04-25T10:38:25Z</time>
      </trkpt>
      <trkpt lat="44.37437" lon="5.83456">
        <ele>1204.67</ele>
        <time>2013-04-25T10:39:00Z</time>
      </trkpt>
      <trkpt lat="44.37438" lon="5.83457">
        <ele>1205.15</ele>
        <time>2013-04-25T10:39:40Z</time>
      </trkpt>
      <trkpt lat="44.37437" lon="5.83456">
        <ele>1205.63</ele>
        <time>2013-04-25T10:40:23Z</time>
      </trkpt>
      <trkpt lat="44.37438" lon="5.83462">
        <ele>1205.63</ele>
        <time>2013-04-25T10:40:59Z</time>
      </trkpt>
      <trkpt lat="44.37438" lon="5.83461">
        <ele>1205.63</ele>
        <time>2013-04-25T10:41:45Z</time>
      </trkpt>
      <trkpt lat="44.37438" lon="5.83463">
        <ele>1205.63</ele>
        <time>2013-04-25T10:42:26Z</time>
      </trkpt>
      <trkpt lat="44.37436" lon="5.83459">
        <ele>1205.63</ele>
        <time>2013-04-25T10:43:08Z</time>
      </trkpt>
      <trkpt lat="44.37439" lon="5.83461">
        <ele>1205.63</ele>
        <time>2013-04-25T10:43:54Z</time>
      </trkpt>
      <trkpt lat="44.37439" lon="5.8346">
        <ele>1205.63</ele>
        <time>2013-04-25T10:44:39Z</time>
      </trkpt>
      <trkpt lat="44.3744" lon="5.83459">
        <ele>1205.15</ele>
        <time>2013-04-25T10:45:15Z</time>
      </trkpt>
      <trkpt lat="44.37438" lon="5.83459">
        <ele>1205.63</ele>
        <time>2013-04-25T10:45:46Z</time>
      </trkpt>
      <trkpt lat="44.37439" lon="5.83459">
        <ele>1205.63</ele>
        <time>2013-04-25T10:46:26Z</time>
      </trkpt>
      <trkpt lat="44.37439" lon="5.83461">
        <ele>1205.63</ele>
        <time>2013-04-25T10:46:57Z</time>
      </trkpt>
      <trkpt lat="44.3744" lon="5.8346">
        <ele>1205.63</ele>
        <time>2013-04-25T10:47:41Z</time>
      </trkpt>
      <trkpt lat="44.37442" lon="5.83459">
        <ele>1206.11</ele>
        <time>2013-04-25T10:48:17Z</time>
      </trkpt>
      <trkpt lat="44.37439" lon="5.83457">
        <ele>1205.63</ele>
        <time>2013-04-25T10:48:51Z</time>
      </trkpt>
      <trkpt lat="44.37439" lon="5.83458">
        <ele>1205.63</ele>
        <time>2013-04-25T10:49:28Z</time>
      </trkpt>
      <trkpt lat="44.37438" lon="5.83459">
        <ele>1205.63</ele>
        <time>2013-04-25T10:50:13Z</time>
      </trkpt>
      <trkpt lat="44.37441" lon="5.8346">
        <ele>1205.63</ele>
        <time>2013-04-25T10:50:46Z</time>
      </trkpt>
      <trkpt lat="44.37436" lon="5.83461">
        <ele>1205.63</ele>
        <time>2013-04-25T10:51:20Z</time>
      </trkpt>
      <trkpt lat="44.37439" lon="5.83459">
        <ele>1205.63</ele>
        <time>2013-04-25T10:52:02Z</time>
      </trkpt>
      <trkpt lat="44.37435" lon="5.83463">
        <ele>1205.15</ele>
        <time>2013-04-25T10:52:36Z</time>
      </trkpt>
      <trkpt lat="44.37438" lon="5.8346">
        <ele>1205.15</ele>
        <time>2013-04-25T10:53:12Z</time>
      </trkpt>
      <trkpt lat="44.3744" lon="5.83461">
        <ele>1205.15</ele>
        <time>2013-04-25T10:53:48Z</time>
      </trkpt>
      <trkpt lat="44.37439" lon="5.83458">
        <ele>1205.15</ele>
        <time>2013-04-25T10:54:23Z</time>
      </trkpt>
      <trkpt lat="44.37442" lon="5.83458">
        <ele>1205.15</ele>
        <time>2013-04-25T10:54:59Z</time>
      </trkpt>
      <trkpt lat="44.3744" lon="5.83461">
        <ele>1205.15</ele>
        <time>2013-04-25T10:55:11Z</time>
      </trkpt>
      <trkpt lat="44.37439" lon="5.8346">
        <ele>1205.15</ele>
        <time>2013-04-25T10:55:47Z</time>
      </trkpt>
      <trkpt lat="44.37441" lon="5.83457">
        <ele>1205.15</ele>
        <time>2013-04-25T10:56:27Z</time>
      </trkpt>
      <trkpt lat="44.3744" lon="5.83461">
        <ele>1205.15</ele>
        <time>2013-04-25T10:57:01Z</time>
      </trkpt>
      <trkpt lat="44.3744" lon="5.83462">
        <ele>1205.15</ele>
        <time>2013-04-25T10:57:24Z</time>
      </trkpt>
      <trkpt lat="44.37442" lon="5.83455">
        <ele>1205.15</ele>
        <time>2013-04-25T10:57:45Z</time>
      </trkpt>
      <trkpt lat="44.37443" lon="5.83459">
        <ele>1204.67</ele>
        <time>2013-04-25T10:58:23Z</time>
      </trkpt>
      <trkpt lat="44.37441" lon="5.83454">
        <ele>1204.67</ele>
        <time>2013-04-25T10:59:02Z</time>
      </trkpt>
      <trkpt lat="44.37443" lon="5.83455">
        <ele>1204.67</ele>
        <time>2013-04-25T10:59:39Z</time>
      </trkpt>
      <trkpt lat="44.37442" lon="5.83455">
        <ele>1204.67</ele>
        <time>2013-04-25T11:00:19Z</time>
      </trkpt>
      <trkpt lat="44.37444" lon="5.83455">
        <ele>1204.67</ele>
        <time>2013-04-25T11:00:53Z</time>
      </trkpt>
      <trkpt lat="44.37442" lon="5.83456">
        <ele>1204.67</ele>
        <time>2013-04-25T11:01:34Z</time>
      </trkpt>
      <trkpt lat="44.37442" lon="5.83456">
        <ele>1204.67</ele>
        <time>2013-04-25T11:02:00Z</time>
      </trkpt>
      <trkpt lat="44.37444" lon="5.83454">
        <ele>1204.67</ele>
        <time>2013-04-25T11:02:41Z</time>
      </trkpt>
      <trkpt lat="44.37444" lon="5.83454">
        <ele>1205.15</ele>
        <time>2013-04-25T11:03:26Z</time>
      </trkpt>
      <trkpt lat="44.37444" lon="5.83455">
        <ele>1204.67</ele>
        <time>2013-04-25T11:04:09Z</time>
      </trkpt>
      <trkpt lat="44.37442" lon="5.83456">
        <ele>1204.67</ele>
        <time>2013-04-25T11:04:48Z</time>
      </trkpt>
      <trkpt lat="44.37442" lon="5.83456">
        <ele>1204.67</ele>
        <time>2013-04-25T11:05:18Z</time>
      </trkpt>
      <trkpt lat="44.37444" lon="5.83459">
        <ele>1204.67</ele>
        <time>2013-04-25T11:05:52Z</time>
      </trkpt>
      <trkpt lat="44.3744" lon="5.83459">
        <ele>1204.67</ele>
        <time>2013-04-25T11:06:26Z</time>
      </trkpt>
      <trkpt lat="44.37442" lon="5.83458">
        <ele>1204.67</ele>
        <time>2013-04-25T11:06:54Z</time>
      </trkpt>
      <trkpt lat="44.37443" lon="5.83455">
        <ele>1204.67</ele>
        <time>2013-04-25T11:07:18Z</time>
      </trkpt>
      <trkpt lat="44.37442" lon="5.83455">
        <ele>1204.67</ele>
        <time>2013-04-25T11:07:53Z</time>
      </trkpt>
      <trkpt lat="44.37443" lon="5.83458">
        <ele>1204.67</ele>
        <time>2013-04-25T11:08:19Z</time>
      </trkpt>
      <trkpt lat="44.37442" lon="5.83457">
        <ele>1204.67</ele>
        <time>2013-04-25T11:08:52Z</time>
      </trkpt>
      <trkpt lat="44.37442" lon="5.83453">
        <ele>1204.67</ele>
        <time>2013-04-25T11:09:31Z</time>
      </trkpt>
      <trkpt lat="44.37443" lon="5.83454">
        <ele>1204.67</ele>
        <time>2013-04-25T11:10:02Z</time>
      </trkpt>
      <trkpt lat="44.37443" lon="5.83459">
        <ele>1204.67</ele>
        <time>2013-04-25T11:10:47Z</time>
      </trkpt>
      <trkpt lat="44.37442" lon="5.83454">
        <ele>1204.67</ele>
        <time>2013-04-25T11:11:19Z</time>
      </trkpt>
      <trkpt lat="44.37444" lon="5.83454">
        <ele>1204.67</ele>
        <time>2013-04-25T11:12:03Z</time>
      </trkpt>
      <trkpt lat="44.37441" lon="5.83457">
        <ele>1204.67</ele>
        <time>2013-04-25T11:12:43Z</time>
      </trkpt>
      <trkpt lat="44.3744" lon="5.83461">
        <ele>1204.67</ele>
        <time>2013-04-25T11:13:09Z</time>
      </trkpt>
      <trkpt lat="44.37438" lon="5.83455">
        <ele>1204.19</ele>
        <time>2013-04-25T11:13:47Z</time>
      </trkpt>
      <trkpt lat="44.37443" lon="5.83455">
        <ele>1204.67</ele>
        <time>2013-04-25T11:14:33Z</time>
      </trkpt>
      <trkpt lat="44.37441" lon="5.83458">
        <ele>1204.67</ele>
        <time>2013-04-25T11:15:26Z</time>
      </trkpt>
      <trkpt lat="44.3744" lon="5.83455">
        <ele>1204.67</ele>
        <time>2013-04-25T11:16:02Z</time>
      </trkpt>
      <trkpt lat="44.3744" lon="5.83454">
        <ele>1204.67</ele>
        <time>2013-04-25T11:16:26Z</time>
      </trkpt>
      <trkpt lat="44.37447" lon="5.83462">
        <ele>1204.67</ele>
        <time>2013-04-25T11:16:48Z</time>
      </trkpt>
      <trkpt lat="44.37445" lon="5.83458">
        <ele>1204.67</ele>
        <time>2013-04-25T11:17:18Z</time>
      </trkpt>
      <trkpt lat="44.37441" lon="5.8346">
        <ele>1204.67</ele>
        <time>2013-04-25T11:17:54Z</time>
      </trkpt>
      <trkpt lat="44.3744" lon="5.83461">
        <ele>1204.67</ele>
        <time>2013-04-25T11:18:47Z</time>
      </trkpt>
      <trkpt lat="44.37438" lon="5.83462">
        <ele>1204.67</ele>
        <time>2013-04-25T11:19:23Z</time>
      </trkpt>
      <trkpt lat="44.37437" lon="5.83458">
        <ele>1204.67</ele>
        <time>2013-04-25T11:19:58Z</time>
      </trkpt>
      <trkpt lat="44.37439" lon="5.8346">
        <ele>1204.67</ele>
        <time>2013-04-25T11:20:30Z</time>
      </trkpt>
      <trkpt lat="44.37437" lon="5.83458">
        <ele>1204.67</ele>
        <time>2013-04-25T11:21:06Z</time>
      </trkpt>
      <trkpt lat="44.37441" lon="5.83459">
        <ele>1204.67</ele>
        <time>2013-04-25T11:21:43Z</time>
      </trkpt>
      <trkpt lat="44.37439" lon="5.83458">
        <ele>1204.67</ele>
        <time>2013-04-25T11:22:27Z</time>
      </trkpt>
      <trkpt lat="44.37439" lon="5.83458">
        <ele>1204.67</ele>
        <time>2013-04-25T11:23:00Z</time>
      </trkpt>
      <trkpt lat="44.37438" lon="5.83464">
        <ele>1204.19</ele>
        <time>2013-04-25T11:23:43Z</time>
      </trkpt>
      <trkpt lat="44.3744" lon="5.83462">
        <ele>1204.19</ele>
        <time>2013-04-25T11:24:20Z</time>
      </trkpt>
      <trkpt lat="44.37438" lon="5.83462">
        <ele>1204.67</ele>
        <time>2013-04-25T11:24:58Z</time>
      </trkpt>
      <trkpt lat="44.37437" lon="5.83463">
        <ele>1205.15</ele>
        <time>2013-04-25T11:25:24Z</time>
      </trkpt>
      <trkpt lat="44.37439" lon="5.83464">
        <ele>1205.15</ele>
        <time>2013-04-25T11:25:39Z</time>
      </trkpt>
      <trkpt lat="44.37442" lon="5.83464">
        <ele>1205.15</ele>
        <time>2013-04-25T11:25:53Z</time>
      </trkpt>
      <trkpt lat="44.37444" lon="5.83461">
        <ele>1204.67</ele>
        <time>2013-04-25T11:26:21Z</time>
      </trkpt>
      <trkpt lat="44.37443" lon="5.83462">
        <ele>1204.67</ele>
        <time>2013-04-25T11:26:37Z</time>
      </trkpt>
      <trkpt lat="44.37438" lon="5.83462">
        <ele>1204.67</ele>
        <time>2013-04-25T11:26:56Z</time>
      </trkpt>
      <trkpt lat="44.37438" lon="5.83462">
        <ele>1204.67</ele>
        <time>2013-04-25T11:27:26Z</time>
      </trkpt>
      <trkpt lat="44.37439" lon="5.83462">
        <ele>1204.67</ele>
        <time>2013-04-25T11:27:55Z</time>
      </trkpt>
      <trkpt lat="44.37439" lon="5.83462">
        <ele>1204.67</ele>
        <time>2013-04-25T11:28:21Z</time>
      </trkpt>
      <trkpt lat="44.37439" lon="5.83466">
        <ele>1204.19</ele>
        <time>2013-04-25T11:28:43Z</time>
      </trkpt>
      <trkpt lat="44.37439" lon="5.83467">
        <ele>1204.67</ele>
        <time>2013-04-25T11:29:15Z</time>
      </trkpt>
      <trkpt lat="44.37439" lon="5.83466">
        <ele>1204.67</ele>
        <time>2013-04-25T11:29:43Z</time>
      </trkpt>
      <trkpt lat="44.3744" lon="5.83465">
        <ele>1204.67</ele>
        <time>2013-04-25T11:30:12Z</time>
      </trkpt>
      <trkpt lat="44.37441" lon="5.83466">
        <ele>1204.67</ele>
        <time>2013-04-25T11:30:38Z</time>
      </trkpt>
      <trkpt lat="44.3744" lon="5.83465">
        <ele>1204.67</ele>
        <time>2013-04-25T11:31:07Z</time>
      </trkpt>
      <trkpt lat="44.37437" lon="5.83464">
        <ele>1204.67</ele>
        <time>2013-04-25T11:31:42Z</time>
      </trkpt>
      <trkpt lat="44.37441" lon="5.83463">
        <ele>1204.67</ele>
        <time>2013-04-25T11:32:11Z</time>
      </trkpt>
      <trkpt lat="44.3744" lon="5.83467">
        <ele>1204.67</ele>
        <time>2013-04-25T11:32:48Z</time>
      </trkpt>
      <trkpt lat="44.3744" lon="5.83462">
        <ele>1204.67</ele>
        <time>2013-04-25T11:33:19Z</time>
      </trkpt>
      <trkpt lat="44.37441" lon="5.83462">
        <ele>1204.67</ele>
        <time>2013-04-25T11:33:47Z</time>
      </trkpt>
      <trkpt lat="44.3744" lon="5.83463">
        <ele>1204.67</ele>
        <time>2013-04-25T11:34:19Z</time>
      </trkpt>
      <trkpt lat="44.37441" lon="5.83462">
        <ele>1204.19</ele>
        <time>2013-04-25T11:34:54Z</time>
      </trkpt>
      <trkpt lat="44.37441" lon="5.83462">
        <ele>1204.19</ele>
        <time>2013-04-25T11:35:22Z</time>
      </trkpt>
      <trkpt lat="44.37442" lon="5.83466">
        <ele>1204.19</ele>
        <time>2013-04-25T11:35:50Z</time>
      </trkpt>
      <trkpt lat="44.37445" lon="5.83482">
        <ele>1204.67</ele>
        <time>2013-04-25T11:36:04Z</time>
      </trkpt>
      <trkpt lat="44.37447" lon="5.83498">
        <ele>1205.63</ele>
        <time>2013-04-25T11:36:19Z</time>
      </trkpt>
      <trkpt lat="44.37453" lon="5.83509">
        <ele>1206.11</ele>
        <time>2013-04-25T11:36:35Z</time>
      </trkpt>
      <trkpt lat="44.37456" lon="5.83518">
        <ele>1207.07</ele>
        <time>2013-04-25T11:36:47Z</time>
      </trkpt>
      <trkpt lat="44.37462" lon="5.83529">
        <ele>1208.51</ele>
        <time>2013-04-25T11:37:00Z</time>
      </trkpt>
      <trkpt lat="44.37472" lon="5.83534">
        <ele>1208.03</ele>
        <time>2013-04-25T11:37:15Z</time>
      </trkpt>
      <trkpt lat="44.37481" lon="5.83537">
        <ele>1206.59</ele>
        <time>2013-04-25T11:37:28Z</time>
      </trkpt>
      <trkpt lat="44.37487" lon="5.83537">
        <ele>1205.15</ele>
        <time>2013-04-25T11:37:41Z</time>
      </trkpt>
      <trkpt lat="44.37492" lon="5.83533">
        <ele>1203.23</ele>
        <time>2013-04-25T11:37:53Z</time>
      </trkpt>
      <trkpt lat="44.37498" lon="5.83529">
        <ele>1201.3</ele>
        <time>2013-04-25T11:38:05Z</time>
      </trkpt>
      <trkpt lat="44.37502" lon="5.83525">
        <ele>1200.34</ele>
        <time>2013-04-25T11:38:16Z</time>
      </trkpt>
      <trkpt lat="44.37512" lon="5.83523">
        <ele>1198.9</ele>
        <time>2013-04-25T11:38:30Z</time>
      </trkpt>
      <trkpt lat="44.37525" lon="5.83527">
        <ele>1197.94</ele>
        <time>2013-04-25T11:38:48Z</time>
      </trkpt>
      <trkpt lat="44.37533" lon="5.83541">
        <ele>1198.42</ele>
        <time>2013-04-25T11:39:06Z</time>
      </trkpt>
      <trkpt lat="44.37535" lon="5.83553">
        <ele>1198.9</ele>
        <time>2013-04-25T11:39:19Z</time>
      </trkpt>
      <trkpt lat="44.37533" lon="5.8357">
        <ele>1198.9</ele>
        <time>2013-04-25T11:39:35Z</time>
      </trkpt>
      <trkpt lat="44.37535" lon="5.83586">
        <ele>1198.42</ele>
        <time>2013-04-25T11:39:51Z</time>
      </trkpt>
      <trkpt lat="44.37537" lon="5.83604">
        <ele>1197.94</ele>
        <time>2013-04-25T11:40:08Z</time>
      </trkpt>
      <trkpt lat="44.37539" lon="5.83622">
        <ele>1197.46</ele>
        <time>2013-04-25T11:40:24Z</time>
      </trkpt>
      <trkpt lat="44.37542" lon="5.8364">
        <ele>1196.98</ele>
        <time>2013-04-25T11:40:41Z</time>
      </trkpt>
      <trkpt lat="44.37546" lon="5.83654">
        <ele>1196.98</ele>
        <time>2013-04-25T11:40:55Z</time>
      </trkpt>
      <trkpt lat="44.37551" lon="5.83676">
        <ele>1196.5</ele>
        <time>2013-04-25T11:41:13Z</time>
      </trkpt>
      <trkpt lat="44.37554" lon="5.83693">
        <ele>1196.02</ele>
        <time>2013-04-25T11:41:28Z</time>
      </trkpt>
      <trkpt lat="44.37554" lon="5.83695">
        <ele>1196.02</ele>
        <time>2013-04-25T11:41:29Z</time>
      </trkpt>
      <trkpt lat="44.37559" lon="5.83712">
        <ele>1195.54</ele>
        <time>2013-04-25T11:41:44Z</time>
      </trkpt>
      <trkpt lat="44.37565" lon="5.83727">
        <ele>1195.06</ele>
        <time>2013-04-25T11:42:00Z</time>
      </trkpt>
      <trkpt lat="44.37572" lon="5.83745">
        <ele>1194.58</ele>
        <time>2013-04-25T11:42:17Z</time>
      </trkpt>
      <trkpt lat="44.37579" lon="5.83762">
        <ele>1193.13</ele>
        <time>2013-04-25T11:42:34Z</time>
      </trkpt>
      <trkpt lat="44.37586" lon="5.8378">
        <ele>1192.65</ele>
        <time>2013-04-25T11:42:50Z</time>
      </trkpt>
      <trkpt lat="44.37593" lon="5.83802">
        <ele>1191.69</ele>
        <time>2013-04-25T11:43:09Z</time>
      </trkpt>
      <trkpt lat="44.37601" lon="5.83819">
        <ele>1190.73</ele>
        <time>2013-04-25T11:43:25Z</time>
      </trkpt>
      <trkpt lat="44.37602" lon="5.83821">
        <ele>1190.73</ele>
        <time>2013-04-25T11:43:27Z</time>
      </trkpt>
      <trkpt lat="44.37612" lon="5.83842">
        <ele>1189.29</ele>
        <time>2013-04-25T11:43:48Z</time>
      </trkpt>
      <trkpt lat="44.37617" lon="5.83866">
        <ele>1189.29</ele>
        <time>2013-04-25T11:44:07Z</time>
      </trkpt>
      <trkpt lat="44.37616" lon="5.83873">
        <ele>1188.81</ele>
        <time>2013-04-25T11:44:13Z</time>
      </trkpt>
      <trkpt lat="44.37618" lon="5.83895">
        <ele>1188.81</ele>
        <time>2013-04-25T11:44:30Z</time>
      </trkpt>
      <trkpt lat="44.37621" lon="5.83919">
        <ele>1187.85</ele>
        <time>2013-04-25T11:44:49Z</time>
      </trkpt>
      <trkpt lat="44.37621" lon="5.8392">
        <ele>1187.85</ele>
        <time>2013-04-25T11:44:50Z</time>
      </trkpt>
      <trkpt lat="44.37618" lon="5.8394">
        <ele>1186.88</ele>
        <time>2013-04-25T11:45:07Z</time>
      </trkpt>
      <trkpt lat="44.37613" lon="5.83959">
        <ele>1185.92</ele>
        <time>2013-04-25T11:45:22Z</time>
      </trkpt>
      <trkpt lat="44.37611" lon="5.83983">
        <ele>1185.44</ele>
        <time>2013-04-25T11:45:41Z</time>
      </trkpt>
      <trkpt lat="44.37612" lon="5.83999">
        <ele>1185.44</ele>
        <time>2013-04-25T11:45:52Z</time>
      </trkpt>
      <trkpt lat="44.3762" lon="5.84018">
        <ele>1185.44</ele>
        <time>2013-04-25T11:46:10Z</time>
      </trkpt>
      <trkpt lat="44.37624" lon="5.84022">
        <ele>1185.44</ele>
        <time>2013-04-25T11:46:15Z</time>
      </trkpt>
      <trkpt lat="44.37631" lon="5.84039">
        <ele>1184.96</ele>
        <time>2013-04-25T11:46:32Z</time>
      </trkpt>
      <trkpt lat="44.37629" lon="5.84061">
        <ele>1184.48</ele>
        <time>2013-04-25T11:46:50Z</time>
      </trkpt>
      <trkpt lat="44.37628" lon="5.84076">
        <ele>1183.52</ele>
        <time>2013-04-25T11:47:02Z</time>
      </trkpt>
      <trkpt lat="44.37625" lon="5.84097">
        <ele>1183.04</ele>
        <time>2013-04-25T11:47:20Z</time>
      </trkpt>
      <trkpt lat="44.37622" lon="5.84112">
        <ele>1182.56</ele>
        <time>2013-04-25T11:47:32Z</time>
      </trkpt>
      <trkpt lat="44.37618" lon="5.84124">
        <ele>1183.52</ele>
        <time>2013-04-25T11:47:43Z</time>
      </trkpt>
      <trkpt lat="44.37606" lon="5.84145">
        <ele>1181.12</ele>
        <time>2013-04-25T11:48:04Z</time>
      </trkpt>
      <trkpt lat="44.37606" lon="5.84168">
        <ele>1180.16</ele>
        <time>2013-04-25T11:48:20Z</time>
      </trkpt>
      <trkpt lat="44.37606" lon="5.84189">
        <ele>1179.19</ele>
        <time>2013-04-25T11:48:35Z</time>
      </trkpt>
      <trkpt lat="44.37606" lon="5.84211">
        <ele>1178.23</ele>
        <time>2013-04-25T11:48:52Z</time>
      </trkpt>
      <trkpt lat="44.37606" lon="5.84238">
        <ele>1176.79</ele>
        <time>2013-04-25T11:49:12Z</time>
      </trkpt>
      <trkpt lat="44.37616" lon="5.84259">
        <ele>1175.83</ele>
        <time>2013-04-25T11:49:31Z</time>
      </trkpt>
      <trkpt lat="44.37619" lon="5.8426">
        <ele>1175.35</ele>
        <time>2013-04-25T11:49:34Z</time>
      </trkpt>
      <trkpt lat="44.37638" lon="5.84252">
        <ele>1174.39</ele>
        <time>2013-04-25T11:49:52Z</time>
      </trkpt>
      <trkpt lat="44.37653" lon="5.8424">
        <ele>1173.91</ele>
        <time>2013-04-25T11:50:09Z</time>
      </trkpt>
      <trkpt lat="44.3767" lon="5.84228">
        <ele>1173.43</ele>
        <time>2013-04-25T11:50:28Z</time>
      </trkpt>
      <trkpt lat="44.37692" lon="5.84216">
        <ele>1172.47</ele>
        <time>2013-04-25T11:50:50Z</time>
      </trkpt>
      <trkpt lat="44.37705" lon="5.84209">
        <ele>1171.98</ele>
        <time>2013-04-25T11:51:05Z</time>
      </trkpt>
      <trkpt lat="44.37717" lon="5.84204">
        <ele>1171.5</ele>
        <time>2013-04-25T11:51:20Z</time>
      </trkpt>
      <trkpt lat="44.3773" lon="5.84199">
        <ele>1171.02</ele>
        <time>2013-04-25T11:51:35Z</time>
      </trkpt>
      <trkpt lat="44.37747" lon="5.84193">
        <ele>1170.06</ele>
        <time>2013-04-25T11:51:52Z</time>
      </trkpt>
      <trkpt lat="44.37761" lon="5.84187">
        <ele>1169.58</ele>
        <time>2013-04-25T11:52:07Z</time>
      </trkpt>
      <trkpt lat="44.37779" lon="5.84176">
        <ele>1168.14</ele>
        <time>2013-04-25T11:52:27Z</time>
      </trkpt>
      <trkpt lat="44.37796" lon="5.84166">
        <ele>1167.18</ele>
        <time>2013-04-25T11:52:46Z</time>
      </trkpt>
      <trkpt lat="44.37814" lon="5.84165">
        <ele>1166.22</ele>
        <time>2013-04-25T11:53:05Z</time>
      </trkpt>
      <trkpt lat="44.37831" lon="5.84163">
        <ele>1164.77</ele>
        <time>2013-04-25T11:53:23Z</time>
      </trkpt>
      <trkpt lat="44.3785" lon="5.84158">
        <ele>1163.81</ele>
        <time>2013-04-25T11:53:43Z</time>
      </trkpt>
      <trkpt lat="44.37867" lon="5.84156">
        <ele>1163.33</ele>
        <time>2013-04-25T11:54:00Z</time>
      </trkpt>
      <trkpt lat="44.37885" lon="5.84153">
        <ele>1162.85</ele>
        <time>2013-04-25T11:54:17Z</time>
      </trkpt>
      <trkpt lat="44.37902" lon="5.84146">
        <ele>1162.37</ele>
        <time>2013-04-25T11:54:35Z</time>
      </trkpt>
      <trkpt lat="44.37922" lon="5.84138">
        <ele>1161.89</ele>
        <time>2013-04-25T11:54:55Z</time>
      </trkpt>
      <trkpt lat="44.3794" lon="5.84128">
        <ele>1160.93</ele>
        <time>2013-04-25T11:55:14Z</time>
      </trkpt>
      <trkpt lat="44.37957" lon="5.84116">
        <ele>1159.97</ele>
        <time>2013-04-25T11:55:32Z</time>
      </trkpt>
      <trkpt lat="44.3797" lon="5.84103">
        <ele>1159.49</ele>
        <time>2013-04-25T11:55:48Z</time>
      </trkpt>
      <trkpt lat="44.37985" lon="5.841">
        <ele>1158.53</ele>
        <time>2013-04-25T11:56:05Z</time>
      </trkpt>
      <trkpt lat="44.38" lon="5.84109">
        <ele>1157.56</ele>
        <time>2013-04-25T11:56:23Z</time>
      </trkpt>
      <trkpt lat="44.38015" lon="5.84127">
        <ele>1156.6</ele>
        <time>2013-04-25T11:56:43Z</time>
      </trkpt>
      <trkpt lat="44.38028" lon="5.84143">
        <ele>1156.12</ele>
        <time>2013-04-25T11:57:00Z</time>
      </trkpt>
      <trkpt lat="44.38047" lon="5.84156">
        <ele>1155.16</ele>
        <time>2013-04-25T11:57:20Z</time>
      </trkpt>
      <trkpt lat="44.38068" lon="5.84165">
        <ele>1154.68</ele>
        <time>2013-04-25T11:57:41Z</time>
      </trkpt>
      <trkpt lat="44.38085" lon="5.84171">
        <ele>1154.68</ele>
        <time>2013-04-25T11:57:58Z</time>
      </trkpt>
      <trkpt lat="44.38103" lon="5.84177">
        <ele>1154.68</ele>
        <time>2013-04-25T11:58:17Z</time>
      </trkpt>
      <trkpt lat="44.38119" lon="5.84183">
        <ele>1154.68</ele>
        <time>2013-04-25T11:58:32Z</time>
      </trkpt>
      <trkpt lat="44.38136" lon="5.8419">
        <ele>1154.68</ele>
        <time>2013-04-25T11:58:50Z</time>
      </trkpt>
      <trkpt lat="44.38155" lon="5.84197">
        <ele>1154.68</ele>
        <time>2013-04-25T11:59:08Z</time>
      </trkpt>
      <trkpt lat="44.38174" lon="5.842">
        <ele>1154.2</ele>
        <time>2013-04-25T11:59:27Z</time>
      </trkpt>
      <trkpt lat="44.38193" lon="5.84203">
        <ele>1154.2</ele>
        <time>2013-04-25T11:59:45Z</time>
      </trkpt>
      <trkpt lat="44.38214" lon="5.84198">
        <ele>1154.2</ele>
        <time>2013-04-25T12:00:05Z</time>
      </trkpt>
      <trkpt lat="44.38215" lon="5.84198">
        <ele>1154.2</ele>
        <time>2013-04-25T12:00:07Z</time>
      </trkpt>
      <trkpt lat="44.38226" lon="5.84199">
        <ele>1154.68</ele>
        <time>2013-04-25T12:00:19Z</time>
      </trkpt>
      <trkpt lat="44.38238" lon="5.84216">
        <ele>1155.64</ele>
        <time>2013-04-25T12:00:35Z</time>
      </trkpt>
      <trkpt lat="44.38247" lon="5.84232">
        <ele>1157.56</ele>
        <time>2013-04-25T12:00:51Z</time>
      </trkpt>
      <trkpt lat="44.38262" lon="5.84244">
        <ele>1158.05</ele>
        <time>2013-04-25T12:01:09Z</time>
      </trkpt>
      <trkpt lat="44.38266" lon="5.84247">
        <ele>1158.05</ele>
        <time>2013-04-25T12:01:13Z</time>
      </trkpt>
      <trkpt lat="44.38273" lon="5.8425">
        <ele>1158.53</ele>
        <time>2013-04-25T12:01:22Z</time>
      </trkpt>
      <trkpt lat="44.3829" lon="5.84268">
        <ele>1159.01</ele>
        <time>2013-04-25T12:01:42Z</time>
      </trkpt>
      <trkpt lat="44.38304" lon="5.84282">
        <ele>1159.01</ele>
        <time>2013-04-25T12:01:59Z</time>
      </trkpt>
      <trkpt lat="44.38315" lon="5.84289">
        <ele>1159.49</ele>
        <time>2013-04-25T12:02:16Z</time>
      </trkpt>
      <trkpt lat="44.38317" lon="5.84289">
        <ele>1159.49</ele>
        <time>2013-04-25T12:02:44Z</time>
      </trkpt>
      <trkpt lat="44.38317" lon="5.84289">
        <ele>1159.49</ele>
        <time>2013-04-25T12:03:10Z</time>
      </trkpt>
      <trkpt lat="44.38319" lon="5.84289">
        <ele>1159.49</ele>
        <time>2013-04-25T12:03:37Z</time>
      </trkpt>
      <trkpt lat="44.38319" lon="5.84291">
        <ele>1159.49</ele>
        <time>2013-04-25T12:04:07Z</time>
      </trkpt>
      <trkpt lat="44.38318" lon="5.84293">
        <ele>1159.49</ele>
        <time>2013-04-25T12:04:31Z</time>
      </trkpt>
      <trkpt lat="44.38316" lon="5.84292">
        <ele>1159.49</ele>
        <time>2013-04-25T12:04:55Z</time>
      </trkpt>
      <trkpt lat="44.38315" lon="5.84292">
        <ele>1159.49</ele>
        <time>2013-04-25T12:05:15Z</time>
      </trkpt>
      <trkpt lat="44.38313" lon="5.84293">
        <ele>1159.01</ele>
        <time>2013-04-25T12:05:30Z</time>
      </trkpt>
      <trkpt lat="44.38306" lon="5.84295">
        <ele>1157.56</ele>
        <time>2013-04-25T12:05:46Z</time>
      </trkpt>
      <trkpt lat="44.38304" lon="5.84293">
        <ele>1157.56</ele>
        <time>2013-04-25T12:06:08Z</time>
      </trkpt>
      <trkpt lat="44.38302" lon="5.84291">
        <ele>1157.56</ele>
        <time>2013-04-25T12:06:28Z</time>
      </trkpt>
      <trkpt lat="44.38299" lon="5.84296">
        <ele>1157.56</ele>
        <time>2013-04-25T12:06:40Z</time>
      </trkpt>
      <trkpt lat="44.383" lon="5.84297">
        <ele>1157.08</ele>
        <time>2013-04-25T12:06:47Z</time>
      </trkpt>
      <trkpt lat="44.38287" lon="5.84298">
        <ele>1155.64</ele>
        <time>2013-04-25T12:07:04Z</time>
      </trkpt>
      <trkpt lat="44.38276" lon="5.843">
        <ele>1154.68</ele>
        <time>2013-04-25T12:07:18Z</time>
      </trkpt>
      <trkpt lat="44.38263" lon="5.84301">
        <ele>1153.24</ele>
        <time>2013-04-25T12:07:33Z</time>
      </trkpt>
      <trkpt lat="44.38248" lon="5.84304">
        <ele>1151.32</ele>
        <time>2013-04-25T12:07:49Z</time>
      </trkpt>
      <trkpt lat="44.38237" lon="5.84305">
        <ele>1149.87</ele>
        <time>2013-04-25T12:08:03Z</time>
      </trkpt>
      <trkpt lat="44.38232" lon="5.84304">
        <ele>1149.39</ele>
        <time>2013-04-25T12:08:09Z</time>
      </trkpt>
      <trkpt lat="44.38215" lon="5.84303">
        <ele>1146.99</ele>
        <time>2013-04-25T12:08:27Z</time>
      </trkpt>
      <trkpt lat="44.3821" lon="5.84306">
        <ele>1146.03</ele>
        <time>2013-04-25T12:08:34Z</time>
      </trkpt>
      <trkpt lat="44.38198" lon="5.84313">
        <ele>1144.11</ele>
        <time>2013-04-25T12:08:49Z</time>
      </trkpt>
      <trkpt lat="44.38186" lon="5.84308">
        <ele>1141.22</ele>
        <time>2013-04-25T12:09:05Z</time>
      </trkpt>
      <trkpt lat="44.38177" lon="5.84299">
        <ele>1139.3</ele>
        <time>2013-04-25T12:09:18Z</time>
      </trkpt>
      <trkpt lat="44.38167" lon="5.84297">
        <ele>1139.3</ele>
        <time>2013-04-25T12:09:30Z</time>
      </trkpt>
      <trkpt lat="44.38151" lon="5.843">
        <ele>1139.3</ele>
        <time>2013-04-25T12:09:47Z</time>
      </trkpt>
      <trkpt lat="44.3814" lon="5.84307">
        <ele>1137.86</ele>
        <time>2013-04-25T12:10:02Z</time>
      </trkpt>
      <trkpt lat="44.38128" lon="5.84315">
        <ele>1135.45</ele>
        <time>2013-04-25T12:10:17Z</time>
      </trkpt>
      <trkpt lat="44.38115" lon="5.8432">
        <ele>1134.01</ele>
        <time>2013-04-25T12:10:32Z</time>
      </trkpt>
      <trkpt lat="44.381" lon="5.84324">
        <ele>1131.61</ele>
        <time>2013-04-25T12:10:48Z</time>
      </trkpt>
      <trkpt lat="44.38087" lon="5.8433">
        <ele>1129.69</ele>
        <time>2013-04-25T12:11:05Z</time>
      </trkpt>
      <trkpt lat="44.38073" lon="5.84336">
        <ele>1127.76</ele>
        <time>2013-04-25T12:11:21Z</time>
      </trkpt>
      <trkpt lat="44.38063" lon="5.84345">
        <ele>1125.84</ele>
        <time>2013-04-25T12:11:36Z</time>
      </trkpt>
      <trkpt lat="44.38061" lon="5.8436">
        <ele>1124.4</ele>
        <time>2013-04-25T12:11:48Z</time>
      </trkpt>
      <trkpt lat="44.38061" lon="5.84362">
        <ele>1124.4</ele>
        <time>2013-04-25T12:11:49Z</time>
      </trkpt>
      <trkpt lat="44.38065" lon="5.84382">
        <ele>1121.52</ele>
        <time>2013-04-25T12:12:05Z</time>
      </trkpt>
      <trkpt lat="44.38054" lon="5.84391">
        <ele>1119.59</ele>
        <time>2013-04-25T12:12:22Z</time>
      </trkpt>
      <trkpt lat="44.38043" lon="5.84401">
        <ele>1118.15</ele>
        <time>2013-04-25T12:12:38Z</time>
      </trkpt>
      <trkpt lat="44.38037" lon="5.84406">
        <ele>1117.19</ele>
        <time>2013-04-25T12:12:46Z</time>
      </trkpt>
      <trkpt lat="44.38025" lon="5.84417">
        <ele>1115.27</ele>
        <time>2013-04-25T12:13:01Z</time>
      </trkpt>
      <trkpt lat="44.38014" lon="5.84426">
        <ele>1113.82</ele>
        <time>2013-04-25T12:13:14Z</time>
      </trkpt>
      <trkpt lat="44.38" lon="5.84433">
        <ele>1111.9</ele>
        <time>2013-04-25T12:13:31Z</time>
      </trkpt>
      <trkpt lat="44.37988" lon="5.84433">
        <ele>1109.98</ele>
        <time>2013-04-25T12:13:47Z</time>
      </trkpt>
      <trkpt lat="44.37977" lon="5.84435">
        <ele>1108.54</ele>
        <time>2013-04-25T12:14:01Z</time>
      </trkpt>
      <trkpt lat="44.37963" lon="5.84435">
        <ele>1107.1</ele>
        <time>2013-04-25T12:14:16Z</time>
      </trkpt>
      <trkpt lat="44.37953" lon="5.84433">
        <ele>1105.65</ele>
        <time>2013-04-25T12:14:29Z</time>
      </trkpt>
      <trkpt lat="44.37941" lon="5.84434">
        <ele>1102.77</ele>
        <time>2013-04-25T12:14:46Z</time>
      </trkpt>
      <trkpt lat="44.37938" lon="5.84448">
        <ele>1101.33</ele>
        <time>2013-04-25T12:14:59Z</time>
      </trkpt>
      <trkpt lat="44.3794" lon="5.84466">
        <ele>1099.89</ele>
        <time>2013-04-25T12:15:14Z</time>
      </trkpt>
      <trkpt lat="44.37943" lon="5.84484">
        <ele>1097.96</ele>
        <time>2013-04-25T12:15:29Z</time>
      </trkpt>
      <trkpt lat="44.37943" lon="5.84489">
        <ele>1097.48</ele>
        <time>2013-04-25T12:15:34Z</time>
      </trkpt>
      <trkpt lat="44.37944" lon="5.84505">
        <ele>1096.04</ele>
        <time>2013-04-25T12:15:47Z</time>
      </trkpt>
      <trkpt lat="44.37948" lon="5.8452">
        <ele>1094.6</ele>
        <time>2013-04-25T12:16:02Z</time>
      </trkpt>
      <trkpt lat="44.3795" lon="5.84536">
        <ele>1093.64</ele>
        <time>2013-04-25T12:16:16Z</time>
      </trkpt>
      <trkpt lat="44.3795" lon="5.84538">
        <ele>1093.16</ele>
        <time>2013-04-25T12:16:17Z</time>
      </trkpt>
      <trkpt lat="44.37956" lon="5.84553">
        <ele>1092.2</ele>
        <time>2013-04-25T12:16:31Z</time>
      </trkpt>
      <trkpt lat="44.37955" lon="5.84566">
        <ele>1090.75</ele>
        <time>2013-04-25T12:16:49Z</time>
      </trkpt>
      <trkpt lat="44.37955" lon="5.84567">
        <ele>1090.75</ele>
        <time>2013-04-25T12:16:50Z</time>
      </trkpt>
      <trkpt lat="44.37951" lon="5.84568">
        <ele>1089.31</ele>
        <time>2013-04-25T12:17:00Z</time>
      </trkpt>
      <trkpt lat="44.37945" lon="5.84565">
        <ele>1087.87</ele>
        <time>2013-04-25T12:17:13Z</time>
      </trkpt>
      <trkpt lat="44.37936" lon="5.84568">
        <ele>1086.91</ele>
        <time>2013-04-25T12:17:26Z</time>
      </trkpt>
      <trkpt lat="44.37932" lon="5.84581">
        <ele>1085.95</ele>
        <time>2013-04-25T12:17:40Z</time>
      </trkpt>
      <trkpt lat="44.37927" lon="5.84596">
        <ele>1084.5</ele>
        <time>2013-04-25T12:17:55Z</time>
      </trkpt>
      <trkpt lat="44.37924" lon="5.84611">
        <ele>1084.5</ele>
        <time>2013-04-25T12:18:08Z</time>
      </trkpt>
      <trkpt lat="44.37922" lon="5.84625">
        <ele>1083.06</ele>
        <time>2013-04-25T12:18:22Z</time>
      </trkpt>
      <trkpt lat="44.37917" lon="5.84637">
        <ele>1082.1</ele>
        <time>2013-04-25T12:18:36Z</time>
      </trkpt>
      <trkpt lat="44.37911" lon="5.84653">
        <ele>1081.14</ele>
        <time>2013-04-25T12:18:52Z</time>
      </trkpt>
      <trkpt lat="44.37901" lon="5.84669">
        <ele>1080.18</ele>
        <time>2013-04-25T12:19:10Z</time>
      </trkpt>
      <trkpt lat="44.37887" lon="5.84675">
        <ele>1079.7</ele>
        <time>2013-04-25T12:19:25Z</time>
      </trkpt>
      <trkpt lat="44.37875" lon="5.8468">
        <ele>1079.22</ele>
        <time>2013-04-25T12:19:40Z</time>
      </trkpt>
      <trkpt lat="44.3786" lon="5.84679">
        <ele>1079.22</ele>
        <time>2013-04-25T12:19:57Z</time>
      </trkpt>
      <trkpt lat="44.37846" lon="5.84679">
        <ele>1078.26</ele>
        <time>2013-04-25T12:20:12Z</time>
      </trkpt>
      <trkpt lat="44.37845" lon="5.84678">
        <ele>1078.26</ele>
        <time>2013-04-25T12:20:14Z</time>
      </trkpt>
      <trkpt lat="44.37833" lon="5.84677">
        <ele>1078.26</ele>
        <time>2013-04-25T12:20:29Z</time>
      </trkpt>
      <trkpt lat="44.37833" lon="5.84681">
        <ele>1077.78</ele>
        <time>2013-04-25T12:20:41Z</time>
      </trkpt>
      <trkpt lat="44.37834" lon="5.84681">
        <ele>1077.78</ele>
        <time>2013-04-25T12:20:59Z</time>
      </trkpt>
      <trkpt lat="44.37838" lon="5.84681">
        <ele>1077.78</ele>
        <time>2013-04-25T12:21:21Z</time>
      </trkpt>
      <trkpt lat="44.37838" lon="5.84685">
        <ele>1077.78</ele>
        <time>2013-04-25T12:21:45Z</time>
      </trkpt>
      <trkpt lat="44.37838" lon="5.84683">
        <ele>1077.78</ele>
        <time>2013-04-25T12:22:06Z</time>
      </trkpt>
      <trkpt lat="44.37837" lon="5.84681">
        <ele>1077.78</ele>
        <time>2013-04-25T12:22:25Z</time>
      </trkpt>
      <trkpt lat="44.37832" lon="5.8468">
        <ele>1077.29</ele>
        <time>2013-04-25T12:22:47Z</time>
      </trkpt>
      <trkpt lat="44.37824" lon="5.84676">
        <ele>1074.89</ele>
        <time>2013-04-25T12:23:02Z</time>
      </trkpt>
      <trkpt lat="44.3782" lon="5.84669">
        <ele>1072.97</ele>
        <time>2013-04-25T12:23:14Z</time>
      </trkpt>
      <trkpt lat="44.37817" lon="5.84663">
        <ele>1070.57</ele>
        <time>2013-04-25T12:23:27Z</time>
      </trkpt>
      <trkpt lat="44.37813" lon="5.84657">
        <ele>1069.12</ele>
        <time>2013-04-25T12:23:40Z</time>
      </trkpt>
      <trkpt lat="44.37806" lon="5.84651">
        <ele>1066.72</ele>
        <time>2013-04-25T12:23:54Z</time>
      </trkpt>
      <trkpt lat="44.37797" lon="5.84644">
        <ele>1064.32</ele>
        <time>2013-04-25T12:24:09Z</time>
      </trkpt>
      <trkpt lat="44.37793" lon="5.84642">
        <ele>1064.32</ele>
        <time>2013-04-25T12:24:14Z</time>
      </trkpt>
      <trkpt lat="44.37783" lon="5.84644">
        <ele>1062.39</ele>
        <time>2013-04-25T12:24:28Z</time>
      </trkpt>
      <trkpt lat="44.37777" lon="5.84644">
        <ele>1061.43</ele>
        <time>2013-04-25T12:24:39Z</time>
      </trkpt>
      <trkpt lat="44.37782" lon="5.84656">
        <ele>1059.51</ele>
        <time>2013-04-25T12:24:53Z</time>
      </trkpt>
      <trkpt lat="44.37781" lon="5.8466">
        <ele>1058.55</ele>
        <time>2013-04-25T12:25:04Z</time>
      </trkpt>
      <trkpt lat="44.37778" lon="5.84655">
        <ele>1057.11</ele>
        <time>2013-04-25T12:25:15Z</time>
      </trkpt>
      <trkpt lat="44.37771" lon="5.8465">
        <ele>1055.67</ele>
        <time>2013-04-25T12:25:27Z</time>
      </trkpt>
      <trkpt lat="44.37763" lon="5.8465">
        <ele>1053.74</ele>
        <time>2013-04-25T12:25:42Z</time>
      </trkpt>
      <trkpt lat="44.37771" lon="5.84659">
        <ele>1052.3</ele>
        <time>2013-04-25T12:25:57Z</time>
      </trkpt>
      <trkpt lat="44.37776" lon="5.84671">
        <ele>1049.9</ele>
        <time>2013-04-25T12:26:13Z</time>
      </trkpt>
      <trkpt lat="44.37783" lon="5.84673">
        <ele>1047.97</ele>
        <time>2013-04-25T12:26:25Z</time>
      </trkpt>
      <trkpt lat="44.37791" lon="5.84676">
        <ele>1046.53</ele>
        <time>2013-04-25T12:26:39Z</time>
      </trkpt>
      <trkpt lat="44.37801" lon="5.8468">
        <ele>1044.13</ele>
        <time>2013-04-25T12:26:57Z</time>
      </trkpt>
      <trkpt lat="44.37807" lon="5.84686">
        <ele>1042.69</ele>
        <time>2013-04-25T12:27:09Z</time>
      </trkpt>
      <trkpt lat="44.37815" lon="5.84697">
        <ele>1041.25</ele>
        <time>2013-04-25T12:27:24Z</time>
      </trkpt>
      <trkpt lat="44.37826" lon="5.84704">
        <ele>1040.76</ele>
        <time>2013-04-25T12:27:41Z</time>
      </trkpt>
      <trkpt lat="44.37833" lon="5.84708">
        <ele>1039.32</ele>
        <time>2013-04-25T12:27:55Z</time>
      </trkpt>
      <trkpt lat="44.37842" lon="5.84711">
        <ele>1036.92</ele>
        <time>2013-04-25T12:28:12Z</time>
      </trkpt>
      <trkpt lat="44.37846" lon="5.84714">
        <ele>1035.48</ele>
        <time>2013-04-25T12:28:23Z</time>
      </trkpt>
      <trkpt lat="44.37846" lon="5.84716">
        <ele>1035</ele>
        <time>2013-04-25T12:28:39Z</time>
      </trkpt>
      <trkpt lat="44.37848" lon="5.8472">
        <ele>1035</ele>
        <time>2013-04-25T12:28:54Z</time>
      </trkpt>
      <trkpt lat="44.37846" lon="5.84723">
        <ele>1035</ele>
        <time>2013-04-25T12:29:14Z</time>
      </trkpt>
      <trkpt lat="44.37845" lon="5.84724">
        <ele>1035</ele>
        <time>2013-04-25T12:29:34Z</time>
      </trkpt>
      <trkpt lat="44.37845" lon="5.84726">
        <ele>1035.48</ele>
        <time>2013-04-25T12:29:47Z</time>
      </trkpt>
      <trkpt lat="44.37845" lon="5.84729">
        <ele>1035.48</ele>
        <time>2013-04-25T12:30:03Z</time>
      </trkpt>
      <trkpt lat="44.37842" lon="5.84733">
        <ele>1035.96</ele>
        <time>2013-04-25T12:30:21Z</time>
      </trkpt>
      <trkpt lat="44.3784" lon="5.84732">
        <ele>1035.48</ele>
        <time>2013-04-25T12:30:36Z</time>
      </trkpt>
      <trkpt lat="44.37839" lon="5.84731">
        <ele>1035</ele>
        <time>2013-04-25T12:30:52Z</time>
      </trkpt>
      <trkpt lat="44.37839" lon="5.84728">
        <ele>1035.48</ele>
        <time>2013-04-25T12:31:11Z</time>
      </trkpt>
      <trkpt lat="44.3783" lon="5.84736">
        <ele>1034.52</ele>
        <time>2013-04-25T12:31:24Z</time>
      </trkpt>
      <trkpt lat="44.37822" lon="5.84742">
        <ele>1033.07</ele>
        <time>2013-04-25T12:31:38Z</time>
      </trkpt>
      <trkpt lat="44.37819" lon="5.84744">
        <ele>1032.59</ele>
        <time>2013-04-25T12:31:51Z</time>
      </trkpt>
      <trkpt lat="44.3781" lon="5.8475">
        <ele>1030.67</ele>
        <time>2013-04-25T12:32:04Z</time>
      </trkpt>
      <trkpt lat="44.3781" lon="5.84755">
        <ele>1030.19</ele>
        <time>2013-04-25T12:32:19Z</time>
      </trkpt>
      <trkpt lat="44.37809" lon="5.84757">
        <ele>1030.67</ele>
        <time>2013-04-25T12:32:48Z</time>
      </trkpt>
      <trkpt lat="44.37811" lon="5.84757">
        <ele>1031.15</ele>
        <time>2013-04-25T12:33:17Z</time>
      </trkpt>
      <trkpt lat="44.37816" lon="5.84748">
        <ele>1032.11</ele>
        <time>2013-04-25T12:33:28Z</time>
      </trkpt>
      <trkpt lat="44.37816" lon="5.84747">
        <ele>1032.11</ele>
        <time>2013-04-25T12:33:39Z</time>
      </trkpt>
      <trkpt lat="44.37816" lon="5.84742">
        <ele>1031.15</ele>
        <time>2013-04-25T12:33:56Z</time>
      </trkpt>
      <trkpt lat="44.37817" lon="5.84742">
        <ele>1032.11</ele>
        <time>2013-04-25T12:34:18Z</time>
      </trkpt>
      <trkpt lat="44.37815" lon="5.84754">
        <ele>1033.07</ele>
        <time>2013-04-25T12:34:29Z</time>
      </trkpt>
      <trkpt lat="44.37815" lon="5.84765">
        <ele>1033.55</ele>
        <time>2013-04-25T12:34:42Z</time>
      </trkpt>
      <trkpt lat="44.37817" lon="5.84781">
        <ele>1033.07</ele>
        <time>2013-04-25T12:34:57Z</time>
      </trkpt>
      <trkpt lat="44.37812" lon="5.84785">
        <ele>1032.59</ele>
        <time>2013-04-25T12:35:11Z</time>
      </trkpt>
      <trkpt lat="44.37805" lon="5.84783">
        <ele>1032.59</ele>
        <time>2013-04-25T12:35:26Z</time>
      </trkpt>
      <trkpt lat="44.37798" lon="5.84791">
        <ele>1034.52</ele>
        <time>2013-04-25T12:35:40Z</time>
      </trkpt>
      <trkpt lat="44.37792" lon="5.84799">
        <ele>1036.44</ele>
        <time>2013-04-25T12:35:54Z</time>
      </trkpt>
      <trkpt lat="44.37787" lon="5.84807">
        <ele>1037.4</ele>
        <time>2013-04-25T12:36:09Z</time>
      </trkpt>
      <trkpt lat="44.37782" lon="5.84815">
        <ele>1038.84</ele>
        <time>2013-04-25T12:36:22Z</time>
      </trkpt>
      <trkpt lat="44.37777" lon="5.84822">
        <ele>1040.76</ele>
        <time>2013-04-25T12:36:37Z</time>
      </trkpt>
      <trkpt lat="44.37772" lon="5.84826">
        <ele>1041.25</ele>
        <time>2013-04-25T12:36:51Z</time>
      </trkpt>
      <trkpt lat="44.37768" lon="5.84832">
        <ele>1041.25</ele>
        <time>2013-04-25T12:37:03Z</time>
      </trkpt>
      <trkpt lat="44.37759" lon="5.84836">
        <ele>1039.32</ele>
        <time>2013-04-25T12:37:19Z</time>
      </trkpt>
      <trkpt lat="44.37751" lon="5.84843">
        <ele>1037.4</ele>
        <time>2013-04-25T12:37:35Z</time>
      </trkpt>
      <trkpt lat="44.37753" lon="5.84837">
        <ele>1035</ele>
        <time>2013-04-25T12:37:48Z</time>
      </trkpt>
      <trkpt lat="44.37754" lon="5.84829">
        <ele>1032.59</ele>
        <time>2013-04-25T12:38:01Z</time>
      </trkpt>
      <trkpt lat="44.37749" lon="5.84832">
        <ele>1031.15</ele>
        <time>2013-04-25T12:38:14Z</time>
      </trkpt>
      <trkpt lat="44.37742" lon="5.84831">
        <ele>1028.75</ele>
        <time>2013-04-25T12:38:28Z</time>
      </trkpt>
      <trkpt lat="44.37741" lon="5.8483">
        <ele>1026.83</ele>
        <time>2013-04-25T12:38:42Z</time>
      </trkpt>
      <trkpt lat="44.37748" lon="5.84822">
        <ele>1025.86</ele>
        <time>2013-04-25T12:38:57Z</time>
      </trkpt>
      <trkpt lat="44.37755" lon="5.84819">
        <ele>1025.38</ele>
        <time>2013-04-25T12:39:11Z</time>
      </trkpt>
      <trkpt lat="44.37756" lon="5.84815">
        <ele>1024.42</ele>
        <time>2013-04-25T12:39:24Z</time>
      </trkpt>
      <trkpt lat="44.37749" lon="5.84811">
        <ele>1022.98</ele>
        <time>2013-04-25T12:39:38Z</time>
      </trkpt>
      <trkpt lat="44.37742" lon="5.84811">
        <ele>1020.58</ele>
        <time>2013-04-25T12:39:51Z</time>
      </trkpt>
      <trkpt lat="44.37737" lon="5.84814">
        <ele>1018.65</ele>
        <time>2013-04-25T12:40:05Z</time>
      </trkpt>
      <trkpt lat="44.37732" lon="5.84814">
        <ele>1016.25</ele>
        <time>2013-04-25T12:40:17Z</time>
      </trkpt>
      <trkpt lat="44.37725" lon="5.84816">
        <ele>1013.85</ele>
        <time>2013-04-25T12:40:32Z</time>
      </trkpt>
      <trkpt lat="44.37717" lon="5.84823">
        <ele>1011.93</ele>
        <time>2013-04-25T12:40:48Z</time>
      </trkpt>
      <trkpt lat="44.37713" lon="5.8483">
        <ele>1010.96</ele>
        <time>2013-04-25T12:41:04Z</time>
      </trkpt>
      <trkpt lat="44.3771" lon="5.84836">
        <ele>1010.96</ele>
        <time>2013-04-25T12:41:29Z</time>
      </trkpt>
      <trkpt lat="44.37714" lon="5.84831">
        <ele>1011.44</ele>
        <time>2013-04-25T12:41:56Z</time>
      </trkpt>
      <trkpt lat="44.37713" lon="5.84832">
        <ele>1011.44</ele>
        <time>2013-04-25T12:42:19Z</time>
      </trkpt>
      <trkpt lat="44.37713" lon="5.84832">
        <ele>1011.44</ele>
        <time>2013-04-25T12:42:47Z</time>
      </trkpt>
      <trkpt lat="44.37715" lon="5.84833">
        <ele>1010.96</ele>
        <time>2013-04-25T12:43:17Z</time>
      </trkpt>
      <trkpt lat="44.37712" lon="5.84833">
        <ele>1010.96</ele>
        <time>2013-04-25T12:44:01Z</time>
      </trkpt>
      <trkpt lat="44.37712" lon="5.84831">
        <ele>1010.96</ele>
        <time>2013-04-25T12:44:25Z</time>
      </trkpt>
      <trkpt lat="44.37713" lon="5.84831">
        <ele>1010.96</ele>
        <time>2013-04-25T12:44:41Z</time>
      </trkpt>
      <trkpt lat="44.37713" lon="5.84834">
        <ele>1010.96</ele>
        <time>2013-04-25T12:44:56Z</time>
      </trkpt>
      <trkpt lat="44.37717" lon="5.84834">
        <ele>1010.96</ele>
        <time>2013-04-25T12:45:15Z</time>
      </trkpt>
      <trkpt lat="44.3771" lon="5.84833">
        <ele>1011.93</ele>
        <time>2013-04-25T12:45:43Z</time>
      </trkpt>
      <trkpt lat="44.37714" lon="5.84832">
        <ele>1010.96</ele>
        <time>2013-04-25T12:46:20Z</time>
      </trkpt>
      <trkpt lat="44.37713" lon="5.84828">
        <ele>1010.96</ele>
        <time>2013-04-25T12:46:49Z</time>
      </trkpt>
      <trkpt lat="44.37713" lon="5.84833">
        <ele>1010.96</ele>
        <time>2013-04-25T12:47:22Z</time>
      </trkpt>
      <trkpt lat="44.37705" lon="5.84837">
        <ele>1010</ele>
        <time>2013-04-25T12:47:36Z</time>
      </trkpt>
      <trkpt lat="44.37698" lon="5.84842">
        <ele>1008.08</ele>
        <time>2013-04-25T12:47:49Z</time>
      </trkpt>
      <trkpt lat="44.37691" lon="5.84849">
        <ele>1006.16</ele>
        <time>2013-04-25T12:48:04Z</time>
      </trkpt>
      <trkpt lat="44.37685" lon="5.84863">
        <ele>1003.75</ele>
        <time>2013-04-25T12:48:20Z</time>
      </trkpt>
      <trkpt lat="44.37679" lon="5.84866">
        <ele>1001.35</ele>
        <time>2013-04-25T12:48:35Z</time>
      </trkpt>
      <trkpt lat="44.37673" lon="5.84872">
        <ele>998.95</ele>
        <time>2013-04-25T12:48:51Z</time>
      </trkpt>
      <trkpt lat="44.37668" lon="5.84884">
        <ele>997.02</ele>
        <time>2013-04-25T12:49:05Z</time>
      </trkpt>
      <trkpt lat="44.37662" lon="5.84896">
        <ele>994.62</ele>
        <time>2013-04-25T12:49:22Z</time>
      </trkpt>
      <trkpt lat="44.37659" lon="5.84905">
        <ele>992.7</ele>
        <time>2013-04-25T12:49:36Z</time>
      </trkpt>
      <trkpt lat="44.37655" lon="5.84912">
        <ele>990.78</ele>
        <time>2013-04-25T12:49:50Z</time>
      </trkpt>
      <trkpt lat="44.37653" lon="5.84925">
        <ele>988.85</ele>
        <time>2013-04-25T12:50:06Z</time>
      </trkpt>
      <trkpt lat="44.37647" lon="5.8493">
        <ele>986.93</ele>
        <time>2013-04-25T12:50:21Z</time>
      </trkpt>
      <trkpt lat="44.37643" lon="5.84937">
        <ele>984.53</ele>
        <time>2013-04-25T12:50:34Z</time>
      </trkpt>
      <trkpt lat="44.37641" lon="5.8495">
        <ele>983.09</ele>
        <time>2013-04-25T12:50:49Z</time>
      </trkpt>
      <trkpt lat="44.37643" lon="5.8496">
        <ele>981.64</ele>
        <time>2013-04-25T12:51:04Z</time>
      </trkpt>
      <trkpt lat="44.37647" lon="5.84967">
        <ele>980.2</ele>
        <time>2013-04-25T12:51:16Z</time>
      </trkpt>
      <trkpt lat="44.37653" lon="5.84975">
        <ele>979.24</ele>
        <time>2013-04-25T12:51:31Z</time>
      </trkpt>
      <trkpt lat="44.37655" lon="5.84982">
        <ele>979.24</ele>
        <time>2013-04-25T12:51:43Z</time>
      </trkpt>
      <trkpt lat="44.37656" lon="5.8499">
        <ele>978.76</ele>
        <time>2013-04-25T12:51:56Z</time>
      </trkpt>
      <trkpt lat="44.37656" lon="5.84991">
        <ele>978.28</ele>
        <time>2013-04-25T12:51:58Z</time>
      </trkpt>
      <trkpt lat="44.37651" lon="5.84992">
        <ele>977.8</ele>
        <time>2013-04-25T12:52:11Z</time>
      </trkpt>
      <trkpt lat="44.37646" lon="5.84998">
        <ele>976.36</ele>
        <time>2013-04-25T12:52:25Z</time>
      </trkpt>
      <trkpt lat="44.37641" lon="5.85011">
        <ele>974.91</ele>
        <time>2013-04-25T12:52:40Z</time>
      </trkpt>
      <trkpt lat="44.37634" lon="5.85027">
        <ele>972.99</ele>
        <time>2013-04-25T12:52:58Z</time>
      </trkpt>
      <trkpt lat="44.37631" lon="5.85044">
        <ele>971.55</ele>
        <time>2013-04-25T12:53:14Z</time>
      </trkpt>
      <trkpt lat="44.37628" lon="5.85054">
        <ele>969.63</ele>
        <time>2013-04-25T12:53:29Z</time>
      </trkpt>
      <trkpt lat="44.37621" lon="5.8506">
        <ele>967.22</ele>
        <time>2013-04-25T12:53:45Z</time>
      </trkpt>
      <trkpt lat="44.37614" lon="5.85069">
        <ele>965.3</ele>
        <time>2013-04-25T12:53:59Z</time>
      </trkpt>
      <trkpt lat="44.37606" lon="5.85079">
        <ele>963.86</ele>
        <time>2013-04-25T12:54:16Z</time>
      </trkpt>
      <trkpt lat="44.37596" lon="5.85089">
        <ele>962.42</ele>
        <time>2013-04-25T12:54:32Z</time>
      </trkpt>
      <trkpt lat="44.37584" lon="5.85097">
        <ele>960.49</ele>
        <time>2013-04-25T12:54:49Z</time>
      </trkpt>
      <trkpt lat="44.37583" lon="5.85097">
        <ele>960.49</ele>
        <time>2013-04-25T12:54:50Z</time>
      </trkpt>
      <trkpt lat="44.3758" lon="5.85099">
        <ele>960.98</ele>
        <time>2013-04-25T12:54:54Z</time>
      </trkpt>
      <trkpt lat="44.37577" lon="5.851">
        <ele>960.49</ele>
        <time>2013-04-25T12:54:57Z</time>
      </trkpt>
      <trkpt lat="44.37568" lon="5.851">
        <ele>960.49</ele>
        <time>2013-04-25T12:55:10Z</time>
      </trkpt>
      <trkpt lat="44.37562" lon="5.85101">
        <ele>960.01</ele>
        <time>2013-04-25T12:55:29Z</time>
      </trkpt>
      <trkpt lat="44.37551" lon="5.85106">
        <ele>958.57</ele>
        <time>2013-04-25T12:55:43Z</time>
      </trkpt>
      <trkpt lat="44.37541" lon="5.85113">
        <ele>957.61</ele>
        <time>2013-04-25T12:55:59Z</time>
      </trkpt>
      <trkpt lat="44.3753" lon="5.85112">
        <ele>957.13</ele>
        <time>2013-04-25T12:56:15Z</time>
      </trkpt>
      <trkpt lat="44.37514" lon="5.85111">
        <ele>957.13</ele>
        <time>2013-04-25T12:56:31Z</time>
      </trkpt>
      <trkpt lat="44.37502" lon="5.85112">
        <ele>957.61</ele>
        <time>2013-04-25T12:56:46Z</time>
      </trkpt>
      <trkpt lat="44.3749" lon="5.85112">
        <ele>956.65</ele>
        <time>2013-04-25T12:57:01Z</time>
      </trkpt>
      <trkpt lat="44.37479" lon="5.85121">
        <ele>955.69</ele>
        <time>2013-04-25T12:57:17Z</time>
      </trkpt>
      <trkpt lat="44.37466" lon="5.85126">
        <ele>953.77</ele>
        <time>2013-04-25T12:57:34Z</time>
      </trkpt>
      <trkpt lat="44.37457" lon="5.85128">
        <ele>951.36</ele>
        <time>2013-04-25T12:57:49Z</time>
      </trkpt>
      <trkpt lat="44.37449" lon="5.85136">
        <ele>948.96</ele>
        <time>2013-04-25T12:58:05Z</time>
      </trkpt>
      <trkpt lat="44.37442" lon="5.85147">
        <ele>945.59</ele>
        <time>2013-04-25T12:58:21Z</time>
      </trkpt>
      <trkpt lat="44.37433" lon="5.85155">
        <ele>944.15</ele>
        <time>2013-04-25T12:58:36Z</time>
      </trkpt>
      <trkpt lat="44.3743" lon="5.85158">
        <ele>943.67</ele>
        <time>2013-04-25T12:58:40Z</time>
      </trkpt>
      <trkpt lat="44.3742" lon="5.85166">
        <ele>942.71</ele>
        <time>2013-04-25T12:58:54Z</time>
      </trkpt>
      <trkpt lat="44.37409" lon="5.85173">
        <ele>942.71</ele>
        <time>2013-04-25T12:59:08Z</time>
      </trkpt>
      <trkpt lat="44.374" lon="5.85185">
        <ele>943.19</ele>
        <time>2013-04-25T12:59:23Z</time>
      </trkpt>
      <trkpt lat="44.37394" lon="5.85194">
        <ele>942.23</ele>
        <time>2013-04-25T12:59:38Z</time>
      </trkpt>
      <trkpt lat="44.37391" lon="5.85202">
        <ele>940.79</ele>
        <time>2013-04-25T12:59:51Z</time>
      </trkpt>
      <trkpt lat="44.37388" lon="5.85207">
        <ele>940.31</ele>
        <time>2013-04-25T13:00:05Z</time>
      </trkpt>
      <trkpt lat="44.37386" lon="5.8521">
        <ele>939.35</ele>
        <time>2013-04-25T13:00:16Z</time>
      </trkpt>
      <trkpt lat="44.37381" lon="5.85225">
        <ele>935.98</ele>
        <time>2013-04-25T13:00:32Z</time>
      </trkpt>
      <trkpt lat="44.37376" lon="5.85235">
        <ele>933.58</ele>
        <time>2013-04-25T13:00:47Z</time>
      </trkpt>
      <trkpt lat="44.37373" lon="5.85249">
        <ele>930.69</ele>
        <time>2013-04-25T13:01:03Z</time>
      </trkpt>
      <trkpt lat="44.37369" lon="5.85263">
        <ele>928.77</ele>
        <time>2013-04-25T13:01:18Z</time>
      </trkpt>
      <trkpt lat="44.37365" lon="5.85273">
        <ele>926.37</ele>
        <time>2013-04-25T13:01:33Z</time>
      </trkpt>
      <trkpt lat="44.37361" lon="5.85286">
        <ele>923.96</ele>
        <time>2013-04-25T13:01:50Z</time>
      </trkpt>
      <trkpt lat="44.37362" lon="5.85303">
        <ele>921.08</ele>
        <time>2013-04-25T13:02:08Z</time>
      </trkpt>
      <trkpt lat="44.37367" lon="5.85316">
        <ele>920.12</ele>
        <time>2013-04-25T13:02:22Z</time>
      </trkpt>
      <trkpt lat="44.37369" lon="5.85323">
        <ele>919.16</ele>
        <time>2013-04-25T13:02:36Z</time>
      </trkpt>
      <trkpt lat="44.37368" lon="5.85322">
        <ele>918.68</ele>
        <time>2013-04-25T13:03:03Z</time>
      </trkpt>
      <trkpt lat="44.37367" lon="5.85323">
        <ele>918.68</ele>
        <time>2013-04-25T13:03:24Z</time>
      </trkpt>
      <trkpt lat="44.37367" lon="5.85324">
        <ele>918.2</ele>
        <time>2013-04-25T13:03:47Z</time>
      </trkpt>
      <trkpt lat="44.37368" lon="5.85322">
        <ele>918.68</ele>
        <time>2013-04-25T13:04:09Z</time>
      </trkpt>
      <trkpt lat="44.37368" lon="5.85335">
        <ele>917.24</ele>
        <time>2013-04-25T13:04:22Z</time>
      </trkpt>
      <trkpt lat="44.37368" lon="5.8535">
        <ele>915.79</ele>
        <time>2013-04-25T13:04:38Z</time>
      </trkpt>
      <trkpt lat="44.37371" lon="5.85362">
        <ele>915.31</ele>
        <time>2013-04-25T13:04:50Z</time>
      </trkpt>
      <trkpt lat="44.37376" lon="5.85369">
        <ele>916.75</ele>
        <time>2013-04-25T13:05:01Z</time>
      </trkpt>
      <trkpt lat="44.37374" lon="5.85377">
        <ele>915.31</ele>
        <time>2013-04-25T13:05:14Z</time>
      </trkpt>
      <trkpt lat="44.37377" lon="5.85393">
        <ele>914.35</ele>
        <time>2013-04-25T13:05:29Z</time>
      </trkpt>
      <trkpt lat="44.37379" lon="5.854">
        <ele>913.87</ele>
        <time>2013-04-25T13:05:41Z</time>
      </trkpt>
      <trkpt lat="44.37381" lon="5.85412">
        <ele>912.91</ele>
        <time>2013-04-25T13:06:01Z</time>
      </trkpt>
      <trkpt lat="44.37381" lon="5.85426">
        <ele>911.47</ele>
        <time>2013-04-25T13:06:17Z</time>
      </trkpt>
      <trkpt lat="44.37386" lon="5.85445">
        <ele>910.51</ele>
        <time>2013-04-25T13:06:34Z</time>
      </trkpt>
      <trkpt lat="44.3739" lon="5.85457">
        <ele>908.58</ele>
        <time>2013-04-25T13:06:50Z</time>
      </trkpt>
      <trkpt lat="44.37387" lon="5.85463">
        <ele>909.06</ele>
        <time>2013-04-25T13:07:01Z</time>
      </trkpt>
      <trkpt lat="44.37382" lon="5.85475">
        <ele>908.1</ele>
        <time>2013-04-25T13:07:17Z</time>
      </trkpt>
      <trkpt lat="44.37381" lon="5.85478">
        <ele>908.1</ele>
        <time>2013-04-25T13:07:34Z</time>
      </trkpt>
      <trkpt lat="44.37382" lon="5.85477">
        <ele>908.1</ele>
        <time>2013-04-25T13:07:48Z</time>
      </trkpt>
      <trkpt lat="44.37385" lon="5.85473">
        <ele>907.62</ele>
        <time>2013-04-25T13:08:06Z</time>
      </trkpt>
      <trkpt lat="44.37385" lon="5.85475">
        <ele>908.1</ele>
        <time>2013-04-25T13:08:15Z</time>
      </trkpt>
      <trkpt lat="44.37384" lon="5.85473">
        <ele>907.62</ele>
        <time>2013-04-25T13:08:31Z</time>
      </trkpt>
      <trkpt lat="44.37387" lon="5.85476">
        <ele>908.1</ele>
        <time>2013-04-25T13:08:48Z</time>
      </trkpt>
      <trkpt lat="44.37387" lon="5.85477">
        <ele>908.1</ele>
        <time>2013-04-25T13:09:05Z</time>
      </trkpt>
      <trkpt lat="44.37385" lon="5.85475">
        <ele>908.1</ele>
        <time>2013-04-25T13:09:16Z</time>
      </trkpt>
      <trkpt lat="44.37385" lon="5.85478">
        <ele>907.14</ele>
        <time>2013-04-25T13:09:40Z</time>
      </trkpt>
      <trkpt lat="44.37384" lon="5.85477">
        <ele>907.62</ele>
        <time>2013-04-25T13:10:09Z</time>
      </trkpt>
      <trkpt lat="44.37387" lon="5.85474">
        <ele>907.62</ele>
        <time>2013-04-25T13:10:32Z</time>
      </trkpt>
      <trkpt lat="44.37385" lon="5.85477">
        <ele>908.1</ele>
        <time>2013-04-25T13:10:54Z</time>
      </trkpt>
      <trkpt lat="44.37385" lon="5.85476">
        <ele>907.62</ele>
        <time>2013-04-25T13:11:10Z</time>
      </trkpt>
      <trkpt lat="44.37381" lon="5.85478">
        <ele>907.14</ele>
        <time>2013-04-25T13:11:24Z</time>
      </trkpt>
      <trkpt lat="44.37378" lon="5.85479">
        <ele>908.1</ele>
        <time>2013-04-25T13:11:47Z</time>
      </trkpt>
      <trkpt lat="44.37376" lon="5.85479">
        <ele>907.62</ele>
        <time>2013-04-25T13:12:03Z</time>
      </trkpt>
      <trkpt lat="44.3737" lon="5.8548">
        <ele>906.66</ele>
        <time>2013-04-25T13:12:18Z</time>
      </trkpt>
      <trkpt lat="44.37369" lon="5.85478">
        <ele>905.7</ele>
        <time>2013-04-25T13:12:34Z</time>
      </trkpt>
      <trkpt lat="44.3737" lon="5.85476">
        <ele>906.18</ele>
        <time>2013-04-25T13:12:51Z</time>
      </trkpt>
      <trkpt lat="44.37369" lon="5.85476">
        <ele>906.18</ele>
        <time>2013-04-25T13:13:21Z</time>
      </trkpt>
      <trkpt lat="44.37367" lon="5.85476">
        <ele>905.22</ele>
        <time>2013-04-25T13:13:52Z</time>
      </trkpt>
      <trkpt lat="44.37361" lon="5.85478">
        <ele>902.82</ele>
        <time>2013-04-25T13:14:06Z</time>
      </trkpt>
      <trkpt lat="44.37362" lon="5.85489">
        <ele>901.37</ele>
        <time>2013-04-25T13:14:18Z</time>
      </trkpt>
      <trkpt lat="44.37368" lon="5.855">
        <ele>898.01</ele>
        <time>2013-04-25T13:14:34Z</time>
      </trkpt>
      <trkpt lat="44.37385" lon="5.85511">
        <ele>895.12</ele>
        <time>2013-04-25T13:14:57Z</time>
      </trkpt>
      <trkpt lat="44.37389" lon="5.85525">
        <ele>893.68</ele>
        <time>2013-04-25T13:15:09Z</time>
      </trkpt>
      <trkpt lat="44.37394" lon="5.85536">
        <ele>891.76</ele>
        <time>2013-04-25T13:15:22Z</time>
      </trkpt>
      <trkpt lat="44.37396" lon="5.8554">
        <ele>891.28</ele>
        <time>2013-04-25T13:15:26Z</time>
      </trkpt>
      <trkpt lat="44.374" lon="5.85552">
        <ele>888.88</ele>
        <time>2013-04-25T13:15:36Z</time>
      </trkpt>
      <trkpt lat="44.37405" lon="5.85568">
        <ele>885.99</ele>
        <time>2013-04-25T13:15:53Z</time>
      </trkpt>
      <trkpt lat="44.374" lon="5.85576">
        <ele>883.11</ele>
        <time>2013-04-25T13:16:08Z</time>
      </trkpt>
      <trkpt lat="44.3739" lon="5.85577">
        <ele>880.22</ele>
        <time>2013-04-25T13:16:23Z</time>
      </trkpt>
      <trkpt lat="44.37384" lon="5.85583">
        <ele>876.86</ele>
        <time>2013-04-25T13:16:36Z</time>
      </trkpt>
      <trkpt lat="44.37388" lon="5.85593">
        <ele>875.42</ele>
        <time>2013-04-25T13:16:50Z</time>
      </trkpt>
      <trkpt lat="44.37393" lon="5.85605">
        <ele>874.94</ele>
        <time>2013-04-25T13:17:04Z</time>
      </trkpt>
      <trkpt lat="44.37392" lon="5.85611">
        <ele>874.46</ele>
        <time>2013-04-25T13:17:11Z</time>
      </trkpt>
      <trkpt lat="44.37386" lon="5.85622">
        <ele>872.53</ele>
        <time>2013-04-25T13:17:25Z</time>
      </trkpt>
      <trkpt lat="44.37382" lon="5.85638">
        <ele>870.13</ele>
        <time>2013-04-25T13:17:40Z</time>
      </trkpt>
      <trkpt lat="44.37374" lon="5.85651">
        <ele>867.25</ele>
        <time>2013-04-25T13:17:55Z</time>
      </trkpt>
      <trkpt lat="44.37374" lon="5.85667">
        <ele>867.25</ele>
        <time>2013-04-25T13:18:10Z</time>
      </trkpt>
      <trkpt lat="44.37366" lon="5.85685">
        <ele>865.32</ele>
        <time>2013-04-25T13:18:26Z</time>
      </trkpt>
      <trkpt lat="44.37369" lon="5.85704">
        <ele>866.29</ele>
        <time>2013-04-25T13:18:41Z</time>
      </trkpt>
      <trkpt lat="44.37369" lon="5.85719">
        <ele>867.25</ele>
        <time>2013-04-25T13:18:55Z</time>
      </trkpt>
      <trkpt lat="44.37369" lon="5.85735">
        <ele>866.77</ele>
        <time>2013-04-25T13:19:08Z</time>
      </trkpt>
      <trkpt lat="44.37377" lon="5.85751">
        <ele>866.29</ele>
        <time>2013-04-25T13:19:24Z</time>
      </trkpt>
      <trkpt lat="44.37387" lon="5.85761">
        <ele>865.32</ele>
        <time>2013-04-25T13:19:38Z</time>
      </trkpt>
      <trkpt lat="44.3739" lon="5.85769">
        <ele>864.84</ele>
        <time>2013-04-25T13:19:46Z</time>
      </trkpt>
      <trkpt lat="44.37394" lon="5.85791">
        <ele>863.4</ele>
        <time>2013-04-25T13:20:03Z</time>
      </trkpt>
      <trkpt lat="44.37397" lon="5.85806">
        <ele>863.4</ele>
        <time>2013-04-25T13:20:17Z</time>
      </trkpt>
      <trkpt lat="44.37398" lon="5.85828">
        <ele>863.88</ele>
        <time>2013-04-25T13:20:34Z</time>
      </trkpt>
      <trkpt lat="44.37403" lon="5.85853">
        <ele>864.84</ele>
        <time>2013-04-25T13:20:52Z</time>
      </trkpt>
      <trkpt lat="44.37406" lon="5.85867">
        <ele>866.29</ele>
        <time>2013-04-25T13:21:04Z</time>
      </trkpt>
      <trkpt lat="44.37407" lon="5.85886">
        <ele>865.8</ele>
        <time>2013-04-25T13:21:19Z</time>
      </trkpt>
      <trkpt lat="44.3741" lon="5.85905">
        <ele>865.8</ele>
        <time>2013-04-25T13:21:33Z</time>
      </trkpt>
      <trkpt lat="44.37414" lon="5.85925">
        <ele>864.84</ele>
        <time>2013-04-25T13:21:49Z</time>
      </trkpt>
      <trkpt lat="44.37416" lon="5.85945">
        <ele>863.4</ele>
        <time>2013-04-25T13:22:04Z</time>
      </trkpt>
      <trkpt lat="44.37421" lon="5.85952">
        <ele>862.92</ele>
        <time>2013-04-25T13:22:16Z</time>
      </trkpt>
      <trkpt lat="44.37422" lon="5.85968">
        <ele>863.4</ele>
        <time>2013-04-25T13:22:30Z</time>
      </trkpt>
      <trkpt lat="44.37425" lon="5.85984">
        <ele>863.4</ele>
        <time>2013-04-25T13:22:44Z</time>
      </trkpt>
      <trkpt lat="44.37431" lon="5.85995">
        <ele>864.84</ele>
        <time>2013-04-25T13:22:58Z</time>
      </trkpt>
      <trkpt lat="44.37439" lon="5.86">
        <ele>866.77</ele>
        <time>2013-04-25T13:23:12Z</time>
      </trkpt>
      <trkpt lat="44.37446" lon="5.86013">
        <ele>867.73</ele>
        <time>2013-04-25T13:23:26Z</time>
      </trkpt>
      <trkpt lat="44.37451" lon="5.86023">
        <ele>868.69</ele>
        <time>2013-04-25T13:23:38Z</time>
      </trkpt>
      <trkpt lat="44.37458" lon="5.86033">
        <ele>870.61</ele>
        <time>2013-04-25T13:23:51Z</time>
      </trkpt>
      <trkpt lat="44.37466" lon="5.86041">
        <ele>871.57</ele>
        <time>2013-04-25T13:24:06Z</time>
      </trkpt>
      <trkpt lat="44.37467" lon="5.86054">
        <ele>872.53</ele>
        <time>2013-04-25T13:24:21Z</time>
      </trkpt>
      <trkpt lat="44.37466" lon="5.86059">
        <ele>872.53</ele>
        <time>2013-04-25T13:24:25Z</time>
      </trkpt>
      <trkpt lat="44.37469" lon="5.86077">
        <ele>873.98</ele>
        <time>2013-04-25T13:24:40Z</time>
      </trkpt>
      <trkpt lat="44.37472" lon="5.8609">
        <ele>875.9</ele>
        <time>2013-04-25T13:24:54Z</time>
      </trkpt>
      <trkpt lat="44.37475" lon="5.861">
        <ele>877.82</ele>
        <time>2013-04-25T13:25:06Z</time>
      </trkpt>
      <trkpt lat="44.37478" lon="5.86111">
        <ele>879.26</ele>
        <time>2013-04-25T13:25:20Z</time>
      </trkpt>
      <trkpt lat="44.3748" lon="5.86123">
        <ele>882.15</ele>
        <time>2013-04-25T13:25:35Z</time>
      </trkpt>
      <trkpt lat="44.37483" lon="5.86137">
        <ele>883.11</ele>
        <time>2013-04-25T13:25:50Z</time>
      </trkpt>
      <trkpt lat="44.37481" lon="5.86151">
        <ele>881.67</ele>
        <time>2013-04-25T13:26:05Z</time>
      </trkpt>
      <trkpt lat="44.37477" lon="5.86167">
        <ele>879.26</ele>
        <time>2013-04-25T13:26:21Z</time>
      </trkpt>
      <trkpt lat="44.37471" lon="5.86182">
        <ele>876.38</ele>
        <time>2013-04-25T13:26:37Z</time>
      </trkpt>
      <trkpt lat="44.37472" lon="5.86205">
        <ele>874.94</ele>
        <time>2013-04-25T13:26:54Z</time>
      </trkpt>
      <trkpt lat="44.37474" lon="5.86221">
        <ele>873.98</ele>
        <time>2013-04-25T13:27:09Z</time>
      </trkpt>
      <trkpt lat="44.37471" lon="5.86238">
        <ele>872.53</ele>
        <time>2013-04-25T13:27:26Z</time>
      </trkpt>
      <trkpt lat="44.37466" lon="5.86253">
        <ele>870.61</ele>
        <time>2013-04-25T13:27:41Z</time>
      </trkpt>
      <trkpt lat="44.37468" lon="5.86269">
        <ele>868.69</ele>
        <time>2013-04-25T13:27:56Z</time>
      </trkpt>
      <trkpt lat="44.37467" lon="5.86285">
        <ele>866.77</ele>
        <time>2013-04-25T13:28:12Z</time>
      </trkpt>
      <trkpt lat="44.37464" lon="5.86303">
        <ele>865.32</ele>
        <time>2013-04-25T13:28:28Z</time>
      </trkpt>
      <trkpt lat="44.37463" lon="5.86308">
        <ele>864.84</ele>
        <time>2013-04-25T13:28:32Z</time>
      </trkpt>
      <trkpt lat="44.37462" lon="5.86324">
        <ele>862.44</ele>
        <time>2013-04-25T13:28:47Z</time>
      </trkpt>
      <trkpt lat="44.37462" lon="5.86339">
        <ele>861.48</ele>
        <time>2013-04-25T13:29:03Z</time>
      </trkpt>
      <trkpt lat="44.37463" lon="5.8636">
        <ele>859.08</ele>
        <time>2013-04-25T13:29:20Z</time>
      </trkpt>
      <trkpt lat="44.37465" lon="5.8638">
        <ele>857.15</ele>
        <time>2013-04-25T13:29:37Z</time>
      </trkpt>
      <trkpt lat="44.37458" lon="5.86397">
        <ele>854.27</ele>
        <time>2013-04-25T13:29:55Z</time>
      </trkpt>
      <trkpt lat="44.37455" lon="5.86417">
        <ele>852.35</ele>
        <time>2013-04-25T13:30:12Z</time>
      </trkpt>
      <trkpt lat="44.37451" lon="5.86427">
        <ele>850.42</ele>
        <time>2013-04-25T13:30:22Z</time>
      </trkpt>
      <trkpt lat="44.37446" lon="5.86449">
        <ele>848.5</ele>
        <time>2013-04-25T13:30:41Z</time>
      </trkpt>
      <trkpt lat="44.37444" lon="5.86473">
        <ele>845.62</ele>
        <time>2013-04-25T13:31:00Z</time>
      </trkpt>
      <trkpt lat="44.37447" lon="5.86497">
        <ele>843.69</ele>
        <time>2013-04-25T13:31:21Z</time>
      </trkpt>
      <trkpt lat="44.37453" lon="5.86511">
        <ele>843.69</ele>
        <time>2013-04-25T13:31:33Z</time>
      </trkpt>
      <trkpt lat="44.37461" lon="5.86529">
        <ele>842.73</ele>
        <time>2013-04-25T13:31:50Z</time>
      </trkpt>
      <trkpt lat="44.37464" lon="5.86538">
        <ele>841.77</ele>
        <time>2013-04-25T13:31:58Z</time>
      </trkpt>
      <trkpt lat="44.37469" lon="5.86556">
        <ele>839.85</ele>
        <time>2013-04-25T13:32:14Z</time>
      </trkpt>
      <trkpt lat="44.37475" lon="5.86574">
        <ele>838.41</ele>
        <time>2013-04-25T13:32:28Z</time>
      </trkpt>
      <trkpt lat="44.37485" lon="5.86591">
        <ele>837.45</ele>
        <time>2013-04-25T13:32:45Z</time>
      </trkpt>
      <trkpt lat="44.37492" lon="5.86593">
        <ele>837.93</ele>
        <time>2013-04-25T13:32:54Z</time>
      </trkpt>
      <trkpt lat="44.37509" lon="5.86597">
        <ele>835.52</ele>
        <time>2013-04-25T13:33:13Z</time>
      </trkpt>
      <trkpt lat="44.37511" lon="5.86604">
        <ele>835.04</ele>
        <time>2013-04-25T13:33:19Z</time>
      </trkpt>
      <trkpt lat="44.37511" lon="5.86609">
        <ele>834.56</ele>
        <time>2013-04-25T13:33:23Z</time>
      </trkpt>
      <trkpt lat="44.37498" lon="5.86633">
        <ele>833.12</ele>
        <time>2013-04-25T13:33:43Z</time>
      </trkpt>
      <trkpt lat="44.37492" lon="5.86648">
        <ele>833.12</ele>
        <time>2013-04-25T13:33:58Z</time>
      </trkpt>
      <trkpt lat="44.37493" lon="5.86655">
        <ele>833.12</ele>
        <time>2013-04-25T13:34:03Z</time>
      </trkpt>
      <trkpt lat="44.37497" lon="5.86676">
        <ele>831.2</ele>
        <time>2013-04-25T13:34:20Z</time>
      </trkpt>
      <trkpt lat="44.37502" lon="5.86695">
        <ele>830.24</ele>
        <time>2013-04-25T13:34:35Z</time>
      </trkpt>
      <trkpt lat="44.37502" lon="5.86706">
        <ele>829.27</ele>
        <time>2013-04-25T13:34:43Z</time>
      </trkpt>
      <trkpt lat="44.37502" lon="5.86715">
        <ele>827.35</ele>
        <time>2013-04-25T13:34:50Z</time>
      </trkpt>
      <trkpt lat="44.37502" lon="5.86725">
        <ele>826.87</ele>
        <time>2013-04-25T13:34:58Z</time>
      </trkpt>
      <trkpt lat="44.37502" lon="5.86748">
        <ele>823.99</ele>
        <time>2013-04-25T13:35:15Z</time>
      </trkpt>
      <trkpt lat="44.37504" lon="5.8676">
        <ele>823.03</ele>
        <time>2013-04-25T13:35:25Z</time>
      </trkpt>
      <trkpt lat="44.37505" lon="5.86782">
        <ele>820.62</ele>
        <time>2013-04-25T13:35:43Z</time>
      </trkpt>
      <trkpt lat="44.37505" lon="5.86784">
        <ele>820.14</ele>
        <time>2013-04-25T13:35:46Z</time>
      </trkpt>
      <trkpt lat="44.37504" lon="5.86808">
        <ele>817.74</ele>
        <time>2013-04-25T13:36:04Z</time>
      </trkpt>
      <trkpt lat="44.37502" lon="5.86827">
        <ele>815.34</ele>
        <time>2013-04-25T13:36:20Z</time>
      </trkpt>
      <trkpt lat="44.37499" lon="5.86845">
        <ele>812.93</ele>
        <time>2013-04-25T13:36:36Z</time>
      </trkpt>
      <trkpt lat="44.37494" lon="5.86868">
        <ele>810.53</ele>
        <time>2013-04-25T13:36:55Z</time>
      </trkpt>
      <trkpt lat="44.37494" lon="5.86891">
        <ele>807.16</ele>
        <time>2013-04-25T13:37:12Z</time>
      </trkpt>
      <trkpt lat="44.37497" lon="5.86904">
        <ele>806.2</ele>
        <time>2013-04-25T13:37:23Z</time>
      </trkpt>
      <trkpt lat="44.37502" lon="5.8693">
        <ele>803.32</ele>
        <time>2013-04-25T13:37:43Z</time>
      </trkpt>
      <trkpt lat="44.37499" lon="5.86941">
        <ele>801.88</ele>
        <time>2013-04-25T13:37:53Z</time>
      </trkpt>
      <trkpt lat="44.37498" lon="5.86945">
        <ele>801.88</ele>
        <time>2013-04-25T13:37:56Z</time>
      </trkpt>
      <trkpt lat="44.37497" lon="5.86948">
        <ele>801.4</ele>
        <time>2013-04-25T13:37:59Z</time>
      </trkpt>
      <trkpt lat="44.37493" lon="5.86971">
        <ele>798.51</ele>
        <time>2013-04-25T13:38:17Z</time>
      </trkpt>
      <trkpt lat="44.3749" lon="5.86994">
        <ele>796.59</ele>
        <time>2013-04-25T13:38:35Z</time>
      </trkpt>
      <trkpt lat="44.37488" lon="5.87015">
        <ele>794.19</ele>
        <time>2013-04-25T13:38:52Z</time>
      </trkpt>
      <trkpt lat="44.37487" lon="5.87033">
        <ele>792.74</ele>
        <time>2013-04-25T13:39:06Z</time>
      </trkpt>
      <trkpt lat="44.37486" lon="5.87054">
        <ele>790.34</ele>
        <time>2013-04-25T13:39:23Z</time>
      </trkpt>
      <trkpt lat="44.37492" lon="5.87062">
        <ele>789.38</ele>
        <time>2013-04-25T13:39:32Z</time>
      </trkpt>
      <trkpt lat="44.37504" lon="5.87053">
        <ele>787.94</ele>
        <time>2013-04-25T13:39:48Z</time>
      </trkpt>
      <trkpt lat="44.37508" lon="5.87052">
        <ele>786.98</ele>
        <time>2013-04-25T13:39:52Z</time>
      </trkpt>
      <trkpt lat="44.37515" lon="5.87044">
        <ele>787.46</ele>
        <time>2013-04-25T13:40:04Z</time>
      </trkpt>
      <trkpt lat="44.37527" lon="5.87044">
        <ele>788.9</ele>
        <time>2013-04-25T13:40:19Z</time>
      </trkpt>
      <trkpt lat="44.37538" lon="5.87041">
        <ele>790.82</ele>
        <time>2013-04-25T13:40:32Z</time>
      </trkpt>
      <trkpt lat="44.37551" lon="5.87038">
        <ele>791.78</ele>
        <time>2013-04-25T13:40:46Z</time>
      </trkpt>
      <trkpt lat="44.37563" lon="5.87038">
        <ele>791.78</ele>
        <time>2013-04-25T13:41:01Z</time>
      </trkpt>
      <trkpt lat="44.37576" lon="5.87031">
        <ele>791.78</ele>
        <time>2013-04-25T13:41:17Z</time>
      </trkpt>
      <trkpt lat="44.37586" lon="5.87025">
        <ele>791.78</ele>
        <time>2013-04-25T13:41:31Z</time>
      </trkpt>
      <trkpt lat="44.37598" lon="5.87029">
        <ele>791.3</ele>
        <time>2013-04-25T13:41:46Z</time>
      </trkpt>
      <trkpt lat="44.37614" lon="5.87022">
        <ele>790.82</ele>
        <time>2013-04-25T13:42:03Z</time>
      </trkpt>
      <trkpt lat="44.37627" lon="5.87019">
        <ele>791.3</ele>
        <time>2013-04-25T13:42:18Z</time>
      </trkpt>
      <trkpt lat="44.37632" lon="5.87017">
        <ele>792.26</ele>
        <time>2013-04-25T13:42:31Z</time>
      </trkpt>
      <trkpt lat="44.37632" lon="5.87021">
        <ele>791.78</ele>
        <time>2013-04-25T13:42:47Z</time>
      </trkpt>
      <trkpt lat="44.37635" lon="5.87017">
        <ele>791.78</ele>
        <time>2013-04-25T13:43:04Z</time>
      </trkpt>
      <trkpt lat="44.37635" lon="5.87018">
        <ele>791.78</ele>
        <time>2013-04-25T13:43:34Z</time>
      </trkpt>
      <trkpt lat="44.37637" lon="5.87018">
        <ele>791.78</ele>
        <time>2013-04-25T13:43:52Z</time>
      </trkpt>
      <trkpt lat="44.37639" lon="5.87013">
        <ele>791.78</ele>
        <time>2013-04-25T13:44:12Z</time>
      </trkpt>
      <trkpt lat="44.37643" lon="5.86998">
        <ele>793.71</ele>
        <time>2013-04-25T13:44:25Z</time>
      </trkpt>
      <trkpt lat="44.37642" lon="5.86989">
        <ele>795.63</ele>
        <time>2013-04-25T13:44:39Z</time>
      </trkpt>
      <trkpt lat="44.37642" lon="5.86988">
        <ele>795.63</ele>
        <time>2013-04-25T13:44:50Z</time>
      </trkpt>
      <trkpt lat="44.37643" lon="5.86988">
        <ele>795.15</ele>
        <time>2013-04-25T13:45:08Z</time>
      </trkpt>
      <trkpt lat="44.37643" lon="5.86988">
        <ele>795.15</ele>
        <time>2013-04-25T13:45:13Z</time>
      </trkpt>
    </trkseg>
  </trk>
</gpx>